<?xml version="1.0" encoding="UTF-8" standalone="no" ?>
<gpx xmlns="http://www.topografix.com/GPX/1/1" xmlns:xsi="http://www.w3.org/2001/XMLSchema-instance" xsi:schemaLocation="http://www.topografix.com/GPX/1/1 http://www.topografix.com/GPX/1/1/gpx.xsd" version="1.1" creator="VisuGPX - https://www.visugpx.com">
  <metadata>
    <name>lyon montelimar</name>
    <desc><![CDATA[Lyon montélimard par la via rhona]]></desc>
  </metadata>
  <trk>
    <name><![CDATA[20180415225359-J2UR7]]></name>
    <trkseg>
      <trkpt lat="45.75655" lon="4.83949">
        <ele>165</ele>
        <time>2017-07-25T12:14:54Z</time>
      </trkpt>
      <trkpt lat="45.75646" lon="4.83943">
        <ele>165</ele>
        <time>2017-07-25T12:14:56Z</time>
      </trkpt>
      <trkpt lat="45.75604" lon="4.83921">
        <ele>165</ele>
        <time>2017-07-25T12:15:04Z</time>
      </trkpt>
      <trkpt lat="45.75552" lon="4.83891">
        <ele>166</ele>
        <time>2017-07-25T12:15:14Z</time>
      </trkpt>
      <trkpt lat="45.75529" lon="4.83869">
        <ele>166</ele>
        <time>2017-07-25T12:15:19Z</time>
      </trkpt>
      <trkpt lat="45.75497" lon="4.83848">
        <ele>166</ele>
        <time>2017-07-25T12:15:25Z</time>
      </trkpt>
      <trkpt lat="45.7546" lon="4.83824">
        <ele>165</ele>
        <time>2017-07-25T12:15:32Z</time>
      </trkpt>
      <trkpt lat="45.75424" lon="4.83799">
        <ele>165</ele>
        <time>2017-07-25T12:15:39Z</time>
      </trkpt>
      <trkpt lat="45.75372" lon="4.83762">
        <ele>167</ele>
        <time>2017-07-25T12:15:49Z</time>
      </trkpt>
      <trkpt lat="45.75338" lon="4.83735">
        <ele>166</ele>
        <time>2017-07-25T12:15:56Z</time>
      </trkpt>
      <trkpt lat="45.75301" lon="4.83706">
        <ele>166</ele>
        <time>2017-07-25T12:16:04Z</time>
      </trkpt>
      <trkpt lat="45.75269" lon="4.83681">
        <ele>166</ele>
        <time>2017-07-25T12:16:12Z</time>
      </trkpt>
      <trkpt lat="45.75262" lon="4.83677">
        <ele>166</ele>
        <time>2017-07-25T12:16:14Z</time>
      </trkpt>
      <trkpt lat="45.75251" lon="4.83671">
        <ele>165</ele>
        <time>2017-07-25T12:16:17Z</time>
      </trkpt>
      <trkpt lat="45.75246" lon="4.83671">
        <ele>166</ele>
        <time>2017-07-25T12:16:18Z</time>
      </trkpt>
      <trkpt lat="45.75229" lon="4.83675">
        <ele>167</ele>
        <time>2017-07-25T12:16:22Z</time>
      </trkpt>
      <trkpt lat="45.75225" lon="4.83677">
        <ele>167</ele>
        <time>2017-07-25T12:16:23Z</time>
      </trkpt>
      <trkpt lat="45.75217" lon="4.8368">
        <ele>168</ele>
        <time>2017-07-25T12:16:25Z</time>
      </trkpt>
      <trkpt lat="45.75208" lon="4.83676">
        <ele>168</ele>
        <time>2017-07-25T12:16:27Z</time>
      </trkpt>
      <trkpt lat="45.75198" lon="4.83671">
        <ele>168</ele>
        <time>2017-07-25T12:16:29Z</time>
      </trkpt>
      <trkpt lat="45.75186" lon="4.83661">
        <ele>167</ele>
        <time>2017-07-25T12:16:32Z</time>
      </trkpt>
      <trkpt lat="45.75182" lon="4.83657">
        <ele>167</ele>
        <time>2017-07-25T12:16:33Z</time>
      </trkpt>
      <trkpt lat="45.75174" lon="4.83648">
        <ele>167</ele>
        <time>2017-07-25T12:16:35Z</time>
      </trkpt>
      <trkpt lat="45.75168" lon="4.83638">
        <ele>166</ele>
        <time>2017-07-25T12:16:37Z</time>
      </trkpt>
      <trkpt lat="45.75158" lon="4.83625">
        <ele>167</ele>
        <time>2017-07-25T12:16:40Z</time>
      </trkpt>
      <trkpt lat="45.7515" lon="4.83618">
        <ele>167</ele>
        <time>2017-07-25T12:16:42Z</time>
      </trkpt>
      <trkpt lat="45.75132" lon="4.83602">
        <ele>166</ele>
        <time>2017-07-25T12:16:46Z</time>
      </trkpt>
      <trkpt lat="45.75128" lon="4.83598">
        <ele>166</ele>
        <time>2017-07-25T12:16:47Z</time>
      </trkpt>
      <trkpt lat="45.75093" lon="4.83569">
        <ele>165</ele>
        <time>2017-07-25T12:16:55Z</time>
      </trkpt>
      <trkpt lat="45.75062" lon="4.83544">
        <ele>165</ele>
        <time>2017-07-25T12:17:02Z</time>
      </trkpt>
      <trkpt lat="45.75033" lon="4.83513">
        <ele>164</ele>
        <time>2017-07-25T12:17:09Z</time>
      </trkpt>
      <trkpt lat="45.75011" lon="4.83492">
        <ele>164</ele>
        <time>2017-07-25T12:17:14Z</time>
      </trkpt>
      <trkpt lat="45.75006" lon="4.83489">
        <ele>164</ele>
        <time>2017-07-25T12:17:15Z</time>
      </trkpt>
      <trkpt lat="45.74989" lon="4.83475">
        <ele>165</ele>
        <time>2017-07-25T12:17:19Z</time>
      </trkpt>
      <trkpt lat="45.74975" lon="4.83465">
        <ele>165</ele>
        <time>2017-07-25T12:17:22Z</time>
      </trkpt>
      <trkpt lat="45.74971" lon="4.83461">
        <ele>165</ele>
        <time>2017-07-25T12:17:23Z</time>
      </trkpt>
      <trkpt lat="45.74966" lon="4.83457">
        <ele>165</ele>
        <time>2017-07-25T12:17:24Z</time>
      </trkpt>
      <trkpt lat="45.74962" lon="4.83454">
        <ele>165</ele>
        <time>2017-07-25T12:17:25Z</time>
      </trkpt>
      <trkpt lat="45.74948" lon="4.83443">
        <ele>165</ele>
        <time>2017-07-25T12:17:28Z</time>
      </trkpt>
      <trkpt lat="45.74916" lon="4.83416">
        <ele>164</ele>
        <time>2017-07-25T12:17:35Z</time>
      </trkpt>
      <trkpt lat="45.74889" lon="4.83396">
        <ele>166</ele>
        <time>2017-07-25T12:17:41Z</time>
      </trkpt>
      <trkpt lat="45.74884" lon="4.83391">
        <ele>166</ele>
        <time>2017-07-25T12:17:42Z</time>
      </trkpt>
      <trkpt lat="45.74859" lon="4.83373">
        <ele>166</ele>
        <time>2017-07-25T12:17:47Z</time>
      </trkpt>
      <trkpt lat="45.74824" lon="4.83348">
        <ele>168</ele>
        <time>2017-07-25T12:17:54Z</time>
      </trkpt>
      <trkpt lat="45.74801" lon="4.83333">
        <ele>167</ele>
        <time>2017-07-25T12:17:59Z</time>
      </trkpt>
      <trkpt lat="45.74796" lon="4.83332">
        <ele>167</ele>
        <time>2017-07-25T12:18:00Z</time>
      </trkpt>
      <trkpt lat="45.74777" lon="4.8332">
        <ele>169</ele>
        <time>2017-07-25T12:18:04Z</time>
      </trkpt>
      <trkpt lat="45.7477" lon="4.83312">
        <ele>169</ele>
        <time>2017-07-25T12:18:06Z</time>
      </trkpt>
      <trkpt lat="45.74753" lon="4.83294">
        <ele>168</ele>
        <time>2017-07-25T12:18:11Z</time>
      </trkpt>
      <trkpt lat="45.74729" lon="4.83275">
        <ele>168</ele>
        <time>2017-07-25T12:18:17Z</time>
      </trkpt>
      <trkpt lat="45.74697" lon="4.83248">
        <ele>166</ele>
        <time>2017-07-25T12:18:24Z</time>
      </trkpt>
      <trkpt lat="45.74665" lon="4.83222">
        <ele>167</ele>
        <time>2017-07-25T12:18:31Z</time>
      </trkpt>
      <trkpt lat="45.74628" lon="4.83189">
        <ele>168</ele>
        <time>2017-07-25T12:18:39Z</time>
      </trkpt>
      <trkpt lat="45.74614" lon="4.83181">
        <ele>168</ele>
        <time>2017-07-25T12:18:42Z</time>
      </trkpt>
      <trkpt lat="45.74603" lon="4.83174">
        <ele>168</ele>
        <time>2017-07-25T12:18:45Z</time>
      </trkpt>
      <trkpt lat="45.74584" lon="4.83159">
        <ele>168</ele>
        <time>2017-07-25T12:18:49Z</time>
      </trkpt>
      <trkpt lat="45.7456" lon="4.83132">
        <ele>167</ele>
        <time>2017-07-25T12:18:55Z</time>
      </trkpt>
      <trkpt lat="45.74532" lon="4.83098">
        <ele>166</ele>
        <time>2017-07-25T12:19:02Z</time>
      </trkpt>
      <trkpt lat="45.74517" lon="4.83078">
        <ele>165</ele>
        <time>2017-07-25T12:19:06Z</time>
      </trkpt>
      <trkpt lat="45.74512" lon="4.83074">
        <ele>165</ele>
        <time>2017-07-25T12:19:07Z</time>
      </trkpt>
      <trkpt lat="45.74504" lon="4.83064">
        <ele>165</ele>
        <time>2017-07-25T12:19:09Z</time>
      </trkpt>
      <trkpt lat="45.74487" lon="4.83044">
        <ele>165</ele>
        <time>2017-07-25T12:19:13Z</time>
      </trkpt>
      <trkpt lat="45.74458" lon="4.83016">
        <ele>165</ele>
        <time>2017-07-25T12:19:19Z</time>
      </trkpt>
      <trkpt lat="45.7443" lon="4.82991">
        <ele>165</ele>
        <time>2017-07-25T12:19:25Z</time>
      </trkpt>
      <trkpt lat="45.74397" lon="4.82961">
        <ele>165</ele>
        <time>2017-07-25T12:19:32Z</time>
      </trkpt>
      <trkpt lat="45.74382" lon="4.82951">
        <ele>165</ele>
        <time>2017-07-25T12:19:35Z</time>
      </trkpt>
      <trkpt lat="45.74334" lon="4.8291">
        <ele>165</ele>
        <time>2017-07-25T12:19:46Z</time>
      </trkpt>
      <trkpt lat="45.74308" lon="4.82884">
        <ele>166</ele>
        <time>2017-07-25T12:19:52Z</time>
      </trkpt>
      <trkpt lat="45.74271" lon="4.82852">
        <ele>166</ele>
        <time>2017-07-25T12:20:00Z</time>
      </trkpt>
      <trkpt lat="45.74234" lon="4.82819">
        <ele>165</ele>
        <time>2017-07-25T12:20:08Z</time>
      </trkpt>
      <trkpt lat="45.74201" lon="4.82793">
        <ele>166</ele>
        <time>2017-07-25T12:20:15Z</time>
      </trkpt>
      <trkpt lat="45.74175" lon="4.8277">
        <ele>165</ele>
        <time>2017-07-25T12:20:21Z</time>
      </trkpt>
      <trkpt lat="45.74151" lon="4.8275">
        <ele>166</ele>
        <time>2017-07-25T12:20:27Z</time>
      </trkpt>
      <trkpt lat="45.74131" lon="4.82733">
        <ele>167</ele>
        <time>2017-07-25T12:20:34Z</time>
      </trkpt>
      <trkpt lat="45.7411" lon="4.82717">
        <ele>167</ele>
        <time>2017-07-25T12:20:40Z</time>
      </trkpt>
      <trkpt lat="45.7409" lon="4.827">
        <ele>167</ele>
        <time>2017-07-25T12:20:45Z</time>
      </trkpt>
      <trkpt lat="45.74059" lon="4.82675">
        <ele>167</ele>
        <time>2017-07-25T12:20:52Z</time>
      </trkpt>
      <trkpt lat="45.74024" lon="4.82647">
        <ele>165</ele>
        <time>2017-07-25T12:21:00Z</time>
      </trkpt>
      <trkpt lat="45.73988" lon="4.82617">
        <ele>165</ele>
        <time>2017-07-25T12:21:08Z</time>
      </trkpt>
      <trkpt lat="45.7396" lon="4.82594">
        <ele>166</ele>
        <time>2017-07-25T12:21:14Z</time>
      </trkpt>
      <trkpt lat="45.73926" lon="4.82566">
        <ele>165</ele>
        <time>2017-07-25T12:21:22Z</time>
      </trkpt>
      <trkpt lat="45.7389" lon="4.82537">
        <ele>166</ele>
        <time>2017-07-25T12:21:30Z</time>
      </trkpt>
      <trkpt lat="45.73859" lon="4.82507">
        <ele>167</ele>
        <time>2017-07-25T12:21:37Z</time>
      </trkpt>
      <trkpt lat="45.73825" lon="4.82474">
        <ele>167</ele>
        <time>2017-07-25T12:21:45Z</time>
      </trkpt>
      <trkpt lat="45.73791" lon="4.82447">
        <ele>166</ele>
        <time>2017-07-25T12:21:52Z</time>
      </trkpt>
      <trkpt lat="45.73787" lon="4.82444">
        <ele>166</ele>
        <time>2017-07-25T12:21:53Z</time>
      </trkpt>
      <trkpt lat="45.73775" lon="4.82432">
        <ele>166</ele>
        <time>2017-07-25T12:21:56Z</time>
      </trkpt>
      <trkpt lat="45.73745" lon="4.82408">
        <ele>166</ele>
        <time>2017-07-25T12:22:03Z</time>
      </trkpt>
      <trkpt lat="45.73719" lon="4.82386">
        <ele>167</ele>
        <time>2017-07-25T12:22:09Z</time>
      </trkpt>
      <trkpt lat="45.73703" lon="4.82374">
        <ele>167</ele>
        <time>2017-07-25T12:22:13Z</time>
      </trkpt>
      <trkpt lat="45.73699" lon="4.82372">
        <ele>167</ele>
        <time>2017-07-25T12:22:14Z</time>
      </trkpt>
      <trkpt lat="45.73681" lon="4.82361">
        <ele>166</ele>
        <time>2017-07-25T12:22:20Z</time>
      </trkpt>
      <trkpt lat="45.73668" lon="4.82353">
        <ele>166</ele>
        <time>2017-07-25T12:22:39Z</time>
      </trkpt>
      <trkpt lat="45.73664" lon="4.82352">
        <ele>166</ele>
        <time>2017-07-25T12:22:40Z</time>
      </trkpt>
      <trkpt lat="45.7365" lon="4.82348">
        <ele>166</ele>
        <time>2017-07-25T12:22:44Z</time>
      </trkpt>
      <trkpt lat="45.73638" lon="4.82339">
        <ele>166</ele>
        <time>2017-07-25T12:22:47Z</time>
      </trkpt>
      <trkpt lat="45.73613" lon="4.82321">
        <ele>164</ele>
        <time>2017-07-25T12:22:53Z</time>
      </trkpt>
      <trkpt lat="45.73585" lon="4.82299">
        <ele>164</ele>
        <time>2017-07-25T12:23:00Z</time>
      </trkpt>
      <trkpt lat="45.73565" lon="4.82284">
        <ele>165</ele>
        <time>2017-07-25T12:23:05Z</time>
      </trkpt>
      <trkpt lat="45.73554" lon="4.82274">
        <ele>165</ele>
        <time>2017-07-25T12:23:08Z</time>
      </trkpt>
      <trkpt lat="45.73527" lon="4.82251">
        <ele>164</ele>
        <time>2017-07-25T12:23:15Z</time>
      </trkpt>
      <trkpt lat="45.73496" lon="4.82229">
        <ele>164</ele>
        <time>2017-07-25T12:23:22Z</time>
      </trkpt>
      <trkpt lat="45.73467" lon="4.82209">
        <ele>164</ele>
        <time>2017-07-25T12:23:29Z</time>
      </trkpt>
      <trkpt lat="45.7345" lon="4.82205">
        <ele>164</ele>
        <time>2017-07-25T12:23:33Z</time>
      </trkpt>
      <trkpt lat="45.73415" lon="4.82201">
        <ele>165</ele>
        <time>2017-07-25T12:24:57Z</time>
      </trkpt>
      <trkpt lat="45.73391" lon="4.82194">
        <ele>165</ele>
        <time>2017-07-25T12:25:04Z</time>
      </trkpt>
      <trkpt lat="45.73372" lon="4.82191">
        <ele>165</ele>
        <time>2017-07-25T12:25:09Z</time>
      </trkpt>
      <trkpt lat="45.73354" lon="4.82189">
        <ele>165</ele>
        <time>2017-07-25T12:25:15Z</time>
      </trkpt>
      <trkpt lat="45.73335" lon="4.82189">
        <ele>165</ele>
        <time>2017-07-25T12:25:21Z</time>
      </trkpt>
      <trkpt lat="45.73319" lon="4.82191">
        <ele>166</ele>
        <time>2017-07-25T12:25:25Z</time>
      </trkpt>
      <trkpt lat="45.73314" lon="4.82191">
        <ele>166</ele>
        <time>2017-07-25T12:25:26Z</time>
      </trkpt>
      <trkpt lat="45.73295" lon="4.82188">
        <ele>167</ele>
        <time>2017-07-25T12:25:30Z</time>
      </trkpt>
      <trkpt lat="45.73286" lon="4.8218">
        <ele>166</ele>
        <time>2017-07-25T12:25:32Z</time>
      </trkpt>
      <trkpt lat="45.73258" lon="4.82163">
        <ele>165</ele>
        <time>2017-07-25T12:25:38Z</time>
      </trkpt>
      <trkpt lat="45.73229" lon="4.82149">
        <ele>165</ele>
        <time>2017-07-25T12:25:44Z</time>
      </trkpt>
      <trkpt lat="45.73207" lon="4.82138">
        <ele>165</ele>
        <time>2017-07-25T12:25:49Z</time>
      </trkpt>
      <trkpt lat="45.73198" lon="4.82135">
        <ele>165</ele>
        <time>2017-07-25T12:25:51Z</time>
      </trkpt>
      <trkpt lat="45.7317" lon="4.82128">
        <ele>165</ele>
        <time>2017-07-25T12:25:57Z</time>
      </trkpt>
      <trkpt lat="45.73144" lon="4.82122">
        <ele>165</ele>
        <time>2017-07-25T12:26:03Z</time>
      </trkpt>
      <trkpt lat="45.73127" lon="4.8212">
        <ele>164</ele>
        <time>2017-07-25T12:26:08Z</time>
      </trkpt>
      <trkpt lat="45.73126" lon="4.82122">
        <ele>164</ele>
        <time>2017-07-25T12:28:27Z</time>
      </trkpt>
      <trkpt lat="45.73131" lon="4.82126">
        <ele>165</ele>
        <time>2017-07-25T12:28:30Z</time>
      </trkpt>
      <trkpt lat="45.73139" lon="4.8213">
        <ele>165</ele>
        <time>2017-07-25T12:28:33Z</time>
      </trkpt>
      <trkpt lat="45.73142" lon="4.82131">
        <ele>165</ele>
        <time>2017-07-25T12:28:34Z</time>
      </trkpt>
      <trkpt lat="45.73145" lon="4.82133">
        <ele>165</ele>
        <time>2017-07-25T12:28:35Z</time>
      </trkpt>
      <trkpt lat="45.73147" lon="4.82136">
        <ele>165</ele>
        <time>2017-07-25T12:28:36Z</time>
      </trkpt>
      <trkpt lat="45.7315" lon="4.82138">
        <ele>165</ele>
        <time>2017-07-25T12:28:37Z</time>
      </trkpt>
      <trkpt lat="45.73162" lon="4.82148">
        <ele>165</ele>
        <time>2017-07-25T12:28:41Z</time>
      </trkpt>
      <trkpt lat="45.73164" lon="4.8215">
        <ele>165</ele>
        <time>2017-07-25T12:28:44Z</time>
      </trkpt>
      <trkpt lat="45.73167" lon="4.82153">
        <ele>165</ele>
        <time>2017-07-25T12:29:11Z</time>
      </trkpt>
      <trkpt lat="45.73168" lon="4.82154">
        <ele>165</ele>
        <time>2017-07-25T12:29:12Z</time>
      </trkpt>
      <trkpt lat="45.7317" lon="4.82157">
        <ele>166</ele>
        <time>2017-07-25T12:29:13Z</time>
      </trkpt>
      <trkpt lat="45.73173" lon="4.82175">
        <ele>166</ele>
        <time>2017-07-25T12:29:18Z</time>
      </trkpt>
      <trkpt lat="45.73172" lon="4.82197">
        <ele>167</ele>
        <time>2017-07-25T12:29:23Z</time>
      </trkpt>
      <trkpt lat="45.73169" lon="4.82217">
        <ele>167</ele>
        <time>2017-07-25T12:29:27Z</time>
      </trkpt>
      <trkpt lat="45.73169" lon="4.82224">
        <ele>167</ele>
        <time>2017-07-25T12:29:34Z</time>
      </trkpt>
      <trkpt lat="45.73169" lon="4.82226">
        <ele>167</ele>
        <time>2017-07-25T12:29:36Z</time>
      </trkpt>
      <trkpt lat="45.73172" lon="4.82227">
        <ele>167</ele>
        <time>2017-07-25T12:29:38Z</time>
      </trkpt>
      <trkpt lat="45.73176" lon="4.82218">
        <ele>167</ele>
        <time>2017-07-25T12:29:42Z</time>
      </trkpt>
      <trkpt lat="45.7318" lon="4.82194">
        <ele>167</ele>
        <time>2017-07-25T12:29:47Z</time>
      </trkpt>
      <trkpt lat="45.73185" lon="4.82167">
        <ele>166</ele>
        <time>2017-07-25T12:29:51Z</time>
      </trkpt>
      <trkpt lat="45.73186" lon="4.82161">
        <ele>165</ele>
        <time>2017-07-25T12:29:52Z</time>
      </trkpt>
      <trkpt lat="45.73187" lon="4.82154">
        <ele>165</ele>
        <time>2017-07-25T12:29:53Z</time>
      </trkpt>
      <trkpt lat="45.73188" lon="4.82148">
        <ele>165</ele>
        <time>2017-07-25T12:29:54Z</time>
      </trkpt>
      <trkpt lat="45.7319" lon="4.82143">
        <ele>165</ele>
        <time>2017-07-25T12:29:55Z</time>
      </trkpt>
      <trkpt lat="45.73197" lon="4.82127">
        <ele>165</ele>
        <time>2017-07-25T12:29:59Z</time>
      </trkpt>
      <trkpt lat="45.73227" lon="4.82085">
        <ele>164</ele>
        <time>2017-07-25T12:31:07Z</time>
      </trkpt>
      <trkpt lat="45.73264" lon="4.82037">
        <ele>164</ele>
        <time>2017-07-25T12:31:21Z</time>
      </trkpt>
      <trkpt lat="45.73288" lon="4.82009">
        <ele>164</ele>
        <time>2017-07-25T12:31:28Z</time>
      </trkpt>
      <trkpt lat="45.733" lon="4.81995">
        <ele>164</ele>
        <time>2017-07-25T12:31:31Z</time>
      </trkpt>
      <trkpt lat="45.73313" lon="4.8198">
        <ele>164</ele>
        <time>2017-07-25T12:31:34Z</time>
      </trkpt>
      <trkpt lat="45.73338" lon="4.81949">
        <ele>164</ele>
        <time>2017-07-25T12:31:40Z</time>
      </trkpt>
      <trkpt lat="45.7334" lon="4.81942">
        <ele>164</ele>
        <time>2017-07-25T12:31:41Z</time>
      </trkpt>
      <trkpt lat="45.73343" lon="4.81935">
        <ele>164</ele>
        <time>2017-07-25T12:31:42Z</time>
      </trkpt>
      <trkpt lat="45.73357" lon="4.8188">
        <ele>166</ele>
        <time>2017-07-25T12:31:50Z</time>
      </trkpt>
      <trkpt lat="45.73363" lon="4.81863">
        <ele>167</ele>
        <time>2017-07-25T12:31:53Z</time>
      </trkpt>
      <trkpt lat="45.73374" lon="4.81834">
        <ele>167</ele>
        <time>2017-07-25T12:31:59Z</time>
      </trkpt>
      <trkpt lat="45.73384" lon="4.81811">
        <ele>169</ele>
        <time>2017-07-25T12:32:05Z</time>
      </trkpt>
      <trkpt lat="45.73391" lon="4.81798">
        <ele>169</ele>
        <time>2017-07-25T12:32:09Z</time>
      </trkpt>
      <trkpt lat="45.73398" lon="4.81786">
        <ele>169</ele>
        <time>2017-07-25T12:32:13Z</time>
      </trkpt>
      <trkpt lat="45.73401" lon="4.81781">
        <ele>169</ele>
        <time>2017-07-25T12:32:15Z</time>
      </trkpt>
      <trkpt lat="45.73401" lon="4.81779">
        <ele>169</ele>
        <time>2017-07-25T12:32:16Z</time>
      </trkpt>
      <trkpt lat="45.73401" lon="4.81778">
        <ele>169</ele>
        <time>2017-07-25T12:32:17Z</time>
      </trkpt>
      <trkpt lat="45.73401" lon="4.81778">
        <ele>169</ele>
        <time>2017-07-25T12:32:19Z</time>
      </trkpt>
      <trkpt lat="45.73401" lon="4.81775">
        <ele>169</ele>
        <time>2017-07-25T12:32:21Z</time>
      </trkpt>
      <trkpt lat="45.73398" lon="4.81769">
        <ele>169</ele>
        <time>2017-07-25T12:32:23Z</time>
      </trkpt>
      <trkpt lat="45.73393" lon="4.81769">
        <ele>169</ele>
        <time>2017-07-25T12:32:25Z</time>
      </trkpt>
      <trkpt lat="45.73388" lon="4.81768">
        <ele>169</ele>
        <time>2017-07-25T12:32:27Z</time>
      </trkpt>
      <trkpt lat="45.73373" lon="4.81757">
        <ele>169</ele>
        <time>2017-07-25T12:32:32Z</time>
      </trkpt>
      <trkpt lat="45.73349" lon="4.8174">
        <ele>169</ele>
        <time>2017-07-25T12:32:39Z</time>
      </trkpt>
      <trkpt lat="45.73326" lon="4.81721">
        <ele>169</ele>
        <time>2017-07-25T12:32:46Z</time>
      </trkpt>
      <trkpt lat="45.73201" lon="4.81634">
        <ele>166</ele>
        <time>2017-07-25T12:35:36Z</time>
      </trkpt>
      <trkpt lat="45.73192" lon="4.81627">
        <ele>165</ele>
        <time>2017-07-25T12:35:38Z</time>
      </trkpt>
      <trkpt lat="45.73183" lon="4.81619">
        <ele>165</ele>
        <time>2017-07-25T12:35:40Z</time>
      </trkpt>
      <trkpt lat="45.73133" lon="4.81576">
        <ele>165</ele>
        <time>2017-07-25T12:35:51Z</time>
      </trkpt>
      <trkpt lat="45.73099" lon="4.81549">
        <ele>165</ele>
        <time>2017-07-25T12:35:58Z</time>
      </trkpt>
      <trkpt lat="45.73071" lon="4.81525">
        <ele>167</ele>
        <time>2017-07-25T12:36:04Z</time>
      </trkpt>
      <trkpt lat="45.73052" lon="4.81515">
        <ele>168</ele>
        <time>2017-07-25T12:36:09Z</time>
      </trkpt>
      <trkpt lat="45.73043" lon="4.81514">
        <ele>169</ele>
        <time>2017-07-25T12:36:15Z</time>
      </trkpt>
      <trkpt lat="45.73038" lon="4.81518">
        <ele>169</ele>
      </trkpt>
      <trkpt lat="45.73021" lon="4.81521">
        <ele>171</ele>
      </trkpt>
      <trkpt lat="45.73" lon="4.81528">
        <ele>175</ele>
      </trkpt>
      <trkpt lat="45.72987" lon="4.81536">
        <ele>174</ele>
        <time>2017-07-25T12:37:11Z</time>
      </trkpt>
      <trkpt lat="45.72974" lon="4.81544">
        <ele>174</ele>
        <time>2017-07-25T12:38:41Z</time>
      </trkpt>
      <trkpt lat="45.72958" lon="4.81544">
        <ele>174</ele>
      </trkpt>
      <trkpt lat="45.7294" lon="4.81544">
        <ele>175</ele>
      </trkpt>
      <trkpt lat="45.72936" lon="4.81545">
        <ele>175</ele>
      </trkpt>
      <trkpt lat="45.72925" lon="4.81561">
        <ele>174</ele>
      </trkpt>
      <trkpt lat="45.72915" lon="4.81574">
        <ele>174</ele>
      </trkpt>
      <trkpt lat="45.72906" lon="4.8158">
        <ele>174</ele>
        <time>2017-07-25T12:40:50Z</time>
      </trkpt>
      <trkpt lat="45.72896" lon="4.81583">
        <ele>175</ele>
        <time>2017-07-25T12:40:53Z</time>
      </trkpt>
      <trkpt lat="45.72886" lon="4.81585">
        <ele>169</ele>
        <time>2017-07-25T12:40:55Z</time>
      </trkpt>
      <trkpt lat="45.72881" lon="4.81587">
        <ele>169</ele>
        <time>2017-07-25T12:40:56Z</time>
      </trkpt>
      <trkpt lat="45.72876" lon="4.81589">
        <ele>169</ele>
        <time>2017-07-25T12:40:57Z</time>
      </trkpt>
      <trkpt lat="45.7287" lon="4.81592">
        <ele>169</ele>
        <time>2017-07-25T12:40:58Z</time>
      </trkpt>
      <trkpt lat="45.72864" lon="4.81594">
        <ele>169</ele>
        <time>2017-07-25T12:40:59Z</time>
      </trkpt>
      <trkpt lat="45.72843" lon="4.81601">
        <ele>170</ele>
        <time>2017-07-25T12:41:02Z</time>
      </trkpt>
      <trkpt lat="45.72835" lon="4.81604">
        <ele>169</ele>
        <time>2017-07-25T12:41:03Z</time>
      </trkpt>
      <trkpt lat="45.72827" lon="4.81606">
        <ele>169</ele>
        <time>2017-07-25T12:41:04Z</time>
      </trkpt>
      <trkpt lat="45.72819" lon="4.81609">
        <ele>168</ele>
        <time>2017-07-25T12:41:05Z</time>
      </trkpt>
      <trkpt lat="45.7281" lon="4.81611">
        <ele>168</ele>
        <time>2017-07-25T12:41:06Z</time>
      </trkpt>
      <trkpt lat="45.72801" lon="4.81614">
        <ele>167</ele>
        <time>2017-07-25T12:41:07Z</time>
      </trkpt>
      <trkpt lat="45.72792" lon="4.81617">
        <ele>167</ele>
        <time>2017-07-25T12:41:08Z</time>
      </trkpt>
      <trkpt lat="45.72782" lon="4.8162">
        <ele>167</ele>
        <time>2017-07-25T12:41:09Z</time>
      </trkpt>
      <trkpt lat="45.72773" lon="4.81622">
        <ele>167</ele>
        <time>2017-07-25T12:41:10Z</time>
      </trkpt>
      <trkpt lat="45.72766" lon="4.81624">
        <ele>166</ele>
        <time>2017-07-25T12:41:11Z</time>
      </trkpt>
      <trkpt lat="45.72753" lon="4.81626">
        <ele>166</ele>
        <time>2017-07-25T12:41:13Z</time>
      </trkpt>
      <trkpt lat="45.72748" lon="4.81627">
        <ele>165</ele>
        <time>2017-07-25T12:41:14Z</time>
      </trkpt>
      <trkpt lat="45.72745" lon="4.81627">
        <ele>165</ele>
        <time>2017-07-25T12:41:15Z</time>
      </trkpt>
      <trkpt lat="45.72743" lon="4.81627">
        <ele>165</ele>
        <time>2017-07-25T12:41:16Z</time>
      </trkpt>
      <trkpt lat="45.72742" lon="4.81627">
        <ele>165</ele>
        <time>2017-07-25T12:41:17Z</time>
      </trkpt>
      <trkpt lat="45.72733" lon="4.81628">
        <ele>165</ele>
        <time>2017-07-25T12:41:20Z</time>
      </trkpt>
      <trkpt lat="45.72711" lon="4.81633">
        <ele>165</ele>
        <time>2017-07-25T12:41:25Z</time>
      </trkpt>
      <trkpt lat="45.72676" lon="4.81642">
        <ele>165</ele>
        <time>2017-07-25T12:41:32Z</time>
      </trkpt>
      <trkpt lat="45.7264" lon="4.81648">
        <ele>166</ele>
        <time>2017-07-25T12:41:39Z</time>
      </trkpt>
      <trkpt lat="45.72605" lon="4.81661">
        <ele>166</ele>
        <time>2017-07-25T12:41:46Z</time>
      </trkpt>
      <trkpt lat="45.72572" lon="4.81676">
        <ele>165</ele>
        <time>2017-07-25T12:41:52Z</time>
      </trkpt>
      <trkpt lat="45.72531" lon="4.81687">
        <ele>165</ele>
        <time>2017-07-25T12:41:59Z</time>
      </trkpt>
      <trkpt lat="45.72491" lon="4.81697">
        <ele>166</ele>
        <time>2017-07-25T12:42:06Z</time>
      </trkpt>
      <trkpt lat="45.72458" lon="4.81704">
        <ele>165</ele>
        <time>2017-07-25T12:42:12Z</time>
      </trkpt>
      <trkpt lat="45.72404" lon="4.81716">
        <ele>165</ele>
        <time>2017-07-25T12:42:22Z</time>
      </trkpt>
      <trkpt lat="45.72372" lon="4.81724">
        <ele>165</ele>
        <time>2017-07-25T12:42:28Z</time>
      </trkpt>
      <trkpt lat="45.72332" lon="4.81734">
        <ele>164</ele>
        <time>2017-07-25T12:42:35Z</time>
      </trkpt>
      <trkpt lat="45.72283" lon="4.81746">
        <ele>164</ele>
        <time>2017-07-25T12:42:42Z</time>
      </trkpt>
      <trkpt lat="45.72232" lon="4.81758">
        <ele>164</ele>
        <time>2017-07-25T12:42:50Z</time>
      </trkpt>
      <trkpt lat="45.7222" lon="4.8176">
        <ele>164</ele>
        <time>2017-07-25T12:42:52Z</time>
      </trkpt>
      <trkpt lat="45.72168" lon="4.81772">
        <ele>165</ele>
        <time>2017-07-25T12:43:00Z</time>
      </trkpt>
      <trkpt lat="45.72119" lon="4.81783">
        <ele>165</ele>
        <time>2017-07-25T12:43:08Z</time>
      </trkpt>
      <trkpt lat="45.72082" lon="4.8179">
        <ele>165</ele>
        <time>2017-07-25T12:43:15Z</time>
      </trkpt>
      <trkpt lat="45.72046" lon="4.81798">
        <ele>164</ele>
        <time>2017-07-25T12:43:22Z</time>
      </trkpt>
      <trkpt lat="45.72041" lon="4.81799">
        <ele>164</ele>
        <time>2017-07-25T12:43:23Z</time>
      </trkpt>
      <trkpt lat="45.72036" lon="4.818">
        <ele>164</ele>
        <time>2017-07-25T12:43:24Z</time>
      </trkpt>
      <trkpt lat="45.72031" lon="4.81802">
        <ele>164</ele>
        <time>2017-07-25T12:43:25Z</time>
      </trkpt>
      <trkpt lat="45.72004" lon="4.81808">
        <ele>163</ele>
        <time>2017-07-25T12:43:30Z</time>
      </trkpt>
      <trkpt lat="45.7196" lon="4.8182">
        <ele>163</ele>
        <time>2017-07-25T12:43:38Z</time>
      </trkpt>
      <trkpt lat="45.71915" lon="4.81832">
        <ele>162</ele>
        <time>2017-07-25T12:43:46Z</time>
      </trkpt>
      <trkpt lat="45.7187" lon="4.8184">
        <ele>165</ele>
        <time>2017-07-25T12:43:55Z</time>
      </trkpt>
      <trkpt lat="45.71821" lon="4.81847">
        <ele>166</ele>
        <time>2017-07-25T12:47:22Z</time>
      </trkpt>
      <trkpt lat="45.71798" lon="4.81854">
        <ele>166</ele>
        <time>2017-07-25T12:47:27Z</time>
      </trkpt>
      <trkpt lat="45.71777" lon="4.81862">
        <ele>166</ele>
        <time>2017-07-25T12:47:31Z</time>
      </trkpt>
      <trkpt lat="45.71771" lon="4.81863">
        <ele>166</ele>
        <time>2017-07-25T12:47:32Z</time>
      </trkpt>
      <trkpt lat="45.7174" lon="4.81868">
        <ele>166</ele>
        <time>2017-07-25T12:47:38Z</time>
      </trkpt>
      <trkpt lat="45.71688" lon="4.81881">
        <ele>166</ele>
        <time>2017-07-25T12:47:49Z</time>
      </trkpt>
      <trkpt lat="45.71663" lon="4.81884">
        <ele>165</ele>
        <time>2017-07-25T12:47:54Z</time>
      </trkpt>
      <trkpt lat="45.71628" lon="4.81891">
        <ele>165</ele>
        <time>2017-07-25T12:48:00Z</time>
      </trkpt>
      <trkpt lat="45.71615" lon="4.81895">
        <ele>166</ele>
        <time>2017-07-25T12:48:02Z</time>
      </trkpt>
      <trkpt lat="45.71578" lon="4.81904">
        <ele>166</ele>
        <time>2017-07-25T12:48:08Z</time>
      </trkpt>
      <trkpt lat="45.71536" lon="4.81913">
        <ele>166</ele>
        <time>2017-07-25T12:48:15Z</time>
      </trkpt>
      <trkpt lat="45.71414" lon="4.81939">
        <ele>163</ele>
        <time>2017-07-25T12:49:14Z</time>
      </trkpt>
      <trkpt lat="45.7138" lon="4.81949">
        <ele>164</ele>
        <time>2017-07-25T12:49:20Z</time>
      </trkpt>
      <trkpt lat="45.71336" lon="4.81959">
        <ele>164</ele>
        <time>2017-07-25T12:49:27Z</time>
      </trkpt>
      <trkpt lat="45.71254" lon="4.81981">
        <ele>163</ele>
        <time>2017-07-25T12:49:40Z</time>
      </trkpt>
      <trkpt lat="45.71126" lon="4.82006">
        <ele>163</ele>
        <time>2017-07-25T12:50:00Z</time>
      </trkpt>
      <trkpt lat="45.71095" lon="4.82013">
        <ele>163</ele>
        <time>2017-07-25T12:50:05Z</time>
      </trkpt>
      <trkpt lat="45.71063" lon="4.82021">
        <ele>164</ele>
        <time>2017-07-25T12:50:10Z</time>
      </trkpt>
      <trkpt lat="45.71024" lon="4.82036">
        <ele>165</ele>
        <time>2017-07-25T12:50:17Z</time>
      </trkpt>
      <trkpt lat="45.70999" lon="4.8205">
        <ele>165</ele>
        <time>2017-07-25T12:50:22Z</time>
      </trkpt>
      <trkpt lat="45.70995" lon="4.82052">
        <ele>165</ele>
        <time>2017-07-25T12:50:23Z</time>
      </trkpt>
      <trkpt lat="45.70992" lon="4.82054">
        <ele>165</ele>
        <time>2017-07-25T12:50:24Z</time>
      </trkpt>
      <trkpt lat="45.70986" lon="4.82058">
        <ele>165</ele>
        <time>2017-07-25T12:50:26Z</time>
      </trkpt>
      <trkpt lat="45.70969" lon="4.8207">
        <ele>165</ele>
        <time>2017-07-25T12:50:32Z</time>
      </trkpt>
      <trkpt lat="45.70937" lon="4.82093">
        <ele>165</ele>
        <time>2017-07-25T12:50:39Z</time>
      </trkpt>
      <trkpt lat="45.70922" lon="4.82105">
        <ele>165</ele>
        <time>2017-07-25T12:50:42Z</time>
      </trkpt>
      <trkpt lat="45.70906" lon="4.82119">
        <ele>165</ele>
      </trkpt>
      <trkpt lat="45.70883" lon="4.82131">
        <ele>165</ele>
      </trkpt>
      <trkpt lat="45.70872" lon="4.82134">
        <ele>165</ele>
        <time>2017-07-25T12:50:52Z</time>
      </trkpt>
      <trkpt lat="45.70832" lon="4.8214">
        <ele>166</ele>
        <time>2017-07-25T12:51:00Z</time>
      </trkpt>
      <trkpt lat="45.70804" lon="4.82143">
        <ele>166</ele>
        <time>2017-07-25T12:51:05Z</time>
      </trkpt>
      <trkpt lat="45.70791" lon="4.82142">
        <ele>166</ele>
        <time>2017-07-25T12:51:07Z</time>
      </trkpt>
      <trkpt lat="45.70691" lon="4.82122">
        <ele>167</ele>
        <time>2017-07-25T12:51:12Z</time>
      </trkpt>
      <trkpt lat="45.70605" lon="4.82097">
        <ele>168</ele>
        <time>2017-07-25T12:52:35Z</time>
      </trkpt>
      <trkpt lat="45.7057" lon="4.82089">
        <ele>167</ele>
        <time>2017-07-25T12:52:42Z</time>
      </trkpt>
      <trkpt lat="45.70557" lon="4.82085">
        <ele>167</ele>
        <time>2017-07-25T12:52:46Z</time>
      </trkpt>
      <trkpt lat="45.70541" lon="4.82082">
        <ele>167</ele>
        <time>2017-07-25T12:52:50Z</time>
      </trkpt>
      <trkpt lat="45.70518" lon="4.82075">
        <ele>166</ele>
        <time>2017-07-25T12:52:56Z</time>
      </trkpt>
      <trkpt lat="45.70509" lon="4.82073">
        <ele>166</ele>
        <time>2017-07-25T12:52:57Z</time>
      </trkpt>
      <trkpt lat="45.70478" lon="4.82068">
        <ele>167</ele>
        <time>2017-07-25T12:53:04Z</time>
      </trkpt>
      <trkpt lat="45.7047" lon="4.82067">
        <ele>167</ele>
        <time>2017-07-25T12:53:05Z</time>
      </trkpt>
      <trkpt lat="45.70451" lon="4.82067">
        <ele>167</ele>
        <time>2017-07-25T12:53:09Z</time>
      </trkpt>
      <trkpt lat="45.7042" lon="4.82068">
        <ele>167</ele>
        <time>2017-07-25T12:53:15Z</time>
      </trkpt>
      <trkpt lat="45.70406" lon="4.82071">
        <ele>168</ele>
        <time>2017-07-25T12:53:17Z</time>
      </trkpt>
      <trkpt lat="45.70386" lon="4.82075">
        <ele>169</ele>
        <time>2017-07-25T12:53:20Z</time>
      </trkpt>
      <trkpt lat="45.70368" lon="4.82074">
        <ele>169</ele>
        <time>2017-07-25T12:53:28Z</time>
      </trkpt>
      <trkpt lat="45.7036" lon="4.82077">
        <ele>169</ele>
        <time>2017-07-25T12:53:31Z</time>
      </trkpt>
      <trkpt lat="45.7035" lon="4.82081">
        <ele>169</ele>
        <time>2017-07-25T12:53:33Z</time>
      </trkpt>
      <trkpt lat="45.7032" lon="4.82094">
        <ele>168</ele>
        <time>2017-07-25T12:53:40Z</time>
      </trkpt>
      <trkpt lat="45.70298" lon="4.82108">
        <ele>168</ele>
        <time>2017-07-25T12:53:46Z</time>
      </trkpt>
      <trkpt lat="45.70285" lon="4.82115">
        <ele>168</ele>
        <time>2017-07-25T12:53:51Z</time>
      </trkpt>
      <trkpt lat="45.70275" lon="4.8212">
        <ele>168</ele>
        <time>2017-07-25T12:53:56Z</time>
      </trkpt>
      <trkpt lat="45.70249" lon="4.82136">
        <ele>167</ele>
        <time>2017-07-25T12:54:03Z</time>
      </trkpt>
      <trkpt lat="45.70225" lon="4.82154">
        <ele>167</ele>
        <time>2017-07-25T12:54:10Z</time>
      </trkpt>
      <trkpt lat="45.70195" lon="4.82172">
        <ele>165</ele>
        <time>2017-07-25T12:54:19Z</time>
      </trkpt>
      <trkpt lat="45.70167" lon="4.82192">
        <ele>165</ele>
        <time>2017-07-25T12:54:27Z</time>
      </trkpt>
      <trkpt lat="45.70163" lon="4.82194">
        <ele>165</ele>
        <time>2017-07-25T12:54:28Z</time>
      </trkpt>
      <trkpt lat="45.70139" lon="4.82212">
        <ele>166</ele>
        <time>2017-07-25T12:54:35Z</time>
      </trkpt>
      <trkpt lat="45.70115" lon="4.82233">
        <ele>166</ele>
        <time>2017-07-25T12:54:41Z</time>
      </trkpt>
      <trkpt lat="45.70099" lon="4.82242">
        <ele>166</ele>
        <time>2017-07-25T12:54:42Z</time>
      </trkpt>
      <trkpt lat="45.70079" lon="4.82257">
        <ele>167</ele>
        <time>2017-07-25T12:54:47Z</time>
      </trkpt>
      <trkpt lat="45.70057" lon="4.82273">
        <ele>167</ele>
        <time>2017-07-25T12:54:54Z</time>
      </trkpt>
      <trkpt lat="45.70045" lon="4.82279">
        <ele>167</ele>
        <time>2017-07-25T12:54:59Z</time>
      </trkpt>
      <trkpt lat="45.70027" lon="4.82288">
        <ele>167</ele>
        <time>2017-07-25T12:55:06Z</time>
      </trkpt>
      <trkpt lat="45.6998" lon="4.82322">
        <ele>167</ele>
        <time>2017-07-25T12:55:14Z</time>
      </trkpt>
      <trkpt lat="45.6994" lon="4.82349">
        <ele>167</ele>
        <time>2017-07-25T12:55:22Z</time>
      </trkpt>
      <trkpt lat="45.69898" lon="4.82379">
        <ele>167</ele>
        <time>2017-07-25T12:55:30Z</time>
      </trkpt>
      <trkpt lat="45.6986" lon="4.82405">
        <ele>166</ele>
        <time>2017-07-25T12:55:37Z</time>
      </trkpt>
      <trkpt lat="45.69814" lon="4.82439">
        <ele>166</ele>
        <time>2017-07-25T12:55:46Z</time>
      </trkpt>
      <trkpt lat="45.69768" lon="4.82468">
        <ele>167</ele>
        <time>2017-07-25T12:55:55Z</time>
      </trkpt>
      <trkpt lat="45.69743" lon="4.82486">
        <ele>167</ele>
        <time>2017-07-25T12:56:00Z</time>
      </trkpt>
      <trkpt lat="45.69692" lon="4.82524">
        <ele>166</ele>
        <time>2017-07-25T12:56:10Z</time>
      </trkpt>
      <trkpt lat="45.69655" lon="4.8255">
        <ele>167</ele>
        <time>2017-07-25T12:56:17Z</time>
      </trkpt>
      <trkpt lat="45.69629" lon="4.82567">
        <ele>167</ele>
        <time>2017-07-25T12:56:22Z</time>
      </trkpt>
      <trkpt lat="45.69603" lon="4.82585">
        <ele>166</ele>
        <time>2017-07-25T12:56:27Z</time>
      </trkpt>
      <trkpt lat="45.69571" lon="4.82608">
        <ele>166</ele>
        <time>2017-07-25T12:56:34Z</time>
      </trkpt>
      <trkpt lat="45.69558" lon="4.82616">
        <ele>166</ele>
        <time>2017-07-25T12:56:38Z</time>
      </trkpt>
      <trkpt lat="45.69544" lon="4.82619">
        <ele>166</ele>
      </trkpt>
      <trkpt lat="45.69538" lon="4.82614">
        <ele>166</ele>
      </trkpt>
      <trkpt lat="45.69529" lon="4.82606">
        <ele>166</ele>
      </trkpt>
      <trkpt lat="45.6952" lon="4.82599">
        <ele>166</ele>
      </trkpt>
      <trkpt lat="45.69512" lon="4.826">
        <ele>166</ele>
      </trkpt>
      <trkpt lat="45.69501" lon="4.82608">
        <ele>166</ele>
      </trkpt>
      <trkpt lat="45.69493" lon="4.82622">
        <ele>165</ele>
      </trkpt>
      <trkpt lat="45.6949" lon="4.82639">
        <ele>165</ele>
      </trkpt>
      <trkpt lat="45.69492" lon="4.82648">
        <ele>165</ele>
      </trkpt>
      <trkpt lat="45.69495" lon="4.82659">
        <ele>166</ele>
      </trkpt>
      <trkpt lat="45.69496" lon="4.82666">
        <ele>166</ele>
      </trkpt>
      <trkpt lat="45.69487" lon="4.82665">
        <ele>165</ele>
        <time>2017-07-25T13:08:19Z</time>
      </trkpt>
      <trkpt lat="45.69481" lon="4.82667">
        <ele>165</ele>
        <time>2017-07-25T13:08:23Z</time>
      </trkpt>
      <trkpt lat="45.69474" lon="4.82675">
        <ele>165</ele>
        <time>2017-07-25T13:08:26Z</time>
      </trkpt>
      <trkpt lat="45.69469" lon="4.82681">
        <ele>165</ele>
        <time>2017-07-25T13:08:28Z</time>
      </trkpt>
      <trkpt lat="45.69459" lon="4.82695">
        <ele>164</ele>
        <time>2017-07-25T13:08:33Z</time>
      </trkpt>
      <trkpt lat="45.69475" lon="4.82674">
        <ele>165</ele>
        <time>2017-07-25T13:20:42Z</time>
      </trkpt>
      <trkpt lat="45.69471" lon="4.82679">
        <ele>165</ele>
        <time>2017-07-25T13:20:43Z</time>
      </trkpt>
      <trkpt lat="45.69451" lon="4.82704">
        <ele>164</ele>
        <time>2017-07-25T13:20:48Z</time>
      </trkpt>
      <trkpt lat="45.69448" lon="4.82709">
        <ele>164</ele>
        <time>2017-07-25T13:20:49Z</time>
      </trkpt>
      <trkpt lat="45.69442" lon="4.82717">
        <ele>164</ele>
        <time>2017-07-25T13:20:51Z</time>
      </trkpt>
      <trkpt lat="45.69431" lon="4.82725">
        <ele>164</ele>
        <time>2017-07-25T13:20:54Z</time>
      </trkpt>
      <trkpt lat="45.69404" lon="4.82745">
        <ele>164</ele>
        <time>2017-07-25T13:21:00Z</time>
      </trkpt>
      <trkpt lat="45.69369" lon="4.82768">
        <ele>164</ele>
        <time>2017-07-25T13:21:07Z</time>
      </trkpt>
      <trkpt lat="45.69365" lon="4.82769">
        <ele>164</ele>
        <time>2017-07-25T13:21:08Z</time>
      </trkpt>
      <trkpt lat="45.69361" lon="4.8277">
        <ele>164</ele>
        <time>2017-07-25T13:21:10Z</time>
      </trkpt>
      <trkpt lat="45.69361" lon="4.8277">
        <ele>164</ele>
        <time>2017-07-25T13:21:15Z</time>
      </trkpt>
      <trkpt lat="45.69361" lon="4.8277">
        <ele>164</ele>
        <time>2017-07-25T13:21:28Z</time>
      </trkpt>
      <trkpt lat="45.69361" lon="4.8277">
        <ele>164</ele>
        <time>2017-07-25T13:21:39Z</time>
      </trkpt>
      <trkpt lat="45.69361" lon="4.8277">
        <ele>164</ele>
        <time>2017-07-25T13:21:53Z</time>
      </trkpt>
      <trkpt lat="45.6936" lon="4.82771">
        <ele>164</ele>
        <time>2017-07-25T13:21:58Z</time>
      </trkpt>
      <trkpt lat="45.69357" lon="4.82775">
        <ele>164</ele>
        <time>2017-07-25T13:22:00Z</time>
      </trkpt>
      <trkpt lat="45.69352" lon="4.82781">
        <ele>164</ele>
        <time>2017-07-25T13:22:04Z</time>
      </trkpt>
      <trkpt lat="45.69352" lon="4.82781">
        <ele>164</ele>
        <time>2017-07-25T13:22:11Z</time>
      </trkpt>
      <trkpt lat="45.69352" lon="4.82781">
        <ele>164</ele>
        <time>2017-07-25T13:22:24Z</time>
      </trkpt>
      <trkpt lat="45.69351" lon="4.82782">
        <ele>164</ele>
        <time>2017-07-25T13:22:26Z</time>
      </trkpt>
      <trkpt lat="45.69348" lon="4.82787">
        <ele>164</ele>
        <time>2017-07-25T13:22:28Z</time>
      </trkpt>
      <trkpt lat="45.69339" lon="4.82802">
        <ele>164</ele>
        <time>2017-07-25T13:22:33Z</time>
      </trkpt>
      <trkpt lat="45.69337" lon="4.82804">
        <ele>164</ele>
        <time>2017-07-25T13:22:34Z</time>
      </trkpt>
      <trkpt lat="45.69335" lon="4.82806">
        <ele>164</ele>
        <time>2017-07-25T13:22:35Z</time>
      </trkpt>
      <trkpt lat="45.69333" lon="4.82808">
        <ele>166</ele>
        <time>2017-07-25T13:22:36Z</time>
      </trkpt>
      <trkpt lat="45.69332" lon="4.82809">
        <ele>166</ele>
        <time>2017-07-25T13:22:37Z</time>
      </trkpt>
      <trkpt lat="45.69332" lon="4.82809">
        <ele>166</ele>
        <time>2017-07-25T13:22:38Z</time>
      </trkpt>
      <trkpt lat="45.69331" lon="4.8281">
        <ele>166</ele>
        <time>2017-07-25T13:22:39Z</time>
      </trkpt>
      <trkpt lat="45.69324" lon="4.82812">
        <ele>166</ele>
        <time>2017-07-25T13:22:42Z</time>
      </trkpt>
      <trkpt lat="45.69305" lon="4.82804">
        <ele>166</ele>
        <time>2017-07-25T13:22:47Z</time>
      </trkpt>
      <trkpt lat="45.69295" lon="4.82787">
        <ele>167</ele>
        <time>2017-07-25T13:22:51Z</time>
      </trkpt>
      <trkpt lat="45.6928" lon="4.82781">
        <ele>167</ele>
        <time>2017-07-25T13:22:55Z</time>
      </trkpt>
      <trkpt lat="45.69268" lon="4.82777">
        <ele>167</ele>
        <time>2017-07-25T13:22:58Z</time>
      </trkpt>
      <trkpt lat="45.69259" lon="4.82776">
        <ele>168</ele>
        <time>2017-07-25T13:23:00Z</time>
      </trkpt>
      <trkpt lat="45.69248" lon="4.82774">
        <ele>168</ele>
        <time>2017-07-25T13:23:02Z</time>
      </trkpt>
      <trkpt lat="45.69243" lon="4.82773">
        <ele>168</ele>
        <time>2017-07-25T13:23:03Z</time>
      </trkpt>
      <trkpt lat="45.69221" lon="4.82767">
        <ele>168</ele>
        <time>2017-07-25T13:23:07Z</time>
      </trkpt>
      <trkpt lat="45.6919" lon="4.82757">
        <ele>167</ele>
        <time>2017-07-25T13:23:12Z</time>
      </trkpt>
      <trkpt lat="45.69147" lon="4.82742">
        <ele>166</ele>
        <time>2017-07-25T13:23:19Z</time>
      </trkpt>
      <trkpt lat="45.69106" lon="4.82729">
        <ele>167</ele>
        <time>2017-07-25T13:23:26Z</time>
      </trkpt>
      <trkpt lat="45.69085" lon="4.82721">
        <ele>167</ele>
        <time>2017-07-25T13:23:30Z</time>
      </trkpt>
      <trkpt lat="45.69059" lon="4.82714">
        <ele>168</ele>
        <time>2017-07-25T13:23:36Z</time>
      </trkpt>
      <trkpt lat="45.69052" lon="4.82714">
        <ele>168</ele>
        <time>2017-07-25T13:23:38Z</time>
      </trkpt>
      <trkpt lat="45.69044" lon="4.82719">
        <ele>168</ele>
        <time>2017-07-25T13:23:40Z</time>
      </trkpt>
      <trkpt lat="45.69034" lon="4.82732">
        <ele>168</ele>
        <time>2017-07-25T13:23:43Z</time>
      </trkpt>
      <trkpt lat="45.69027" lon="4.82741">
        <ele>168</ele>
        <time>2017-07-25T13:23:45Z</time>
      </trkpt>
      <trkpt lat="45.69018" lon="4.82747">
        <ele>168</ele>
        <time>2017-07-25T13:23:48Z</time>
      </trkpt>
      <trkpt lat="45.69009" lon="4.82745">
        <ele>169</ele>
        <time>2017-07-25T13:23:50Z</time>
      </trkpt>
      <trkpt lat="45.69002" lon="4.82738">
        <ele>168</ele>
        <time>2017-07-25T13:23:52Z</time>
      </trkpt>
      <trkpt lat="45.68995" lon="4.82716">
        <ele>168</ele>
        <time>2017-07-25T13:23:56Z</time>
      </trkpt>
      <trkpt lat="45.68985" lon="4.82704">
        <ele>168</ele>
        <time>2017-07-25T13:23:59Z</time>
      </trkpt>
      <trkpt lat="45.6898" lon="4.82702">
        <ele>168</ele>
        <time>2017-07-25T13:24:00Z</time>
      </trkpt>
      <trkpt lat="45.68952" lon="4.82689">
        <ele>168</ele>
        <time>2017-07-25T13:24:05Z</time>
      </trkpt>
      <trkpt lat="45.68915" lon="4.82679">
        <ele>168</ele>
        <time>2017-07-25T13:24:11Z</time>
      </trkpt>
      <trkpt lat="45.68869" lon="4.82679">
        <ele>167</ele>
        <time>2017-07-25T13:24:18Z</time>
      </trkpt>
      <trkpt lat="45.68863" lon="4.82681">
        <ele>167</ele>
        <time>2017-07-25T13:24:19Z</time>
      </trkpt>
      <trkpt lat="45.68859" lon="4.82682">
        <ele>167</ele>
      </trkpt>
      <trkpt lat="45.68853" lon="4.8269">
        <ele>166</ele>
        <time>2017-07-25T13:24:21Z</time>
      </trkpt>
      <trkpt lat="45.68849" lon="4.82695">
        <ele>166</ele>
      </trkpt>
      <trkpt lat="45.68842" lon="4.82699">
        <ele>166</ele>
        <time>2017-07-25T13:24:24Z</time>
      </trkpt>
      <trkpt lat="45.68836" lon="4.82694">
        <ele>166</ele>
      </trkpt>
      <trkpt lat="45.68832" lon="4.82688">
        <ele>166</ele>
        <time>2017-07-25T13:24:27Z</time>
      </trkpt>
      <trkpt lat="45.68829" lon="4.82683">
        <ele>166</ele>
        <time>2017-07-25T13:24:28Z</time>
      </trkpt>
      <trkpt lat="45.68826" lon="4.82679">
        <ele>166</ele>
        <time>2017-07-25T13:24:29Z</time>
      </trkpt>
      <trkpt lat="45.68816" lon="4.82676">
        <ele>166</ele>
        <time>2017-07-25T13:24:31Z</time>
      </trkpt>
      <trkpt lat="45.68804" lon="4.82675">
        <ele>166</ele>
        <time>2017-07-25T13:24:33Z</time>
      </trkpt>
      <trkpt lat="45.68785" lon="4.82675">
        <ele>166</ele>
        <time>2017-07-25T13:24:36Z</time>
      </trkpt>
      <trkpt lat="45.6873" lon="4.82677">
        <ele>166</ele>
        <time>2017-07-25T13:24:44Z</time>
      </trkpt>
      <trkpt lat="45.68688" lon="4.82682">
        <ele>166</ele>
        <time>2017-07-25T13:24:50Z</time>
      </trkpt>
      <trkpt lat="45.68643" lon="4.8269">
        <ele>165</ele>
        <time>2017-07-25T13:24:57Z</time>
      </trkpt>
      <trkpt lat="45.68631" lon="4.82692">
        <ele>165</ele>
        <time>2017-07-25T13:24:59Z</time>
      </trkpt>
      <trkpt lat="45.68625" lon="4.82694">
        <ele>165</ele>
        <time>2017-07-25T13:25:00Z</time>
      </trkpt>
      <trkpt lat="45.68619" lon="4.82695">
        <ele>165</ele>
        <time>2017-07-25T13:25:01Z</time>
      </trkpt>
      <trkpt lat="45.68613" lon="4.82696">
        <ele>165</ele>
        <time>2017-07-25T13:25:02Z</time>
      </trkpt>
      <trkpt lat="45.68607" lon="4.82697">
        <ele>165</ele>
        <time>2017-07-25T13:25:03Z</time>
      </trkpt>
      <trkpt lat="45.68602" lon="4.82699">
        <ele>165</ele>
        <time>2017-07-25T13:25:04Z</time>
      </trkpt>
      <trkpt lat="45.68597" lon="4.82703">
        <ele>165</ele>
        <time>2017-07-25T13:25:05Z</time>
      </trkpt>
      <trkpt lat="45.6859" lon="4.82709">
        <ele>164</ele>
        <time>2017-07-25T13:25:07Z</time>
      </trkpt>
      <trkpt lat="45.68578" lon="4.82712">
        <ele>165</ele>
        <time>2017-07-25T13:25:10Z</time>
      </trkpt>
      <trkpt lat="45.68573" lon="4.82713">
        <ele>165</ele>
        <time>2017-07-25T13:25:11Z</time>
      </trkpt>
      <trkpt lat="45.68569" lon="4.82713">
        <ele>165</ele>
        <time>2017-07-25T13:25:12Z</time>
      </trkpt>
      <trkpt lat="45.68553" lon="4.82715">
        <ele>165</ele>
        <time>2017-07-25T13:25:15Z</time>
      </trkpt>
      <trkpt lat="45.68542" lon="4.8272">
        <ele>165</ele>
        <time>2017-07-25T13:25:17Z</time>
      </trkpt>
      <trkpt lat="45.68509" lon="4.82741">
        <ele>164</ele>
        <time>2017-07-25T13:25:23Z</time>
      </trkpt>
      <trkpt lat="45.68504" lon="4.82748">
        <ele>164</ele>
        <time>2017-07-25T13:25:24Z</time>
      </trkpt>
      <trkpt lat="45.68488" lon="4.82762">
        <ele>164</ele>
        <time>2017-07-25T13:25:27Z</time>
      </trkpt>
      <trkpt lat="45.68469" lon="4.8278">
        <ele>163</ele>
        <time>2017-07-25T13:25:32Z</time>
      </trkpt>
      <trkpt lat="45.68466" lon="4.8278">
        <ele>163</ele>
        <time>2017-07-25T13:25:33Z</time>
      </trkpt>
      <trkpt lat="45.68456" lon="4.82783">
        <ele>163</ele>
        <time>2017-07-25T13:25:36Z</time>
      </trkpt>
      <trkpt lat="45.68452" lon="4.82781">
        <ele>163</ele>
        <time>2017-07-25T13:25:37Z</time>
      </trkpt>
      <trkpt lat="45.68445" lon="4.82773">
        <ele>163</ele>
        <time>2017-07-25T13:25:39Z</time>
      </trkpt>
      <trkpt lat="45.68436" lon="4.82756">
        <ele>163</ele>
        <time>2017-07-25T13:26:06Z</time>
      </trkpt>
      <trkpt lat="45.68414" lon="4.82762">
        <ele>163</ele>
        <time>2017-07-25T13:26:10Z</time>
      </trkpt>
      <trkpt lat="45.6839" lon="4.82775">
        <ele>163</ele>
        <time>2017-07-25T13:26:15Z</time>
      </trkpt>
      <trkpt lat="45.68352" lon="4.82797">
        <ele>163</ele>
        <time>2017-07-25T13:26:21Z</time>
      </trkpt>
      <trkpt lat="45.68321" lon="4.82814">
        <ele>165</ele>
        <time>2017-07-25T13:26:30Z</time>
      </trkpt>
      <trkpt lat="45.68258" lon="4.82853">
        <ele>166</ele>
        <time>2017-07-25T13:26:37Z</time>
      </trkpt>
      <trkpt lat="45.68214" lon="4.82881">
        <ele>170</ele>
        <time>2017-07-25T13:26:44Z</time>
      </trkpt>
      <trkpt lat="45.68159" lon="4.82918">
        <ele>169</ele>
        <time>2017-07-25T13:26:50Z</time>
      </trkpt>
      <trkpt lat="45.68107" lon="4.82956">
        <ele>170</ele>
        <time>2017-07-25T13:26:58Z</time>
      </trkpt>
      <trkpt lat="45.68077" lon="4.8298">
        <ele>171</ele>
        <time>2017-07-25T13:27:05Z</time>
      </trkpt>
      <trkpt lat="45.68028" lon="4.83019">
        <ele>165</ele>
        <time>2017-07-25T13:27:13Z</time>
      </trkpt>
      <trkpt lat="45.68018" lon="4.83026">
        <ele>165</ele>
        <time>2017-07-25T13:27:14Z</time>
      </trkpt>
      <trkpt lat="45.67976" lon="4.83061">
        <ele>167</ele>
        <time>2017-07-25T13:27:21Z</time>
      </trkpt>
      <trkpt lat="45.67941" lon="4.83093">
        <ele>164</ele>
        <time>2017-07-25T13:27:27Z</time>
      </trkpt>
      <trkpt lat="45.67913" lon="4.83114">
        <ele>165</ele>
        <time>2017-07-25T13:27:32Z</time>
      </trkpt>
      <trkpt lat="45.6787" lon="4.83131">
        <ele>165</ele>
        <time>2017-07-25T13:27:37Z</time>
      </trkpt>
      <trkpt lat="45.67844" lon="4.8314">
        <ele>164</ele>
        <time>2017-07-25T13:27:39Z</time>
      </trkpt>
      <trkpt lat="45.67813" lon="4.83143">
        <ele>166</ele>
        <time>2017-07-25T13:27:46Z</time>
      </trkpt>
      <trkpt lat="45.67772" lon="4.83141">
        <ele>166</ele>
      </trkpt>
      <trkpt lat="45.67741" lon="4.83133">
        <ele>168</ele>
        <time>2017-07-25T13:27:52Z</time>
      </trkpt>
      <trkpt lat="45.67701" lon="4.83117">
        <ele>169</ele>
        <time>2017-07-25T13:28:06Z</time>
      </trkpt>
      <trkpt lat="45.67662" lon="4.83108">
        <ele>168</ele>
        <time>2017-07-25T13:28:13Z</time>
      </trkpt>
      <trkpt lat="45.67626" lon="4.83103">
        <ele>168</ele>
        <time>2017-07-25T13:28:18Z</time>
      </trkpt>
      <trkpt lat="45.67611" lon="4.83099">
        <ele>168</ele>
        <time>2017-07-25T13:28:19Z</time>
      </trkpt>
      <trkpt lat="45.6756" lon="4.83089">
        <ele>167</ele>
        <time>2017-07-25T13:28:26Z</time>
      </trkpt>
      <trkpt lat="45.67458" lon="4.83071">
        <ele>173</ele>
        <time>2017-07-25T13:28:48Z</time>
      </trkpt>
      <trkpt lat="45.67444" lon="4.83068">
        <ele>172</ele>
        <time>2017-07-25T13:28:51Z</time>
      </trkpt>
      <trkpt lat="45.67439" lon="4.83067">
        <ele>172</ele>
        <time>2017-07-25T13:28:52Z</time>
      </trkpt>
      <trkpt lat="45.67435" lon="4.83064">
        <ele>172</ele>
        <time>2017-07-25T13:28:53Z</time>
      </trkpt>
      <trkpt lat="45.67431" lon="4.83062">
        <ele>172</ele>
        <time>2017-07-25T13:28:54Z</time>
      </trkpt>
      <trkpt lat="45.67426" lon="4.83059">
        <ele>172</ele>
        <time>2017-07-25T13:28:55Z</time>
      </trkpt>
      <trkpt lat="45.67404" lon="4.83045">
        <ele>172</ele>
        <time>2017-07-25T13:29:00Z</time>
      </trkpt>
      <trkpt lat="45.67399" lon="4.83043">
        <ele>172</ele>
        <time>2017-07-25T13:29:01Z</time>
      </trkpt>
      <trkpt lat="45.67394" lon="4.8304">
        <ele>172</ele>
        <time>2017-07-25T13:29:02Z</time>
      </trkpt>
      <trkpt lat="45.67389" lon="4.83037">
        <ele>172</ele>
        <time>2017-07-25T13:29:03Z</time>
      </trkpt>
      <trkpt lat="45.67267" lon="4.82966">
        <ele>176</ele>
        <time>2017-07-25T13:29:29Z</time>
      </trkpt>
      <trkpt lat="45.67235" lon="4.82943">
        <ele>173</ele>
        <time>2017-07-25T13:29:36Z</time>
      </trkpt>
      <trkpt lat="45.67207" lon="4.82923">
        <ele>173</ele>
        <time>2017-07-25T13:29:43Z</time>
      </trkpt>
      <trkpt lat="45.67187" lon="4.8291">
        <ele>177</ele>
        <time>2017-07-25T13:29:49Z</time>
      </trkpt>
      <trkpt lat="45.67162" lon="4.82893">
        <ele>175</ele>
        <time>2017-07-25T13:29:55Z</time>
      </trkpt>
      <trkpt lat="45.67138" lon="4.82883">
        <ele>176</ele>
        <time>2017-07-25T13:30:00Z</time>
      </trkpt>
      <trkpt lat="45.67134" lon="4.82881">
        <ele>176</ele>
        <time>2017-07-25T13:30:01Z</time>
      </trkpt>
      <trkpt lat="45.67129" lon="4.82879">
        <ele>176</ele>
        <time>2017-07-25T13:30:02Z</time>
      </trkpt>
      <trkpt lat="45.67124" lon="4.82877">
        <ele>176</ele>
        <time>2017-07-25T13:30:03Z</time>
      </trkpt>
      <trkpt lat="45.6712" lon="4.82875">
        <ele>176</ele>
        <time>2017-07-25T13:30:04Z</time>
      </trkpt>
      <trkpt lat="45.6711" lon="4.82872">
        <ele>176</ele>
        <time>2017-07-25T13:30:06Z</time>
      </trkpt>
      <trkpt lat="45.67095" lon="4.82866">
        <ele>177</ele>
        <time>2017-07-25T13:30:09Z</time>
      </trkpt>
      <trkpt lat="45.67063" lon="4.82859">
        <ele>175</ele>
        <time>2017-07-25T13:30:15Z</time>
      </trkpt>
      <trkpt lat="45.67057" lon="4.82858">
        <ele>175</ele>
        <time>2017-07-25T13:30:16Z</time>
      </trkpt>
      <trkpt lat="45.67051" lon="4.82857">
        <ele>175</ele>
        <time>2017-07-25T13:30:17Z</time>
      </trkpt>
      <trkpt lat="45.67046" lon="4.82856">
        <ele>175</ele>
        <time>2017-07-25T13:30:18Z</time>
      </trkpt>
      <trkpt lat="45.6704" lon="4.82856">
        <ele>175</ele>
        <time>2017-07-25T13:30:19Z</time>
      </trkpt>
      <trkpt lat="45.67017" lon="4.82853">
        <ele>175</ele>
        <time>2017-07-25T13:30:23Z</time>
      </trkpt>
      <trkpt lat="45.6697" lon="4.82845">
        <ele>173</ele>
        <time>2017-07-25T13:30:31Z</time>
      </trkpt>
      <trkpt lat="45.66941" lon="4.82842">
        <ele>173</ele>
        <time>2017-07-25T13:30:36Z</time>
      </trkpt>
      <trkpt lat="45.66935" lon="4.82841">
        <ele>174</ele>
        <time>2017-07-25T13:30:37Z</time>
      </trkpt>
      <trkpt lat="45.6688" lon="4.82838">
        <ele>173</ele>
        <time>2017-07-25T13:30:46Z</time>
      </trkpt>
      <trkpt lat="45.66848" lon="4.82838">
        <ele>174</ele>
        <time>2017-07-25T13:30:51Z</time>
      </trkpt>
      <trkpt lat="45.66842" lon="4.82838">
        <ele>174</ele>
        <time>2017-07-25T13:30:52Z</time>
      </trkpt>
      <trkpt lat="45.66836" lon="4.82839">
        <ele>175</ele>
        <time>2017-07-25T13:30:53Z</time>
      </trkpt>
      <trkpt lat="45.6683" lon="4.8284">
        <ele>175</ele>
        <time>2017-07-25T13:30:54Z</time>
      </trkpt>
      <trkpt lat="45.66824" lon="4.8284">
        <ele>174</ele>
        <time>2017-07-25T13:30:55Z</time>
      </trkpt>
      <trkpt lat="45.6678" lon="4.82839">
        <ele>173</ele>
        <time>2017-07-25T13:31:02Z</time>
      </trkpt>
      <trkpt lat="45.66739" lon="4.82825">
        <ele>177</ele>
        <time>2017-07-25T13:31:09Z</time>
      </trkpt>
      <trkpt lat="45.66688" lon="4.82797">
        <ele>179</ele>
        <time>2017-07-25T13:31:16Z</time>
      </trkpt>
      <trkpt lat="45.66618" lon="4.82734">
        <ele>183</ele>
        <time>2017-07-25T13:31:31Z</time>
      </trkpt>
      <trkpt lat="45.66597" lon="4.82716">
        <ele>184</ele>
        <time>2017-07-25T13:31:37Z</time>
      </trkpt>
      <trkpt lat="45.66554" lon="4.82672">
        <ele>181</ele>
        <time>2017-07-25T13:31:46Z</time>
      </trkpt>
      <trkpt lat="45.66523" lon="4.82637">
        <ele>182</ele>
        <time>2017-07-25T13:31:52Z</time>
      </trkpt>
      <trkpt lat="45.66522" lon="4.82632">
        <ele>182</ele>
        <time>2017-07-25T13:31:54Z</time>
      </trkpt>
      <trkpt lat="45.66523" lon="4.82624">
        <ele>182</ele>
        <time>2017-07-25T13:31:57Z</time>
      </trkpt>
      <trkpt lat="45.66514" lon="4.8261">
        <ele>182</ele>
        <time>2017-07-25T13:31:59Z</time>
      </trkpt>
      <trkpt lat="45.66509" lon="4.82609">
        <ele>182</ele>
      </trkpt>
      <trkpt lat="45.66505" lon="4.82615">
        <ele>182</ele>
      </trkpt>
      <trkpt lat="45.66501" lon="4.82623">
        <ele>181</ele>
      </trkpt>
      <trkpt lat="45.66487" lon="4.82622">
        <ele>178</ele>
        <time>2017-07-25T13:32:04Z</time>
      </trkpt>
      <trkpt lat="45.66479" lon="4.82618">
        <ele>177</ele>
        <time>2017-07-25T13:32:08Z</time>
      </trkpt>
      <trkpt lat="45.66474" lon="4.82616">
        <ele>177</ele>
        <time>2017-07-25T13:32:27Z</time>
      </trkpt>
      <trkpt lat="45.66463" lon="4.82611">
        <ele>177</ele>
        <time>2017-07-25T13:32:32Z</time>
      </trkpt>
      <trkpt lat="45.66456" lon="4.82607">
        <ele>177</ele>
        <time>2017-07-25T13:32:34Z</time>
      </trkpt>
      <trkpt lat="45.66447" lon="4.82602">
        <ele>176</ele>
        <time>2017-07-25T13:32:36Z</time>
      </trkpt>
      <trkpt lat="45.66432" lon="4.82593">
        <ele>176</ele>
        <time>2017-07-25T13:32:39Z</time>
      </trkpt>
      <trkpt lat="45.66427" lon="4.8259">
        <ele>175</ele>
        <time>2017-07-25T13:32:40Z</time>
      </trkpt>
      <trkpt lat="45.6641" lon="4.82582">
        <ele>174</ele>
        <time>2017-07-25T13:32:43Z</time>
      </trkpt>
      <trkpt lat="45.6637" lon="4.82561">
        <ele>175</ele>
        <time>2017-07-25T13:32:50Z</time>
      </trkpt>
      <trkpt lat="45.66322" lon="4.82535">
        <ele>175</ele>
        <time>2017-07-25T13:32:59Z</time>
      </trkpt>
      <trkpt lat="45.66311" lon="4.82528">
        <ele>175</ele>
        <time>2017-07-25T13:33:01Z</time>
      </trkpt>
      <trkpt lat="45.66306" lon="4.82525">
        <ele>175</ele>
        <time>2017-07-25T13:33:02Z</time>
      </trkpt>
      <trkpt lat="45.663" lon="4.82521">
        <ele>175</ele>
        <time>2017-07-25T13:33:03Z</time>
      </trkpt>
      <trkpt lat="45.66295" lon="4.82518">
        <ele>175</ele>
        <time>2017-07-25T13:33:04Z</time>
      </trkpt>
      <trkpt lat="45.66291" lon="4.82514">
        <ele>175</ele>
        <time>2017-07-25T13:33:05Z</time>
      </trkpt>
      <trkpt lat="45.6628" lon="4.82507">
        <ele>175</ele>
        <time>2017-07-25T13:33:07Z</time>
      </trkpt>
      <trkpt lat="45.66239" lon="4.82474">
        <ele>176</ele>
        <time>2017-07-25T13:33:15Z</time>
      </trkpt>
      <trkpt lat="45.66222" lon="4.8246">
        <ele>175</ele>
        <time>2017-07-25T13:33:20Z</time>
      </trkpt>
      <trkpt lat="45.66221" lon="4.82459">
        <ele>175</ele>
        <time>2017-07-25T13:33:24Z</time>
      </trkpt>
      <trkpt lat="45.66221" lon="4.82459">
        <ele>175</ele>
        <time>2017-07-25T13:33:37Z</time>
      </trkpt>
      <trkpt lat="45.66218" lon="4.82458">
        <ele>175</ele>
        <time>2017-07-25T13:33:45Z</time>
      </trkpt>
      <trkpt lat="45.66208" lon="4.8245">
        <ele>175</ele>
        <time>2017-07-25T13:33:49Z</time>
      </trkpt>
      <trkpt lat="45.66185" lon="4.82434">
        <ele>175</ele>
        <time>2017-07-25T13:33:54Z</time>
      </trkpt>
      <trkpt lat="45.66148" lon="4.82403">
        <ele>176</ele>
        <time>2017-07-25T13:34:02Z</time>
      </trkpt>
      <trkpt lat="45.66116" lon="4.82373">
        <ele>176</ele>
        <time>2017-07-25T13:34:09Z</time>
      </trkpt>
      <trkpt lat="45.66028" lon="4.82266">
        <ele>176</ele>
        <time>2017-07-25T13:34:18Z</time>
      </trkpt>
      <trkpt lat="45.65981" lon="4.82211">
        <ele>174</ele>
        <time>2017-07-25T13:34:39Z</time>
      </trkpt>
      <trkpt lat="45.65947" lon="4.82168">
        <ele>174</ele>
        <time>2017-07-25T13:34:47Z</time>
      </trkpt>
      <trkpt lat="45.65905" lon="4.82115">
        <ele>177</ele>
        <time>2017-07-25T13:34:57Z</time>
      </trkpt>
      <trkpt lat="45.65901" lon="4.8211">
        <ele>178</ele>
        <time>2017-07-25T13:34:58Z</time>
      </trkpt>
      <trkpt lat="45.65848" lon="4.82051">
        <ele>185</ele>
        <time>2017-07-25T13:35:14Z</time>
      </trkpt>
      <trkpt lat="45.65803" lon="4.81997">
        <ele>188</ele>
        <time>2017-07-25T13:35:22Z</time>
      </trkpt>
      <trkpt lat="45.65799" lon="4.81993">
        <ele>188</ele>
        <time>2017-07-25T13:35:23Z</time>
      </trkpt>
      <trkpt lat="45.65795" lon="4.81988">
        <ele>187</ele>
        <time>2017-07-25T13:35:24Z</time>
      </trkpt>
      <trkpt lat="45.65791" lon="4.81984">
        <ele>187</ele>
        <time>2017-07-25T13:35:25Z</time>
      </trkpt>
      <trkpt lat="45.65787" lon="4.81981">
        <ele>187</ele>
        <time>2017-07-25T13:35:26Z</time>
      </trkpt>
      <trkpt lat="45.657" lon="4.81881">
        <ele>183</ele>
      </trkpt>
      <trkpt lat="45.65609" lon="4.81784">
        <ele>187</ele>
        <time>2017-07-25T13:38:13Z</time>
      </trkpt>
      <trkpt lat="45.65581" lon="4.81742">
        <ele>188</ele>
        <time>2017-07-25T13:38:14Z</time>
      </trkpt>
      <trkpt lat="45.65578" lon="4.81736">
        <ele>188</ele>
        <time>2017-07-25T13:38:15Z</time>
      </trkpt>
      <trkpt lat="45.65575" lon="4.81731">
        <ele>188</ele>
        <time>2017-07-25T13:38:16Z</time>
      </trkpt>
      <trkpt lat="45.65571" lon="4.81725">
        <ele>187</ele>
        <time>2017-07-25T13:38:17Z</time>
      </trkpt>
      <trkpt lat="45.65568" lon="4.81719">
        <ele>187</ele>
        <time>2017-07-25T13:38:18Z</time>
      </trkpt>
      <trkpt lat="45.65565" lon="4.81712">
        <ele>187</ele>
        <time>2017-07-25T13:38:19Z</time>
      </trkpt>
      <trkpt lat="45.65562" lon="4.81706">
        <ele>188</ele>
        <time>2017-07-25T13:38:20Z</time>
      </trkpt>
      <trkpt lat="45.65544" lon="4.81663">
        <ele>190</ele>
        <time>2017-07-25T13:38:26Z</time>
      </trkpt>
      <trkpt lat="45.65525" lon="4.81609">
        <ele>189</ele>
        <time>2017-07-25T13:38:32Z</time>
      </trkpt>
      <trkpt lat="45.65521" lon="4.816">
        <ele>188</ele>
        <time>2017-07-25T13:38:33Z</time>
      </trkpt>
      <trkpt lat="45.65516" lon="4.81591">
        <ele>187</ele>
        <time>2017-07-25T13:38:34Z</time>
      </trkpt>
      <trkpt lat="45.6551" lon="4.81583">
        <ele>187</ele>
        <time>2017-07-25T13:38:35Z</time>
      </trkpt>
      <trkpt lat="45.65504" lon="4.81576">
        <ele>186</ele>
        <time>2017-07-25T13:38:36Z</time>
      </trkpt>
      <trkpt lat="45.65497" lon="4.81571">
        <ele>185</ele>
        <time>2017-07-25T13:38:37Z</time>
      </trkpt>
      <trkpt lat="45.65482" lon="4.81568">
        <ele>186</ele>
        <time>2017-07-25T13:38:39Z</time>
      </trkpt>
      <trkpt lat="45.65475" lon="4.81567">
        <ele>186</ele>
        <time>2017-07-25T13:38:40Z</time>
      </trkpt>
      <trkpt lat="45.65448" lon="4.8157">
        <ele>186</ele>
        <time>2017-07-25T13:38:44Z</time>
      </trkpt>
      <trkpt lat="45.65442" lon="4.81571">
        <ele>186</ele>
        <time>2017-07-25T13:38:45Z</time>
      </trkpt>
      <trkpt lat="45.65436" lon="4.81572">
        <ele>186</ele>
        <time>2017-07-25T13:38:46Z</time>
      </trkpt>
      <trkpt lat="45.65431" lon="4.81571">
        <ele>186</ele>
        <time>2017-07-25T13:38:47Z</time>
      </trkpt>
      <trkpt lat="45.65425" lon="4.81571">
        <ele>186</ele>
        <time>2017-07-25T13:38:48Z</time>
      </trkpt>
      <trkpt lat="45.65413" lon="4.81568">
        <ele>185</ele>
        <time>2017-07-25T13:38:50Z</time>
      </trkpt>
      <trkpt lat="45.65408" lon="4.81566">
        <ele>185</ele>
        <time>2017-07-25T13:38:51Z</time>
      </trkpt>
      <trkpt lat="45.65393" lon="4.81557">
        <ele>185</ele>
        <time>2017-07-25T13:38:54Z</time>
      </trkpt>
      <trkpt lat="45.65389" lon="4.81553">
        <ele>186</ele>
        <time>2017-07-25T13:38:55Z</time>
      </trkpt>
      <trkpt lat="45.65384" lon="4.81549">
        <ele>186</ele>
        <time>2017-07-25T13:38:56Z</time>
      </trkpt>
      <trkpt lat="45.6538" lon="4.81544">
        <ele>186</ele>
        <time>2017-07-25T13:38:57Z</time>
      </trkpt>
      <trkpt lat="45.65376" lon="4.81539">
        <ele>186</ele>
        <time>2017-07-25T13:38:58Z</time>
      </trkpt>
      <trkpt lat="45.65364" lon="4.81524">
        <ele>186</ele>
        <time>2017-07-25T13:39:01Z</time>
      </trkpt>
      <trkpt lat="45.65328" lon="4.81477">
        <ele>185</ele>
        <time>2017-07-25T13:39:09Z</time>
      </trkpt>
      <trkpt lat="45.65296" lon="4.81433">
        <ele>184</ele>
        <time>2017-07-25T13:39:16Z</time>
      </trkpt>
      <trkpt lat="45.65261" lon="4.81384">
        <ele>186</ele>
        <time>2017-07-25T13:39:24Z</time>
      </trkpt>
      <trkpt lat="45.65231" lon="4.81354">
        <ele>183</ele>
        <time>2017-07-25T13:39:29Z</time>
      </trkpt>
      <trkpt lat="45.65217" lon="4.81345">
        <ele>182</ele>
        <time>2017-07-25T13:39:31Z</time>
      </trkpt>
      <trkpt lat="45.65209" lon="4.81341">
        <ele>182</ele>
        <time>2017-07-25T13:39:32Z</time>
      </trkpt>
      <trkpt lat="45.65202" lon="4.81337">
        <ele>181</ele>
        <time>2017-07-25T13:39:33Z</time>
      </trkpt>
      <trkpt lat="45.65195" lon="4.81334">
        <ele>181</ele>
        <time>2017-07-25T13:39:34Z</time>
      </trkpt>
      <trkpt lat="45.6519" lon="4.8133">
        <ele>182</ele>
        <time>2017-07-25T13:39:35Z</time>
      </trkpt>
      <trkpt lat="45.65183" lon="4.81327">
        <ele>181</ele>
        <time>2017-07-25T13:39:36Z</time>
      </trkpt>
      <trkpt lat="45.65177" lon="4.81323">
        <ele>181</ele>
        <time>2017-07-25T13:39:37Z</time>
      </trkpt>
      <trkpt lat="45.6517" lon="4.8132">
        <ele>181</ele>
        <time>2017-07-25T13:39:38Z</time>
      </trkpt>
      <trkpt lat="45.65163" lon="4.81316">
        <ele>179</ele>
        <time>2017-07-25T13:39:39Z</time>
      </trkpt>
      <trkpt lat="45.65157" lon="4.81313">
        <ele>179</ele>
        <time>2017-07-25T13:39:40Z</time>
      </trkpt>
      <trkpt lat="45.6515" lon="4.81309">
        <ele>179</ele>
        <time>2017-07-25T13:39:41Z</time>
      </trkpt>
      <trkpt lat="45.65122" lon="4.81294">
        <ele>178</ele>
        <time>2017-07-25T13:39:45Z</time>
      </trkpt>
      <trkpt lat="45.65116" lon="4.8129">
        <ele>178</ele>
        <time>2017-07-25T13:39:46Z</time>
      </trkpt>
      <trkpt lat="45.65109" lon="4.81287">
        <ele>178</ele>
        <time>2017-07-25T13:39:47Z</time>
      </trkpt>
      <trkpt lat="45.65103" lon="4.81283">
        <ele>178</ele>
        <time>2017-07-25T13:39:48Z</time>
      </trkpt>
      <trkpt lat="45.65096" lon="4.81279">
        <ele>178</ele>
        <time>2017-07-25T13:39:49Z</time>
      </trkpt>
      <trkpt lat="45.6509" lon="4.81276">
        <ele>178</ele>
        <time>2017-07-25T13:39:50Z</time>
      </trkpt>
      <trkpt lat="45.65064" lon="4.81264">
        <ele>176</ele>
        <time>2017-07-25T13:39:54Z</time>
      </trkpt>
      <trkpt lat="45.65053" lon="4.81257">
        <ele>177</ele>
        <time>2017-07-25T13:39:56Z</time>
      </trkpt>
      <trkpt lat="45.65043" lon="4.81251">
        <ele>177</ele>
        <time>2017-07-25T13:40:27Z</time>
      </trkpt>
      <trkpt lat="45.6503" lon="4.81243">
        <ele>179</ele>
        <time>2017-07-25T13:40:32Z</time>
      </trkpt>
      <trkpt lat="45.65019" lon="4.81234">
        <ele>179</ele>
        <time>2017-07-25T13:40:35Z</time>
      </trkpt>
      <trkpt lat="45.65015" lon="4.8123">
        <ele>179</ele>
        <time>2017-07-25T13:40:36Z</time>
      </trkpt>
      <trkpt lat="45.64987" lon="4.81213">
        <ele>179</ele>
      </trkpt>
      <trkpt lat="45.64969" lon="4.81206">
        <ele>179</ele>
      </trkpt>
      <trkpt lat="45.64954" lon="4.81207">
        <ele>178</ele>
        <time>2017-07-25T13:40:48Z</time>
      </trkpt>
      <trkpt lat="45.64904" lon="4.81206">
        <ele>175</ele>
        <time>2017-07-25T13:40:56Z</time>
      </trkpt>
      <trkpt lat="45.64864" lon="4.81207">
        <ele>175</ele>
        <time>2017-07-25T13:41:02Z</time>
      </trkpt>
      <trkpt lat="45.64824" lon="4.81205">
        <ele>174</ele>
      </trkpt>
      <trkpt lat="45.64794" lon="4.81198">
        <ele>174</ele>
        <time>2017-07-25T13:41:58Z</time>
      </trkpt>
      <trkpt lat="45.6478" lon="4.81196">
        <ele>174</ele>
        <time>2017-07-25T13:42:01Z</time>
      </trkpt>
      <trkpt lat="45.64775" lon="4.81198">
        <ele>174</ele>
      </trkpt>
      <trkpt lat="45.64768" lon="4.81189">
        <ele>175</ele>
        <time>2017-07-25T13:42:04Z</time>
      </trkpt>
      <trkpt lat="45.64762" lon="4.8119">
        <ele>175</ele>
      </trkpt>
      <trkpt lat="45.64759" lon="4.81196">
        <ele>175</ele>
        <time>2017-07-25T13:43:08Z</time>
      </trkpt>
      <trkpt lat="45.6476" lon="4.81206">
        <ele>174</ele>
      </trkpt>
      <trkpt lat="45.64756" lon="4.81219">
        <ele>173</ele>
      </trkpt>
      <trkpt lat="45.64751" lon="4.81231">
        <ele>172</ele>
      </trkpt>
      <trkpt lat="45.6471" lon="4.8142">
        <ele>161</ele>
        <time>2017-07-25T13:45:34Z</time>
      </trkpt>
      <trkpt lat="45.6471" lon="4.8142">
        <ele>161</ele>
        <time>2017-07-25T13:45:35Z</time>
      </trkpt>
      <trkpt lat="45.64709" lon="4.81429">
        <ele>161</ele>
      </trkpt>
      <trkpt lat="45.64704" lon="4.81442">
        <ele>161</ele>
      </trkpt>
      <trkpt lat="45.64692" lon="4.81459">
        <ele>161</ele>
      </trkpt>
      <trkpt lat="45.64666" lon="4.81495">
        <ele>159</ele>
        <time>2017-07-25T13:46:19Z</time>
      </trkpt>
      <trkpt lat="45.64662" lon="4.815">
        <ele>159</ele>
        <time>2017-07-25T13:46:20Z</time>
      </trkpt>
      <trkpt lat="45.64563" lon="4.81646">
        <ele>155</ele>
        <time>2017-07-25T13:46:49Z</time>
      </trkpt>
      <trkpt lat="45.64524" lon="4.81702">
        <ele>156</ele>
        <time>2017-07-25T13:46:57Z</time>
      </trkpt>
      <trkpt lat="45.64487" lon="4.81759">
        <ele>159</ele>
        <time>2017-07-25T13:47:03Z</time>
      </trkpt>
      <trkpt lat="45.64475" lon="4.81775">
        <ele>160</ele>
        <time>2017-07-25T13:47:06Z</time>
      </trkpt>
      <trkpt lat="45.64455" lon="4.81805">
        <ele>160</ele>
      </trkpt>
      <trkpt lat="45.64436" lon="4.81845">
        <ele>161</ele>
      </trkpt>
      <trkpt lat="45.64424" lon="4.819">
        <ele>162</ele>
      </trkpt>
      <trkpt lat="45.64426" lon="4.81984">
        <ele>162</ele>
      </trkpt>
      <trkpt lat="45.64438" lon="4.82079">
        <ele>162</ele>
      </trkpt>
      <trkpt lat="45.6445" lon="4.82153">
        <ele>163</ele>
      </trkpt>
      <trkpt lat="45.64448" lon="4.82213">
        <ele>164</ele>
      </trkpt>
      <trkpt lat="45.6444" lon="4.82254">
        <ele>163</ele>
      </trkpt>
      <trkpt lat="45.64433" lon="4.82285">
        <ele>163</ele>
      </trkpt>
      <trkpt lat="45.64387" lon="4.82395">
        <ele>157</ele>
      </trkpt>
      <trkpt lat="45.64348" lon="4.82498">
        <ele>155</ele>
      </trkpt>
      <trkpt lat="45.643" lon="4.82609">
        <ele>162</ele>
        <time>2017-07-25T13:51:44Z</time>
      </trkpt>
      <trkpt lat="45.64296" lon="4.82612">
        <ele>162</ele>
        <time>2017-07-25T13:51:45Z</time>
      </trkpt>
      <trkpt lat="45.64293" lon="4.82614">
        <ele>162</ele>
        <time>2017-07-25T13:51:46Z</time>
      </trkpt>
      <trkpt lat="45.64288" lon="4.82615">
        <ele>162</ele>
        <time>2017-07-25T13:51:47Z</time>
      </trkpt>
      <trkpt lat="45.64284" lon="4.82616">
        <ele>162</ele>
        <time>2017-07-25T13:51:48Z</time>
      </trkpt>
      <trkpt lat="45.64281" lon="4.82616">
        <ele>162</ele>
        <time>2017-07-25T13:51:49Z</time>
      </trkpt>
      <trkpt lat="45.64276" lon="4.82613">
        <ele>162</ele>
        <time>2017-07-25T13:51:51Z</time>
      </trkpt>
      <trkpt lat="45.6427" lon="4.82601">
        <ele>162</ele>
        <time>2017-07-25T13:51:55Z</time>
      </trkpt>
      <trkpt lat="45.64274" lon="4.82583">
        <ele>162</ele>
        <time>2017-07-25T13:51:59Z</time>
      </trkpt>
      <trkpt lat="45.64277" lon="4.82573">
        <ele>160</ele>
        <time>2017-07-25T13:52:03Z</time>
      </trkpt>
      <trkpt lat="45.64276" lon="4.82575">
        <ele>160</ele>
        <time>2017-07-25T13:52:09Z</time>
      </trkpt>
      <trkpt lat="45.64276" lon="4.82575">
        <ele>160</ele>
        <time>2017-07-25T13:52:22Z</time>
      </trkpt>
      <trkpt lat="45.64276" lon="4.82575">
        <ele>160</ele>
        <time>2017-07-25T13:52:25Z</time>
      </trkpt>
      <trkpt lat="45.64276" lon="4.82575">
        <ele>160</ele>
        <time>2017-07-25T13:52:26Z</time>
      </trkpt>
      <trkpt lat="45.64276" lon="4.82575">
        <ele>160</ele>
        <time>2017-07-25T13:52:27Z</time>
      </trkpt>
      <trkpt lat="45.64276" lon="4.82575">
        <ele>160</ele>
        <time>2017-07-25T13:52:28Z</time>
      </trkpt>
      <trkpt lat="45.64276" lon="4.82575">
        <ele>160</ele>
        <time>2017-07-25T13:52:29Z</time>
      </trkpt>
      <trkpt lat="45.64276" lon="4.82575">
        <ele>160</ele>
        <time>2017-07-25T13:52:34Z</time>
      </trkpt>
      <trkpt lat="45.64276" lon="4.82576">
        <ele>160</ele>
        <time>2017-07-25T13:52:51Z</time>
      </trkpt>
      <trkpt lat="45.64279" lon="4.8257">
        <ele>160</ele>
        <time>2017-07-25T13:53:01Z</time>
      </trkpt>
      <trkpt lat="45.64287" lon="4.82566">
        <ele>160</ele>
      </trkpt>
      <trkpt lat="45.64298" lon="4.82545">
        <ele>159</ele>
      </trkpt>
      <trkpt lat="45.643" lon="4.82525">
        <ele>158</ele>
      </trkpt>
      <trkpt lat="45.64297" lon="4.82502">
        <ele>158</ele>
      </trkpt>
      <trkpt lat="45.6427" lon="4.82485">
        <ele>157</ele>
      </trkpt>
      <trkpt lat="45.64211" lon="4.82435">
        <ele>158</ele>
      </trkpt>
      <trkpt lat="45.64173" lon="4.82398">
        <ele>158</ele>
      </trkpt>
      <trkpt lat="45.6415" lon="4.82374">
        <ele>159</ele>
      </trkpt>
      <trkpt lat="45.64134" lon="4.82365">
        <ele>159</ele>
      </trkpt>
      <trkpt lat="45.64104" lon="4.82339">
        <ele>160</ele>
      </trkpt>
      <trkpt lat="45.64054" lon="4.82301">
        <ele>160</ele>
      </trkpt>
      <trkpt lat="45.64025" lon="4.82273">
        <ele>159</ele>
      </trkpt>
      <trkpt lat="45.63981" lon="4.8224">
        <ele>158</ele>
      </trkpt>
      <trkpt lat="45.63931" lon="4.82197">
        <ele>158</ele>
      </trkpt>
      <trkpt lat="45.63914" lon="4.82179">
        <ele>157</ele>
      </trkpt>
      <trkpt lat="45.63906" lon="4.82175">
        <ele>157</ele>
      </trkpt>
      <trkpt lat="45.63873" lon="4.82168">
        <ele>158</ele>
        <time>2017-07-25T13:57:03Z</time>
      </trkpt>
      <trkpt lat="45.63866" lon="4.82162">
        <ele>156</ele>
        <time>2017-07-25T13:57:07Z</time>
      </trkpt>
      <trkpt lat="45.63866" lon="4.82162">
        <ele>156</ele>
        <time>2017-07-25T13:57:12Z</time>
      </trkpt>
      <trkpt lat="45.63865" lon="4.82162">
        <ele>156</ele>
        <time>2017-07-25T13:57:25Z</time>
      </trkpt>
      <trkpt lat="45.63856" lon="4.82154">
        <ele>156</ele>
        <time>2017-07-25T13:57:29Z</time>
      </trkpt>
      <trkpt lat="45.63845" lon="4.82146">
        <ele>156</ele>
        <time>2017-07-25T13:57:32Z</time>
      </trkpt>
      <trkpt lat="45.6383" lon="4.82133">
        <ele>157</ele>
        <time>2017-07-25T13:57:36Z</time>
      </trkpt>
      <trkpt lat="45.63826" lon="4.8213">
        <ele>157</ele>
        <time>2017-07-25T13:57:37Z</time>
      </trkpt>
      <trkpt lat="45.63803" lon="4.82111">
        <ele>157</ele>
        <time>2017-07-25T13:57:43Z</time>
      </trkpt>
      <trkpt lat="45.63767" lon="4.82082">
        <ele>156</ele>
        <time>2017-07-25T13:57:51Z</time>
      </trkpt>
      <trkpt lat="45.63731" lon="4.82054">
        <ele>157</ele>
        <time>2017-07-25T13:57:58Z</time>
      </trkpt>
      <trkpt lat="45.63718" lon="4.82043">
        <ele>157</ele>
        <time>2017-07-25T13:58:01Z</time>
      </trkpt>
      <trkpt lat="45.6371" lon="4.82035">
        <ele>157</ele>
        <time>2017-07-25T13:58:03Z</time>
      </trkpt>
      <trkpt lat="45.63685" lon="4.82016">
        <ele>157</ele>
        <time>2017-07-25T13:58:10Z</time>
      </trkpt>
      <trkpt lat="45.63672" lon="4.82002">
        <ele>156</ele>
        <time>2017-07-25T13:58:15Z</time>
      </trkpt>
      <trkpt lat="45.63658" lon="4.81985">
        <ele>156</ele>
        <time>2017-07-25T13:58:20Z</time>
      </trkpt>
      <trkpt lat="45.63654" lon="4.8198">
        <ele>156</ele>
        <time>2017-07-25T13:58:21Z</time>
      </trkpt>
      <trkpt lat="45.63641" lon="4.81968">
        <ele>156</ele>
        <time>2017-07-25T13:58:24Z</time>
      </trkpt>
      <trkpt lat="45.63609" lon="4.81942">
        <ele>157</ele>
        <time>2017-07-25T13:58:33Z</time>
      </trkpt>
      <trkpt lat="45.63594" lon="4.81929">
        <ele>157</ele>
        <time>2017-07-25T13:58:38Z</time>
      </trkpt>
      <trkpt lat="45.63576" lon="4.81915">
        <ele>158</ele>
        <time>2017-07-25T13:58:43Z</time>
      </trkpt>
      <trkpt lat="45.63564" lon="4.81905">
        <ele>157</ele>
        <time>2017-07-25T13:58:46Z</time>
      </trkpt>
      <trkpt lat="45.63554" lon="4.81898">
        <ele>157</ele>
        <time>2017-07-25T13:58:48Z</time>
      </trkpt>
      <trkpt lat="45.63534" lon="4.81886">
        <ele>157</ele>
        <time>2017-07-25T13:58:53Z</time>
      </trkpt>
      <trkpt lat="45.63529" lon="4.81884">
        <ele>157</ele>
        <time>2017-07-25T13:58:54Z</time>
      </trkpt>
      <trkpt lat="45.63514" lon="4.81876">
        <ele>157</ele>
        <time>2017-07-25T13:58:58Z</time>
      </trkpt>
      <trkpt lat="45.63492" lon="4.8186">
        <ele>159</ele>
        <time>2017-07-25T13:59:04Z</time>
      </trkpt>
      <trkpt lat="45.63481" lon="4.81845">
        <ele>158</ele>
        <time>2017-07-25T13:59:08Z</time>
      </trkpt>
      <trkpt lat="45.63464" lon="4.81826">
        <ele>156</ele>
        <time>2017-07-25T13:59:13Z</time>
      </trkpt>
      <trkpt lat="45.63442" lon="4.81815">
        <ele>156</ele>
        <time>2017-07-25T13:59:18Z</time>
      </trkpt>
      <trkpt lat="45.6343" lon="4.81805">
        <ele>156</ele>
        <time>2017-07-25T13:59:22Z</time>
      </trkpt>
      <trkpt lat="45.63426" lon="4.81801">
        <ele>156</ele>
        <time>2017-07-25T13:59:23Z</time>
      </trkpt>
      <trkpt lat="45.63413" lon="4.81792">
        <ele>158</ele>
        <time>2017-07-25T13:59:26Z</time>
      </trkpt>
      <trkpt lat="45.63385" lon="4.81772">
        <ele>157</ele>
        <time>2017-07-25T13:59:32Z</time>
      </trkpt>
      <trkpt lat="45.63381" lon="4.81771">
        <ele>157</ele>
        <time>2017-07-25T13:59:33Z</time>
      </trkpt>
      <trkpt lat="45.6337" lon="4.81764">
        <ele>157</ele>
        <time>2017-07-25T13:59:36Z</time>
      </trkpt>
      <trkpt lat="45.63356" lon="4.81752">
        <ele>157</ele>
        <time>2017-07-25T13:59:41Z</time>
      </trkpt>
      <trkpt lat="45.63349" lon="4.81749">
        <ele>154</ele>
        <time>2017-07-25T13:59:45Z</time>
      </trkpt>
      <trkpt lat="45.63347" lon="4.81747">
        <ele>155</ele>
        <time>2017-07-25T13:59:58Z</time>
      </trkpt>
      <trkpt lat="45.63188" lon="4.81653">
        <ele>156</ele>
        <time>2017-07-25T14:01:23Z</time>
      </trkpt>
      <trkpt lat="45.63173" lon="4.81645">
        <ele>157</ele>
        <time>2017-07-25T14:01:26Z</time>
      </trkpt>
      <trkpt lat="45.63168" lon="4.81642">
        <ele>156</ele>
        <time>2017-07-25T14:01:27Z</time>
      </trkpt>
      <trkpt lat="45.63144" lon="4.81629">
        <ele>156</ele>
        <time>2017-07-25T14:01:32Z</time>
      </trkpt>
      <trkpt lat="45.6311" lon="4.81609">
        <ele>156</ele>
        <time>2017-07-25T14:01:39Z</time>
      </trkpt>
      <trkpt lat="45.63077" lon="4.81589">
        <ele>156</ele>
        <time>2017-07-25T14:01:46Z</time>
      </trkpt>
      <trkpt lat="45.63048" lon="4.81572">
        <ele>156</ele>
        <time>2017-07-25T14:01:52Z</time>
      </trkpt>
      <trkpt lat="45.63032" lon="4.81563">
        <ele>157</ele>
        <time>2017-07-25T14:01:56Z</time>
      </trkpt>
      <trkpt lat="45.63014" lon="4.8155">
        <ele>157</ele>
        <time>2017-07-25T14:02:02Z</time>
      </trkpt>
      <trkpt lat="45.6301" lon="4.81548">
        <ele>157</ele>
        <time>2017-07-25T14:02:03Z</time>
      </trkpt>
      <trkpt lat="45.63007" lon="4.81545">
        <ele>157</ele>
        <time>2017-07-25T14:02:04Z</time>
      </trkpt>
      <trkpt lat="45.62998" lon="4.81535">
        <ele>158</ele>
        <time>2017-07-25T14:02:07Z</time>
      </trkpt>
      <trkpt lat="45.62993" lon="4.81531">
        <ele>158</ele>
        <time>2017-07-25T14:02:08Z</time>
      </trkpt>
      <trkpt lat="45.62983" lon="4.81523">
        <ele>158</ele>
        <time>2017-07-25T14:02:10Z</time>
      </trkpt>
      <trkpt lat="45.62967" lon="4.81515">
        <ele>158</ele>
        <time>2017-07-25T14:02:13Z</time>
      </trkpt>
      <trkpt lat="45.62962" lon="4.81514">
        <ele>158</ele>
        <time>2017-07-25T14:02:14Z</time>
      </trkpt>
      <trkpt lat="45.62941" lon="4.81505">
        <ele>158</ele>
        <time>2017-07-25T14:02:19Z</time>
      </trkpt>
      <trkpt lat="45.62938" lon="4.81507">
        <ele>158</ele>
        <time>2017-07-25T14:02:20Z</time>
      </trkpt>
      <trkpt lat="45.62932" lon="4.81504">
        <ele>158</ele>
        <time>2017-07-25T14:02:22Z</time>
      </trkpt>
      <trkpt lat="45.62925" lon="4.815">
        <ele>158</ele>
        <time>2017-07-25T14:02:24Z</time>
      </trkpt>
      <trkpt lat="45.62915" lon="4.81498">
        <ele>158</ele>
        <time>2017-07-25T14:02:27Z</time>
      </trkpt>
      <trkpt lat="45.62907" lon="4.81496">
        <ele>157</ele>
        <time>2017-07-25T14:02:29Z</time>
      </trkpt>
      <trkpt lat="45.629" lon="4.81492">
        <ele>157</ele>
        <time>2017-07-25T14:02:31Z</time>
      </trkpt>
      <trkpt lat="45.62876" lon="4.81478">
        <ele>157</ele>
        <time>2017-07-25T14:02:36Z</time>
      </trkpt>
      <trkpt lat="45.62839" lon="4.81459">
        <ele>156</ele>
        <time>2017-07-25T14:02:43Z</time>
      </trkpt>
      <trkpt lat="45.62823" lon="4.81449">
        <ele>157</ele>
        <time>2017-07-25T14:02:46Z</time>
      </trkpt>
      <trkpt lat="45.62808" lon="4.81441">
        <ele>157</ele>
        <time>2017-07-25T14:02:49Z</time>
      </trkpt>
      <trkpt lat="45.62776" lon="4.81424">
        <ele>158</ele>
        <time>2017-07-25T14:02:55Z</time>
      </trkpt>
      <trkpt lat="45.62743" lon="4.81408">
        <ele>157</ele>
        <time>2017-07-25T14:03:02Z</time>
      </trkpt>
      <trkpt lat="45.62734" lon="4.81401">
        <ele>157</ele>
        <time>2017-07-25T14:03:05Z</time>
      </trkpt>
      <trkpt lat="45.62731" lon="4.81397">
        <ele>157</ele>
        <time>2017-07-25T14:03:06Z</time>
      </trkpt>
      <trkpt lat="45.62718" lon="4.81394">
        <ele>157</ele>
        <time>2017-07-25T14:03:10Z</time>
      </trkpt>
      <trkpt lat="45.62712" lon="4.81389">
        <ele>156</ele>
        <time>2017-07-25T14:03:13Z</time>
      </trkpt>
      <trkpt lat="45.62709" lon="4.81387">
        <ele>156</ele>
        <time>2017-07-25T14:03:14Z</time>
      </trkpt>
      <trkpt lat="45.62696" lon="4.81384">
        <ele>156</ele>
        <time>2017-07-25T14:03:18Z</time>
      </trkpt>
      <trkpt lat="45.6269" lon="4.81377">
        <ele>156</ele>
        <time>2017-07-25T14:03:20Z</time>
      </trkpt>
      <trkpt lat="45.62681" lon="4.81369">
        <ele>155</ele>
        <time>2017-07-25T14:03:22Z</time>
      </trkpt>
      <trkpt lat="45.62676" lon="4.81366">
        <ele>155</ele>
        <time>2017-07-25T14:03:23Z</time>
      </trkpt>
      <trkpt lat="45.62662" lon="4.81361">
        <ele>155</ele>
        <time>2017-07-25T14:03:26Z</time>
      </trkpt>
      <trkpt lat="45.62646" lon="4.81352">
        <ele>155</ele>
        <time>2017-07-25T14:03:31Z</time>
      </trkpt>
      <trkpt lat="45.62631" lon="4.81343">
        <ele>155</ele>
        <time>2017-07-25T14:03:36Z</time>
      </trkpt>
      <trkpt lat="45.6262" lon="4.8134">
        <ele>156</ele>
        <time>2017-07-25T14:03:38Z</time>
      </trkpt>
      <trkpt lat="45.62613" lon="4.8134">
        <ele>156</ele>
        <time>2017-07-25T14:03:40Z</time>
      </trkpt>
      <trkpt lat="45.62594" lon="4.81331">
        <ele>154</ele>
        <time>2017-07-25T14:03:45Z</time>
      </trkpt>
      <trkpt lat="45.6259" lon="4.81328">
        <ele>155</ele>
        <time>2017-07-25T14:03:46Z</time>
      </trkpt>
      <trkpt lat="45.62574" lon="4.81319">
        <ele>155</ele>
        <time>2017-07-25T14:03:49Z</time>
      </trkpt>
      <trkpt lat="45.62568" lon="4.81318">
        <ele>155</ele>
        <time>2017-07-25T14:03:50Z</time>
      </trkpt>
      <trkpt lat="45.62555" lon="4.81312">
        <ele>155</ele>
        <time>2017-07-25T14:03:54Z</time>
      </trkpt>
      <trkpt lat="45.62548" lon="4.81309">
        <ele>155</ele>
        <time>2017-07-25T14:03:56Z</time>
      </trkpt>
      <trkpt lat="45.62543" lon="4.81305">
        <ele>155</ele>
        <time>2017-07-25T14:03:57Z</time>
      </trkpt>
      <trkpt lat="45.62533" lon="4.813">
        <ele>156</ele>
        <time>2017-07-25T14:03:59Z</time>
      </trkpt>
      <trkpt lat="45.62518" lon="4.81297">
        <ele>156</ele>
        <time>2017-07-25T14:04:02Z</time>
      </trkpt>
      <trkpt lat="45.62514" lon="4.81294">
        <ele>156</ele>
        <time>2017-07-25T14:04:03Z</time>
      </trkpt>
      <trkpt lat="45.62492" lon="4.81282">
        <ele>158</ele>
        <time>2017-07-25T14:04:07Z</time>
      </trkpt>
      <trkpt lat="45.62486" lon="4.81279">
        <ele>158</ele>
        <time>2017-07-25T14:04:08Z</time>
      </trkpt>
      <trkpt lat="45.62464" lon="4.8127">
        <ele>158</ele>
        <time>2017-07-25T14:04:12Z</time>
      </trkpt>
      <trkpt lat="45.62454" lon="4.81268">
        <ele>158</ele>
        <time>2017-07-25T14:04:14Z</time>
      </trkpt>
      <trkpt lat="45.62445" lon="4.81264">
        <ele>158</ele>
        <time>2017-07-25T14:04:16Z</time>
      </trkpt>
      <trkpt lat="45.6243" lon="4.81257">
        <ele>158</ele>
        <time>2017-07-25T14:04:19Z</time>
      </trkpt>
      <trkpt lat="45.62395" lon="4.81242">
        <ele>156</ele>
        <time>2017-07-25T14:04:26Z</time>
      </trkpt>
      <trkpt lat="45.62372" lon="4.81232">
        <ele>156</ele>
        <time>2017-07-25T14:04:31Z</time>
      </trkpt>
      <trkpt lat="45.62357" lon="4.81226">
        <ele>156</ele>
        <time>2017-07-25T14:04:34Z</time>
      </trkpt>
      <trkpt lat="45.62342" lon="4.81219">
        <ele>156</ele>
        <time>2017-07-25T14:04:37Z</time>
      </trkpt>
      <trkpt lat="45.62318" lon="4.81208">
        <ele>156</ele>
        <time>2017-07-25T14:04:42Z</time>
      </trkpt>
      <trkpt lat="45.62313" lon="4.81207">
        <ele>156</ele>
        <time>2017-07-25T14:04:43Z</time>
      </trkpt>
      <trkpt lat="45.62296" lon="4.81203">
        <ele>156</ele>
        <time>2017-07-25T14:04:47Z</time>
      </trkpt>
      <trkpt lat="45.62291" lon="4.81201">
        <ele>156</ele>
        <time>2017-07-25T14:04:48Z</time>
      </trkpt>
      <trkpt lat="45.62272" lon="4.81189">
        <ele>156</ele>
        <time>2017-07-25T14:04:52Z</time>
      </trkpt>
      <trkpt lat="45.62266" lon="4.81187">
        <ele>156</ele>
        <time>2017-07-25T14:04:53Z</time>
      </trkpt>
      <trkpt lat="45.62245" lon="4.81182">
        <ele>156</ele>
        <time>2017-07-25T14:04:57Z</time>
      </trkpt>
      <trkpt lat="45.6224" lon="4.8118">
        <ele>156</ele>
        <time>2017-07-25T14:04:58Z</time>
      </trkpt>
      <trkpt lat="45.62224" lon="4.81175">
        <ele>157</ele>
        <time>2017-07-25T14:05:02Z</time>
      </trkpt>
      <trkpt lat="45.62201" lon="4.81164">
        <ele>156</ele>
        <time>2017-07-25T14:05:07Z</time>
      </trkpt>
      <trkpt lat="45.62191" lon="4.8116">
        <ele>156</ele>
        <time>2017-07-25T14:05:09Z</time>
      </trkpt>
      <trkpt lat="45.62177" lon="4.81153">
        <ele>157</ele>
        <time>2017-07-25T14:05:12Z</time>
      </trkpt>
      <trkpt lat="45.62156" lon="4.81145">
        <ele>158</ele>
        <time>2017-07-25T14:05:17Z</time>
      </trkpt>
      <trkpt lat="45.62141" lon="4.81138">
        <ele>158</ele>
        <time>2017-07-25T14:05:20Z</time>
      </trkpt>
      <trkpt lat="45.6213" lon="4.81135">
        <ele>158</ele>
        <time>2017-07-25T14:05:22Z</time>
      </trkpt>
      <trkpt lat="45.62113" lon="4.81129">
        <ele>158</ele>
        <time>2017-07-25T14:05:25Z</time>
      </trkpt>
      <trkpt lat="45.62099" lon="4.81123">
        <ele>158</ele>
        <time>2017-07-25T14:05:28Z</time>
      </trkpt>
      <trkpt lat="45.62073" lon="4.81109">
        <ele>158</ele>
        <time>2017-07-25T14:05:33Z</time>
      </trkpt>
      <trkpt lat="45.62068" lon="4.81107">
        <ele>158</ele>
        <time>2017-07-25T14:05:34Z</time>
      </trkpt>
      <trkpt lat="45.62044" lon="4.81097">
        <ele>158</ele>
        <time>2017-07-25T14:05:39Z</time>
      </trkpt>
      <trkpt lat="45.62025" lon="4.8109">
        <ele>158</ele>
        <time>2017-07-25T14:05:44Z</time>
      </trkpt>
      <trkpt lat="45.62008" lon="4.81084">
        <ele>158</ele>
        <time>2017-07-25T14:05:48Z</time>
      </trkpt>
      <trkpt lat="45.62004" lon="4.81082">
        <ele>158</ele>
        <time>2017-07-25T14:05:49Z</time>
      </trkpt>
      <trkpt lat="45.61992" lon="4.81077">
        <ele>157</ele>
        <time>2017-07-25T14:05:53Z</time>
      </trkpt>
      <trkpt lat="45.6199" lon="4.81077">
        <ele>157</ele>
        <time>2017-07-25T14:05:57Z</time>
      </trkpt>
      <trkpt lat="45.6199" lon="4.81077">
        <ele>157</ele>
        <time>2017-07-25T14:06:07Z</time>
      </trkpt>
      <trkpt lat="45.6199" lon="4.81077">
        <ele>157</ele>
        <time>2017-07-25T14:06:19Z</time>
      </trkpt>
      <trkpt lat="45.61983" lon="4.81074">
        <ele>157</ele>
        <time>2017-07-25T14:06:23Z</time>
      </trkpt>
      <trkpt lat="45.61961" lon="4.81065">
        <ele>156</ele>
        <time>2017-07-25T14:06:28Z</time>
      </trkpt>
      <trkpt lat="45.61927" lon="4.81049">
        <ele>156</ele>
        <time>2017-07-25T14:06:35Z</time>
      </trkpt>
      <trkpt lat="45.61912" lon="4.81044">
        <ele>156</ele>
        <time>2017-07-25T14:06:38Z</time>
      </trkpt>
      <trkpt lat="45.61896" lon="4.81038">
        <ele>155</ele>
        <time>2017-07-25T14:06:41Z</time>
      </trkpt>
      <trkpt lat="45.61861" lon="4.81022">
        <ele>156</ele>
        <time>2017-07-25T14:06:48Z</time>
      </trkpt>
      <trkpt lat="45.61837" lon="4.81012">
        <ele>156</ele>
        <time>2017-07-25T14:06:53Z</time>
      </trkpt>
      <trkpt lat="45.61831" lon="4.81011">
        <ele>157</ele>
        <time>2017-07-25T14:06:54Z</time>
      </trkpt>
      <trkpt lat="45.61816" lon="4.81006">
        <ele>158</ele>
        <time>2017-07-25T14:06:57Z</time>
      </trkpt>
      <trkpt lat="45.61802" lon="4.81002">
        <ele>158</ele>
        <time>2017-07-25T14:07:00Z</time>
      </trkpt>
      <trkpt lat="45.61793" lon="4.80998">
        <ele>158</ele>
        <time>2017-07-25T14:07:02Z</time>
      </trkpt>
      <trkpt lat="45.61779" lon="4.80991">
        <ele>159</ele>
        <time>2017-07-25T14:07:05Z</time>
      </trkpt>
      <trkpt lat="45.61768" lon="4.80986">
        <ele>159</ele>
        <time>2017-07-25T14:07:07Z</time>
      </trkpt>
      <trkpt lat="45.61753" lon="4.80981">
        <ele>159</ele>
        <time>2017-07-25T14:07:10Z</time>
      </trkpt>
      <trkpt lat="45.61728" lon="4.80967">
        <ele>159</ele>
        <time>2017-07-25T14:07:15Z</time>
      </trkpt>
      <trkpt lat="45.61723" lon="4.80965">
        <ele>159</ele>
        <time>2017-07-25T14:07:16Z</time>
      </trkpt>
      <trkpt lat="45.61687" lon="4.8095">
        <ele>158</ele>
        <time>2017-07-25T14:07:23Z</time>
      </trkpt>
      <trkpt lat="45.61655" lon="4.80939">
        <ele>158</ele>
        <time>2017-07-25T14:07:30Z</time>
      </trkpt>
      <trkpt lat="45.6165" lon="4.80936">
        <ele>158</ele>
        <time>2017-07-25T14:07:31Z</time>
      </trkpt>
      <trkpt lat="45.61637" lon="4.80929">
        <ele>158</ele>
        <time>2017-07-25T14:07:34Z</time>
      </trkpt>
      <trkpt lat="45.61633" lon="4.80928">
        <ele>158</ele>
        <time>2017-07-25T14:07:35Z</time>
      </trkpt>
      <trkpt lat="45.61619" lon="4.8092">
        <ele>157</ele>
        <time>2017-07-25T14:07:38Z</time>
      </trkpt>
      <trkpt lat="45.61597" lon="4.80912">
        <ele>156</ele>
        <time>2017-07-25T14:07:43Z</time>
      </trkpt>
      <trkpt lat="45.61593" lon="4.80909">
        <ele>156</ele>
        <time>2017-07-25T14:07:44Z</time>
      </trkpt>
      <trkpt lat="45.61572" lon="4.80898">
        <ele>156</ele>
        <time>2017-07-25T14:07:48Z</time>
      </trkpt>
      <trkpt lat="45.6155" lon="4.80889">
        <ele>156</ele>
        <time>2017-07-25T14:07:53Z</time>
      </trkpt>
      <trkpt lat="45.61546" lon="4.8089">
        <ele>156</ele>
        <time>2017-07-25T14:07:54Z</time>
      </trkpt>
      <trkpt lat="45.61536" lon="4.80892">
        <ele>157</ele>
        <time>2017-07-25T14:07:57Z</time>
      </trkpt>
      <trkpt lat="45.61534" lon="4.80892">
        <ele>157</ele>
        <time>2017-07-25T14:07:58Z</time>
      </trkpt>
      <trkpt lat="45.61528" lon="4.80897">
        <ele>157</ele>
        <time>2017-07-25T14:08:03Z</time>
      </trkpt>
      <trkpt lat="45.61522" lon="4.80898">
        <ele>157</ele>
        <time>2017-07-25T14:08:08Z</time>
      </trkpt>
      <trkpt lat="45.61508" lon="4.80888">
        <ele>157</ele>
        <time>2017-07-25T14:08:13Z</time>
      </trkpt>
      <trkpt lat="45.61504" lon="4.80886">
        <ele>157</ele>
        <time>2017-07-25T14:08:14Z</time>
      </trkpt>
      <trkpt lat="45.61484" lon="4.80878">
        <ele>158</ele>
        <time>2017-07-25T14:08:19Z</time>
      </trkpt>
      <trkpt lat="45.61466" lon="4.80871">
        <ele>159</ele>
        <time>2017-07-25T14:08:23Z</time>
      </trkpt>
      <trkpt lat="45.61462" lon="4.8087">
        <ele>159</ele>
        <time>2017-07-25T14:08:24Z</time>
      </trkpt>
      <trkpt lat="45.61457" lon="4.80868">
        <ele>159</ele>
        <time>2017-07-25T14:08:25Z</time>
      </trkpt>
      <trkpt lat="45.61453" lon="4.80867">
        <ele>159</ele>
        <time>2017-07-25T14:08:26Z</time>
      </trkpt>
      <trkpt lat="45.61448" lon="4.80865">
        <ele>159</ele>
        <time>2017-07-25T14:08:27Z</time>
      </trkpt>
      <trkpt lat="45.61417" lon="4.80853">
        <ele>159</ele>
        <time>2017-07-25T14:08:35Z</time>
      </trkpt>
      <trkpt lat="45.61408" lon="4.8085">
        <ele>160</ele>
        <time>2017-07-25T14:08:38Z</time>
      </trkpt>
      <trkpt lat="45.61405" lon="4.8085">
        <ele>160</ele>
        <time>2017-07-25T14:08:39Z</time>
      </trkpt>
      <trkpt lat="45.61401" lon="4.80849">
        <ele>160</ele>
        <time>2017-07-25T14:08:41Z</time>
      </trkpt>
      <trkpt lat="45.61398" lon="4.80851">
        <ele>160</ele>
        <time>2017-07-25T14:08:45Z</time>
      </trkpt>
      <trkpt lat="45.61398" lon="4.80851">
        <ele>160</ele>
        <time>2017-07-25T14:08:55Z</time>
      </trkpt>
      <trkpt lat="45.61398" lon="4.80851">
        <ele>160</ele>
        <time>2017-07-25T14:09:03Z</time>
      </trkpt>
      <trkpt lat="45.61398" lon="4.80851">
        <ele>160</ele>
        <time>2017-07-25T14:09:12Z</time>
      </trkpt>
      <trkpt lat="45.61397" lon="4.80851">
        <ele>160</ele>
        <time>2017-07-25T14:09:14Z</time>
      </trkpt>
      <trkpt lat="45.61394" lon="4.80854">
        <ele>160</ele>
        <time>2017-07-25T14:09:16Z</time>
      </trkpt>
      <trkpt lat="45.61391" lon="4.80867">
        <ele>161</ele>
        <time>2017-07-25T14:09:20Z</time>
      </trkpt>
      <trkpt lat="45.61385" lon="4.8088">
        <ele>161</ele>
        <time>2017-07-25T14:09:23Z</time>
      </trkpt>
      <trkpt lat="45.61382" lon="4.80891">
        <ele>161</ele>
        <time>2017-07-25T14:09:25Z</time>
      </trkpt>
      <trkpt lat="45.61379" lon="4.80899">
        <ele>161</ele>
        <time>2017-07-25T14:09:27Z</time>
      </trkpt>
      <trkpt lat="45.61378" lon="4.80903">
        <ele>161</ele>
        <time>2017-07-25T14:09:28Z</time>
      </trkpt>
      <trkpt lat="45.61376" lon="4.80907">
        <ele>161</ele>
        <time>2017-07-25T14:09:29Z</time>
      </trkpt>
      <trkpt lat="45.61375" lon="4.80912">
        <ele>162</ele>
        <time>2017-07-25T14:09:30Z</time>
      </trkpt>
      <trkpt lat="45.61371" lon="4.80921">
        <ele>164</ele>
        <time>2017-07-25T14:09:32Z</time>
      </trkpt>
      <trkpt lat="45.61359" lon="4.80941">
        <ele>164</ele>
        <time>2017-07-25T14:09:37Z</time>
      </trkpt>
      <trkpt lat="45.61355" lon="4.80944">
        <ele>164</ele>
        <time>2017-07-25T14:09:38Z</time>
      </trkpt>
      <trkpt lat="45.6134" lon="4.80949">
        <ele>164</ele>
        <time>2017-07-25T14:09:41Z</time>
      </trkpt>
      <trkpt lat="45.6133" lon="4.80944">
        <ele>166</ele>
      </trkpt>
      <trkpt lat="45.61322" lon="4.80934">
        <ele>166</ele>
        <time>2017-07-25T14:09:45Z</time>
      </trkpt>
      <trkpt lat="45.61315" lon="4.80928">
        <ele>166</ele>
        <time>2017-07-25T14:09:46Z</time>
      </trkpt>
      <trkpt lat="45.61304" lon="4.80913">
        <ele>163</ele>
        <time>2017-07-25T14:09:49Z</time>
      </trkpt>
      <trkpt lat="45.61295" lon="4.80902">
        <ele>163</ele>
        <time>2017-07-25T14:09:51Z</time>
      </trkpt>
      <trkpt lat="45.61283" lon="4.80884">
        <ele>163</ele>
        <time>2017-07-25T14:09:54Z</time>
      </trkpt>
      <trkpt lat="45.61274" lon="4.80869">
        <ele>163</ele>
        <time>2017-07-25T14:11:41Z</time>
      </trkpt>
      <trkpt lat="45.61263" lon="4.80851">
        <ele>162</ele>
        <time>2017-07-25T14:12:06Z</time>
      </trkpt>
      <trkpt lat="45.61247" lon="4.80843">
        <ele>164</ele>
        <time>2017-07-25T14:12:12Z</time>
      </trkpt>
      <trkpt lat="45.61236" lon="4.80846">
        <ele>165</ele>
      </trkpt>
      <trkpt lat="45.61231" lon="4.80848">
        <ele>165</ele>
      </trkpt>
      <trkpt lat="45.61218" lon="4.8086">
        <ele>167</ele>
      </trkpt>
      <trkpt lat="45.61198" lon="4.80838">
        <ele>167</ele>
      </trkpt>
      <trkpt lat="45.61193" lon="4.80847">
        <ele>167</ele>
      </trkpt>
      <trkpt lat="45.61191" lon="4.80854">
        <ele>168</ele>
      </trkpt>
      <trkpt lat="45.61174" lon="4.8088">
        <ele>169</ele>
      </trkpt>
      <trkpt lat="45.61162" lon="4.80867">
        <ele>173</ele>
      </trkpt>
      <trkpt lat="45.61157" lon="4.80859">
        <ele>173</ele>
        <time>2017-07-25T14:13:52Z</time>
      </trkpt>
      <trkpt lat="45.61149" lon="4.80846">
        <ele>172</ele>
      </trkpt>
      <trkpt lat="45.61145" lon="4.80843">
        <ele>172</ele>
      </trkpt>
      <trkpt lat="45.61141" lon="4.80843">
        <ele>173</ele>
      </trkpt>
      <trkpt lat="45.61143" lon="4.80848">
        <ele>173</ele>
      </trkpt>
      <trkpt lat="45.61149" lon="4.80856">
        <ele>173</ele>
      </trkpt>
      <trkpt lat="45.61155" lon="4.80863">
        <ele>173</ele>
      </trkpt>
      <trkpt lat="45.61165" lon="4.80885">
        <ele>174</ele>
      </trkpt>
      <trkpt lat="45.61165" lon="4.80907">
        <ele>175</ele>
      </trkpt>
      <trkpt lat="45.61162" lon="4.80916">
        <ele>175</ele>
      </trkpt>
      <trkpt lat="45.61155" lon="4.8093">
        <ele>178</ele>
      </trkpt>
      <trkpt lat="45.6115" lon="4.80948">
        <ele>179</ele>
      </trkpt>
      <trkpt lat="45.6115" lon="4.80956">
        <ele>180</ele>
      </trkpt>
      <trkpt lat="45.61154" lon="4.80966">
        <ele>180</ele>
      </trkpt>
      <trkpt lat="45.61159" lon="4.80976">
        <ele>180</ele>
      </trkpt>
      <trkpt lat="45.6116" lon="4.80981">
        <ele>180</ele>
        <time>2017-07-25T14:15:55Z</time>
      </trkpt>
      <trkpt lat="45.61161" lon="4.80984">
        <ele>180</ele>
        <time>2017-07-25T14:15:56Z</time>
      </trkpt>
      <trkpt lat="45.6116" lon="4.80987">
        <ele>180</ele>
        <time>2017-07-25T14:15:57Z</time>
      </trkpt>
      <trkpt lat="45.6116" lon="4.80991">
        <ele>180</ele>
        <time>2017-07-25T14:15:58Z</time>
      </trkpt>
      <trkpt lat="45.61159" lon="4.80994">
        <ele>180</ele>
        <time>2017-07-25T14:15:59Z</time>
      </trkpt>
      <trkpt lat="45.61143" lon="4.81004">
        <ele>185</ele>
        <time>2017-07-25T14:16:06Z</time>
      </trkpt>
      <trkpt lat="45.61136" lon="4.81005">
        <ele>186</ele>
        <time>2017-07-25T14:16:08Z</time>
      </trkpt>
      <trkpt lat="45.61121" lon="4.81003">
        <ele>187</ele>
        <time>2017-07-25T14:16:13Z</time>
      </trkpt>
      <trkpt lat="45.61118" lon="4.81002">
        <ele>187</ele>
        <time>2017-07-25T14:16:14Z</time>
      </trkpt>
      <trkpt lat="45.61115" lon="4.81">
        <ele>187</ele>
        <time>2017-07-25T14:16:15Z</time>
      </trkpt>
      <trkpt lat="45.61111" lon="4.80999">
        <ele>183</ele>
        <time>2017-07-25T14:16:16Z</time>
      </trkpt>
      <trkpt lat="45.61108" lon="4.80998">
        <ele>183</ele>
        <time>2017-07-25T14:16:17Z</time>
      </trkpt>
      <trkpt lat="45.61103" lon="4.80993">
        <ele>183</ele>
        <time>2017-07-25T14:16:19Z</time>
      </trkpt>
      <trkpt lat="45.61084" lon="4.80972">
        <ele>183</ele>
        <time>2017-07-25T14:16:26Z</time>
      </trkpt>
      <trkpt lat="45.61082" lon="4.80969">
        <ele>189</ele>
        <time>2017-07-25T14:16:29Z</time>
      </trkpt>
      <trkpt lat="45.61081" lon="4.80968">
        <ele>189</ele>
        <time>2017-07-25T14:16:35Z</time>
      </trkpt>
      <trkpt lat="45.61081" lon="4.80968">
        <ele>189</ele>
        <time>2017-07-25T14:16:49Z</time>
      </trkpt>
      <trkpt lat="45.61081" lon="4.80968">
        <ele>189</ele>
        <time>2017-07-25T14:16:53Z</time>
      </trkpt>
      <trkpt lat="45.61076" lon="4.80962">
        <ele>189</ele>
      </trkpt>
      <trkpt lat="45.61073" lon="4.80947">
        <ele>188</ele>
      </trkpt>
      <trkpt lat="45.61062" lon="4.80924">
        <ele>187</ele>
      </trkpt>
      <trkpt lat="45.61058" lon="4.80912">
        <ele>184</ele>
      </trkpt>
      <trkpt lat="45.61036" lon="4.80873">
        <ele>185</ele>
      </trkpt>
      <trkpt lat="45.61013" lon="4.80829">
        <ele>183</ele>
      </trkpt>
      <trkpt lat="45.61008" lon="4.80819">
        <ele>182</ele>
      </trkpt>
      <trkpt lat="45.60984" lon="4.80787">
        <ele>188</ele>
      </trkpt>
      <trkpt lat="45.60951" lon="4.80745">
        <ele>184</ele>
      </trkpt>
      <trkpt lat="45.60944" lon="4.80725">
        <ele>184</ele>
      </trkpt>
      <trkpt lat="45.60922" lon="4.80688">
        <ele>185</ele>
      </trkpt>
      <trkpt lat="45.60918" lon="4.80676">
        <ele>186</ele>
      </trkpt>
      <trkpt lat="45.60907" lon="4.80659">
        <ele>190</ele>
      </trkpt>
      <trkpt lat="45.60901" lon="4.80649">
        <ele>191</ele>
        <time>2017-07-25T14:22:58Z</time>
      </trkpt>
      <trkpt lat="45.60901" lon="4.8065">
        <ele>191</ele>
        <time>2017-07-25T14:23:07Z</time>
      </trkpt>
      <trkpt lat="45.60901" lon="4.80649">
        <ele>191</ele>
        <time>2017-07-25T14:23:16Z</time>
      </trkpt>
      <trkpt lat="45.60901" lon="4.80649">
        <ele>191</ele>
        <time>2017-07-25T14:23:30Z</time>
      </trkpt>
      <trkpt lat="45.60901" lon="4.80649">
        <ele>191</ele>
        <time>2017-07-25T14:23:46Z</time>
      </trkpt>
      <trkpt lat="45.609" lon="4.80645">
        <ele>191</ele>
        <time>2017-07-25T14:23:50Z</time>
      </trkpt>
      <trkpt lat="45.60899" lon="4.80644">
        <ele>192</ele>
        <time>2017-07-25T14:23:51Z</time>
      </trkpt>
      <trkpt lat="45.60891" lon="4.80637">
        <ele>192</ele>
        <time>2017-07-25T14:23:56Z</time>
      </trkpt>
      <trkpt lat="45.60877" lon="4.80617">
        <ele>193</ele>
        <time>2017-07-25T14:24:18Z</time>
      </trkpt>
      <trkpt lat="45.60853" lon="4.80567">
        <ele>189</ele>
      </trkpt>
      <trkpt lat="45.6077" lon="4.80427">
        <ele>188</ele>
        <time>2017-07-25T14:24:56Z</time>
      </trkpt>
      <trkpt lat="45.60685" lon="4.80315">
        <ele>181</ele>
      </trkpt>
      <trkpt lat="45.60581" lon="4.80199">
        <ele>189</ele>
        <time>2017-07-25T14:29:29Z</time>
      </trkpt>
      <trkpt lat="45.60552" lon="4.80168">
        <ele>189</ele>
      </trkpt>
      <trkpt lat="45.60453" lon="4.80014">
        <ele>183</ele>
        <time>2017-07-25T14:29:38Z</time>
      </trkpt>
      <trkpt lat="45.60453" lon="4.80014">
        <ele>183</ele>
        <time>2017-07-25T14:29:52Z</time>
      </trkpt>
      <trkpt lat="45.60453" lon="4.80014">
        <ele>183</ele>
        <time>2017-07-25T14:29:53Z</time>
      </trkpt>
      <trkpt lat="45.60453" lon="4.80013">
        <ele>183</ele>
        <time>2017-07-25T14:29:54Z</time>
      </trkpt>
      <trkpt lat="45.60452" lon="4.8001">
        <ele>183</ele>
        <time>2017-07-25T14:29:55Z</time>
      </trkpt>
      <trkpt lat="45.60451" lon="4.80008">
        <ele>183</ele>
        <time>2017-07-25T14:29:56Z</time>
      </trkpt>
      <trkpt lat="45.60449" lon="4.80006">
        <ele>183</ele>
        <time>2017-07-25T14:29:57Z</time>
      </trkpt>
      <trkpt lat="45.60445" lon="4.79996">
        <ele>176</ele>
        <time>2017-07-25T14:30:00Z</time>
      </trkpt>
      <trkpt lat="45.60444" lon="4.79994">
        <ele>176</ele>
        <time>2017-07-25T14:30:01Z</time>
      </trkpt>
      <trkpt lat="45.60443" lon="4.79991">
        <ele>176</ele>
        <time>2017-07-25T14:30:02Z</time>
      </trkpt>
      <trkpt lat="45.60442" lon="4.7999">
        <ele>176</ele>
        <time>2017-07-25T14:30:03Z</time>
      </trkpt>
      <trkpt lat="45.60442" lon="4.79988">
        <ele>176</ele>
        <time>2017-07-25T14:30:04Z</time>
      </trkpt>
      <trkpt lat="45.6044" lon="4.79986">
        <ele>176</ele>
        <time>2017-07-25T14:30:05Z</time>
      </trkpt>
      <trkpt lat="45.60439" lon="4.79986">
        <ele>176</ele>
        <time>2017-07-25T14:30:06Z</time>
      </trkpt>
      <trkpt lat="45.60439" lon="4.79986">
        <ele>176</ele>
        <time>2017-07-25T14:30:07Z</time>
      </trkpt>
      <trkpt lat="45.60439" lon="4.79986">
        <ele>176</ele>
        <time>2017-07-25T14:30:08Z</time>
      </trkpt>
      <trkpt lat="45.60439" lon="4.79986">
        <ele>176</ele>
        <time>2017-07-25T14:30:09Z</time>
      </trkpt>
      <trkpt lat="45.60439" lon="4.79986">
        <ele>176</ele>
        <time>2017-07-25T14:30:11Z</time>
      </trkpt>
      <trkpt lat="45.60439" lon="4.79986">
        <ele>176</ele>
        <time>2017-07-25T14:30:20Z</time>
      </trkpt>
      <trkpt lat="45.60439" lon="4.79986">
        <ele>176</ele>
        <time>2017-07-25T14:30:30Z</time>
      </trkpt>
      <trkpt lat="45.60437" lon="4.79984">
        <ele>176</ele>
        <time>2017-07-25T14:30:36Z</time>
      </trkpt>
      <trkpt lat="45.60432" lon="4.79979">
        <ele>176</ele>
        <time>2017-07-25T14:30:39Z</time>
      </trkpt>
      <trkpt lat="45.60429" lon="4.79975">
        <ele>176</ele>
        <time>2017-07-25T14:30:40Z</time>
      </trkpt>
      <trkpt lat="45.60427" lon="4.79971">
        <ele>175</ele>
        <time>2017-07-25T14:30:41Z</time>
      </trkpt>
      <trkpt lat="45.60424" lon="4.79967">
        <ele>175</ele>
        <time>2017-07-25T14:30:42Z</time>
      </trkpt>
      <trkpt lat="45.60422" lon="4.79964">
        <ele>174</ele>
        <time>2017-07-25T14:30:43Z</time>
      </trkpt>
      <trkpt lat="45.60418" lon="4.79959">
        <ele>174</ele>
        <time>2017-07-25T14:30:45Z</time>
      </trkpt>
      <trkpt lat="45.60401" lon="4.79945">
        <ele>181</ele>
        <time>2017-07-25T14:30:51Z</time>
      </trkpt>
      <trkpt lat="45.60381" lon="4.79927">
        <ele>181</ele>
        <time>2017-07-25T14:30:57Z</time>
      </trkpt>
      <trkpt lat="45.6036" lon="4.79909">
        <ele>175</ele>
        <time>2017-07-25T14:31:03Z</time>
      </trkpt>
      <trkpt lat="45.60345" lon="4.79896">
        <ele>176</ele>
        <time>2017-07-25T14:31:08Z</time>
      </trkpt>
      <trkpt lat="45.60327" lon="4.79882">
        <ele>179</ele>
        <time>2017-07-25T14:31:14Z</time>
      </trkpt>
      <trkpt lat="45.60303" lon="4.79866">
        <ele>178</ele>
        <time>2017-07-25T14:31:21Z</time>
      </trkpt>
      <trkpt lat="45.6029" lon="4.79869">
        <ele>179</ele>
        <time>2017-07-25T14:31:25Z</time>
      </trkpt>
      <trkpt lat="45.60279" lon="4.79874">
        <ele>180</ele>
        <time>2017-07-25T14:31:29Z</time>
      </trkpt>
      <trkpt lat="45.60258" lon="4.79882">
        <ele>182</ele>
        <time>2017-07-25T14:31:38Z</time>
      </trkpt>
      <trkpt lat="45.60254" lon="4.79883">
        <ele>182</ele>
        <time>2017-07-25T14:31:40Z</time>
      </trkpt>
      <trkpt lat="45.60249" lon="4.79883">
        <ele>185</ele>
        <time>2017-07-25T14:31:42Z</time>
      </trkpt>
      <trkpt lat="45.60244" lon="4.7988">
        <ele>185</ele>
        <time>2017-07-25T14:31:44Z</time>
      </trkpt>
      <trkpt lat="45.60233" lon="4.79874">
        <ele>184</ele>
        <time>2017-07-25T14:31:48Z</time>
      </trkpt>
      <trkpt lat="45.60231" lon="4.79871">
        <ele>184</ele>
        <time>2017-07-25T14:31:49Z</time>
      </trkpt>
      <trkpt lat="45.60229" lon="4.79868">
        <ele>184</ele>
        <time>2017-07-25T14:31:50Z</time>
      </trkpt>
      <trkpt lat="45.60227" lon="4.79864">
        <ele>184</ele>
        <time>2017-07-25T14:31:51Z</time>
      </trkpt>
      <trkpt lat="45.60218" lon="4.79845">
        <ele>183</ele>
        <time>2017-07-25T14:31:55Z</time>
      </trkpt>
      <trkpt lat="45.60205" lon="4.79823">
        <ele>177</ele>
        <time>2017-07-25T14:32:00Z</time>
      </trkpt>
      <trkpt lat="45.60196" lon="4.79816">
        <ele>178</ele>
        <time>2017-07-25T14:32:02Z</time>
      </trkpt>
      <trkpt lat="45.60192" lon="4.79813">
        <ele>178</ele>
        <time>2017-07-25T14:32:03Z</time>
      </trkpt>
      <trkpt lat="45.60187" lon="4.79811">
        <ele>178</ele>
        <time>2017-07-25T14:32:04Z</time>
      </trkpt>
      <trkpt lat="45.60182" lon="4.79806">
        <ele>178</ele>
        <time>2017-07-25T14:32:05Z</time>
      </trkpt>
      <trkpt lat="45.60178" lon="4.79802">
        <ele>178</ele>
        <time>2017-07-25T14:32:06Z</time>
      </trkpt>
      <trkpt lat="45.60173" lon="4.79797">
        <ele>177</ele>
        <time>2017-07-25T14:32:07Z</time>
      </trkpt>
      <trkpt lat="45.60167" lon="4.79792">
        <ele>177</ele>
        <time>2017-07-25T14:32:08Z</time>
      </trkpt>
      <trkpt lat="45.6016" lon="4.79787">
        <ele>179</ele>
        <time>2017-07-25T14:32:09Z</time>
      </trkpt>
      <trkpt lat="45.60153" lon="4.79782">
        <ele>179</ele>
        <time>2017-07-25T14:32:10Z</time>
      </trkpt>
      <trkpt lat="45.60146" lon="4.79777">
        <ele>178</ele>
        <time>2017-07-25T14:32:11Z</time>
      </trkpt>
      <trkpt lat="45.6014" lon="4.79774">
        <ele>178</ele>
        <time>2017-07-25T14:32:12Z</time>
      </trkpt>
      <trkpt lat="45.60133" lon="4.7977">
        <ele>178</ele>
        <time>2017-07-25T14:32:13Z</time>
      </trkpt>
      <trkpt lat="45.60127" lon="4.79767">
        <ele>179</ele>
        <time>2017-07-25T14:32:14Z</time>
      </trkpt>
      <trkpt lat="45.60114" lon="4.79759">
        <ele>178</ele>
        <time>2017-07-25T14:32:17Z</time>
      </trkpt>
      <trkpt lat="45.60104" lon="4.79754">
        <ele>178</ele>
        <time>2017-07-25T14:32:20Z</time>
      </trkpt>
      <trkpt lat="45.60098" lon="4.79753">
        <ele>178</ele>
        <time>2017-07-25T14:32:22Z</time>
      </trkpt>
      <trkpt lat="45.60091" lon="4.7975">
        <ele>178</ele>
        <time>2017-07-25T14:32:25Z</time>
      </trkpt>
      <trkpt lat="45.6009" lon="4.79747">
        <ele>176</ele>
        <time>2017-07-25T14:32:26Z</time>
      </trkpt>
      <trkpt lat="45.60086" lon="4.79739">
        <ele>176</ele>
        <time>2017-07-25T14:32:28Z</time>
      </trkpt>
      <trkpt lat="45.60071" lon="4.7971">
        <ele>176</ele>
        <time>2017-07-25T14:32:34Z</time>
      </trkpt>
      <trkpt lat="45.60064" lon="4.79703">
        <ele>175</ele>
        <time>2017-07-25T14:32:36Z</time>
      </trkpt>
      <trkpt lat="45.6006" lon="4.797">
        <ele>175</ele>
        <time>2017-07-25T14:32:37Z</time>
      </trkpt>
      <trkpt lat="45.60052" lon="4.79692">
        <ele>175</ele>
        <time>2017-07-25T14:32:39Z</time>
      </trkpt>
      <trkpt lat="45.60047" lon="4.79689">
        <ele>175</ele>
        <time>2017-07-25T14:32:40Z</time>
      </trkpt>
      <trkpt lat="45.60042" lon="4.79685">
        <ele>175</ele>
        <time>2017-07-25T14:32:41Z</time>
      </trkpt>
      <trkpt lat="45.60036" lon="4.79681">
        <ele>175</ele>
        <time>2017-07-25T14:32:42Z</time>
      </trkpt>
      <trkpt lat="45.6003" lon="4.79675">
        <ele>175</ele>
        <time>2017-07-25T14:32:43Z</time>
      </trkpt>
      <trkpt lat="45.60017" lon="4.79665">
        <ele>172</ele>
        <time>2017-07-25T14:32:45Z</time>
      </trkpt>
      <trkpt lat="45.6001" lon="4.79659">
        <ele>173</ele>
        <time>2017-07-25T14:32:46Z</time>
      </trkpt>
      <trkpt lat="45.60003" lon="4.79652">
        <ele>173</ele>
        <time>2017-07-25T14:32:47Z</time>
      </trkpt>
      <trkpt lat="45.59996" lon="4.79646">
        <ele>174</ele>
        <time>2017-07-25T14:32:48Z</time>
      </trkpt>
      <trkpt lat="45.59989" lon="4.79639">
        <ele>173</ele>
        <time>2017-07-25T14:32:49Z</time>
      </trkpt>
      <trkpt lat="45.59982" lon="4.79633">
        <ele>173</ele>
        <time>2017-07-25T14:32:50Z</time>
      </trkpt>
      <trkpt lat="45.59974" lon="4.79627">
        <ele>173</ele>
        <time>2017-07-25T14:32:51Z</time>
      </trkpt>
      <trkpt lat="45.59966" lon="4.7962">
        <ele>173</ele>
        <time>2017-07-25T14:32:52Z</time>
      </trkpt>
      <trkpt lat="45.59958" lon="4.79613">
        <ele>173</ele>
        <time>2017-07-25T14:32:53Z</time>
      </trkpt>
      <trkpt lat="45.59952" lon="4.79608">
        <ele>173</ele>
        <time>2017-07-25T14:32:54Z</time>
      </trkpt>
      <trkpt lat="45.59944" lon="4.79601">
        <ele>173</ele>
        <time>2017-07-25T14:32:55Z</time>
      </trkpt>
      <trkpt lat="45.59936" lon="4.79594">
        <ele>172</ele>
        <time>2017-07-25T14:32:56Z</time>
      </trkpt>
      <trkpt lat="45.59929" lon="4.79588">
        <ele>172</ele>
        <time>2017-07-25T14:32:57Z</time>
      </trkpt>
      <trkpt lat="45.59922" lon="4.79582">
        <ele>170</ele>
        <time>2017-07-25T14:32:58Z</time>
      </trkpt>
      <trkpt lat="45.59915" lon="4.79577">
        <ele>171</ele>
        <time>2017-07-25T14:32:59Z</time>
      </trkpt>
      <trkpt lat="45.59904" lon="4.79568">
        <ele>171</ele>
        <time>2017-07-25T14:33:01Z</time>
      </trkpt>
      <trkpt lat="45.59883" lon="4.79554">
        <ele>171</ele>
        <time>2017-07-25T14:33:05Z</time>
      </trkpt>
      <trkpt lat="45.59878" lon="4.7955">
        <ele>171</ele>
        <time>2017-07-25T14:33:06Z</time>
      </trkpt>
      <trkpt lat="45.59874" lon="4.79547">
        <ele>171</ele>
        <time>2017-07-25T14:33:07Z</time>
      </trkpt>
      <trkpt lat="45.5987" lon="4.79543">
        <ele>171</ele>
        <time>2017-07-25T14:33:08Z</time>
      </trkpt>
      <trkpt lat="45.59865" lon="4.79539">
        <ele>171</ele>
        <time>2017-07-25T14:33:09Z</time>
      </trkpt>
      <trkpt lat="45.59834" lon="4.79513">
        <ele>170</ele>
        <time>2017-07-25T14:33:16Z</time>
      </trkpt>
      <trkpt lat="45.59807" lon="4.79492">
        <ele>169</ele>
        <time>2017-07-25T14:33:23Z</time>
      </trkpt>
      <trkpt lat="45.59801" lon="4.79486">
        <ele>169</ele>
        <time>2017-07-25T14:33:25Z</time>
      </trkpt>
      <trkpt lat="45.59821" lon="4.79426">
        <ele>167</ele>
      </trkpt>
      <trkpt lat="45.59831" lon="4.79402">
        <ele>166</ele>
        <time>2017-07-25T14:33:40Z</time>
      </trkpt>
      <trkpt lat="45.59826" lon="4.79392">
        <ele>166</ele>
        <time>2017-07-25T14:33:41Z</time>
      </trkpt>
      <trkpt lat="45.59822" lon="4.79388">
        <ele>166</ele>
        <time>2017-07-25T14:33:42Z</time>
      </trkpt>
      <trkpt lat="45.59817" lon="4.79384">
        <ele>166</ele>
        <time>2017-07-25T14:33:43Z</time>
      </trkpt>
      <trkpt lat="45.59796" lon="4.79357">
        <ele>166</ele>
        <time>2017-07-25T14:33:48Z</time>
      </trkpt>
      <trkpt lat="45.59787" lon="4.79338">
        <ele>166</ele>
        <time>2017-07-25T14:33:51Z</time>
      </trkpt>
      <trkpt lat="45.59783" lon="4.79331">
        <ele>163</ele>
        <time>2017-07-25T14:33:52Z</time>
      </trkpt>
      <trkpt lat="45.59775" lon="4.7932">
        <ele>163</ele>
        <time>2017-07-25T14:33:53Z</time>
      </trkpt>
      <trkpt lat="45.59767" lon="4.79316">
        <ele>164</ele>
        <time>2017-07-25T14:33:54Z</time>
      </trkpt>
      <trkpt lat="45.59747" lon="4.79306">
        <ele>166</ele>
        <time>2017-07-25T14:33:59Z</time>
      </trkpt>
      <trkpt lat="45.59704" lon="4.79288">
        <ele>166</ele>
        <time>2017-07-25T14:34:06Z</time>
      </trkpt>
      <trkpt lat="45.59662" lon="4.79282">
        <ele>167</ele>
        <time>2017-07-25T14:34:13Z</time>
      </trkpt>
      <trkpt lat="45.59617" lon="4.7927">
        <ele>167</ele>
        <time>2017-07-25T14:34:21Z</time>
      </trkpt>
      <trkpt lat="45.59597" lon="4.79264">
        <ele>167</ele>
        <time>2017-07-25T14:34:25Z</time>
      </trkpt>
      <trkpt lat="45.59593" lon="4.79263">
        <ele>167</ele>
        <time>2017-07-25T14:34:26Z</time>
      </trkpt>
      <trkpt lat="45.59589" lon="4.79262">
        <ele>167</ele>
        <time>2017-07-25T14:34:27Z</time>
      </trkpt>
      <trkpt lat="45.59586" lon="4.79261">
        <ele>167</ele>
        <time>2017-07-25T14:34:28Z</time>
      </trkpt>
      <trkpt lat="45.5955" lon="4.79249">
        <ele>166</ele>
      </trkpt>
      <trkpt lat="45.59519" lon="4.79244">
        <ele>165</ele>
        <time>2017-07-25T14:34:41Z</time>
      </trkpt>
      <trkpt lat="45.59514" lon="4.79241">
        <ele>165</ele>
        <time>2017-07-25T14:34:42Z</time>
      </trkpt>
      <trkpt lat="45.59491" lon="4.79231">
        <ele>164</ele>
      </trkpt>
      <trkpt lat="45.59464" lon="4.79205">
        <ele>164</ele>
      </trkpt>
      <trkpt lat="45.59427" lon="4.79164">
        <ele>162</ele>
      </trkpt>
      <trkpt lat="45.59414" lon="4.79134">
        <ele>161</ele>
      </trkpt>
      <trkpt lat="45.59404" lon="4.79094">
        <ele>160</ele>
      </trkpt>
      <trkpt lat="45.59403" lon="4.79072">
        <ele>159</ele>
      </trkpt>
      <trkpt lat="45.59405" lon="4.79036">
        <ele>159</ele>
        <time>2017-07-25T14:35:38Z</time>
      </trkpt>
      <trkpt lat="45.59404" lon="4.79019">
        <ele>159</ele>
      </trkpt>
      <trkpt lat="45.5941" lon="4.78925">
        <ele>158</ele>
        <time>2017-07-25T14:36:38Z</time>
      </trkpt>
      <trkpt lat="45.59414" lon="4.78907">
        <ele>158</ele>
        <time>2017-07-25T14:36:41Z</time>
      </trkpt>
      <trkpt lat="45.59415" lon="4.78904">
        <ele>158</ele>
        <time>2017-07-25T14:36:42Z</time>
      </trkpt>
      <trkpt lat="45.59413" lon="4.78898">
        <ele>158</ele>
        <time>2017-07-25T14:36:45Z</time>
      </trkpt>
      <trkpt lat="45.59406" lon="4.78891">
        <ele>158</ele>
        <time>2017-07-25T14:36:48Z</time>
      </trkpt>
      <trkpt lat="45.59404" lon="4.78887">
        <ele>158</ele>
        <time>2017-07-25T14:36:49Z</time>
      </trkpt>
      <trkpt lat="45.5939" lon="4.78865">
        <ele>158</ele>
        <time>2017-07-25T14:36:54Z</time>
      </trkpt>
      <trkpt lat="45.59387" lon="4.7886">
        <ele>158</ele>
        <time>2017-07-25T14:36:55Z</time>
      </trkpt>
      <trkpt lat="45.59376" lon="4.78838">
        <ele>158</ele>
        <time>2017-07-25T14:36:59Z</time>
      </trkpt>
      <trkpt lat="45.59356" lon="4.78797">
        <ele>157</ele>
        <time>2017-07-25T14:37:06Z</time>
      </trkpt>
      <trkpt lat="45.59329" lon="4.78742">
        <ele>156</ele>
        <time>2017-07-25T14:37:15Z</time>
      </trkpt>
      <trkpt lat="45.59316" lon="4.78717">
        <ele>156</ele>
        <time>2017-07-25T14:37:19Z</time>
      </trkpt>
      <trkpt lat="45.59307" lon="4.78698">
        <ele>156</ele>
        <time>2017-07-25T14:37:22Z</time>
      </trkpt>
      <trkpt lat="45.59287" lon="4.78661">
        <ele>157</ele>
        <time>2017-07-25T14:37:28Z</time>
      </trkpt>
      <trkpt lat="45.59275" lon="4.78635">
        <ele>157</ele>
        <time>2017-07-25T14:37:32Z</time>
      </trkpt>
      <trkpt lat="45.59269" lon="4.78623">
        <ele>157</ele>
        <time>2017-07-25T14:37:34Z</time>
      </trkpt>
      <trkpt lat="45.59252" lon="4.78593">
        <ele>158</ele>
        <time>2017-07-25T14:37:40Z</time>
      </trkpt>
      <trkpt lat="45.59241" lon="4.78574">
        <ele>159</ele>
        <time>2017-07-25T14:37:45Z</time>
      </trkpt>
      <trkpt lat="45.59235" lon="4.78563">
        <ele>160</ele>
        <time>2017-07-25T14:37:50Z</time>
      </trkpt>
      <trkpt lat="45.59235" lon="4.78563">
        <ele>160</ele>
        <time>2017-07-25T14:37:56Z</time>
      </trkpt>
      <trkpt lat="45.59235" lon="4.78561">
        <ele>160</ele>
        <time>2017-07-25T14:38:08Z</time>
      </trkpt>
      <trkpt lat="45.59229" lon="4.78547">
        <ele>160</ele>
        <time>2017-07-25T14:38:14Z</time>
      </trkpt>
      <trkpt lat="45.59226" lon="4.78534">
        <ele>159</ele>
        <time>2017-07-25T14:38:18Z</time>
      </trkpt>
      <trkpt lat="45.59225" lon="4.7853">
        <ele>159</ele>
        <time>2017-07-25T14:38:19Z</time>
      </trkpt>
      <trkpt lat="45.5922" lon="4.78511">
        <ele>159</ele>
        <time>2017-07-25T14:38:24Z</time>
      </trkpt>
      <trkpt lat="45.59216" lon="4.78503">
        <ele>159</ele>
        <time>2017-07-25T14:38:27Z</time>
      </trkpt>
      <trkpt lat="45.59216" lon="4.78503">
        <ele>159</ele>
        <time>2017-07-25T14:38:29Z</time>
      </trkpt>
      <trkpt lat="45.59216" lon="4.78503">
        <ele>159</ele>
        <time>2017-07-25T14:38:42Z</time>
      </trkpt>
      <trkpt lat="45.59213" lon="4.78494">
        <ele>158</ele>
        <time>2017-07-25T14:38:47Z</time>
      </trkpt>
      <trkpt lat="45.59206" lon="4.78479">
        <ele>158</ele>
        <time>2017-07-25T14:38:51Z</time>
      </trkpt>
      <trkpt lat="45.59204" lon="4.78475">
        <ele>158</ele>
        <time>2017-07-25T14:38:52Z</time>
      </trkpt>
      <trkpt lat="45.59195" lon="4.78449">
        <ele>158</ele>
        <time>2017-07-25T14:38:57Z</time>
      </trkpt>
      <trkpt lat="45.59187" lon="4.78432">
        <ele>158</ele>
        <time>2017-07-25T14:39:00Z</time>
      </trkpt>
      <trkpt lat="45.59182" lon="4.7842">
        <ele>159</ele>
        <time>2017-07-25T14:39:02Z</time>
      </trkpt>
      <trkpt lat="45.59169" lon="4.78385">
        <ele>158</ele>
        <time>2017-07-25T14:39:08Z</time>
      </trkpt>
      <trkpt lat="45.59152" lon="4.78337">
        <ele>158</ele>
        <time>2017-07-25T14:39:16Z</time>
      </trkpt>
      <trkpt lat="45.59138" lon="4.78298">
        <ele>157</ele>
        <time>2017-07-25T14:39:23Z</time>
      </trkpt>
      <trkpt lat="45.59125" lon="4.78264">
        <ele>156</ele>
        <time>2017-07-25T14:39:29Z</time>
      </trkpt>
      <trkpt lat="45.59122" lon="4.78258">
        <ele>156</ele>
        <time>2017-07-25T14:39:30Z</time>
      </trkpt>
      <trkpt lat="45.59105" lon="4.78216">
        <ele>156</ele>
        <time>2017-07-25T14:39:37Z</time>
      </trkpt>
      <trkpt lat="45.59092" lon="4.78188">
        <ele>156</ele>
        <time>2017-07-25T14:39:41Z</time>
      </trkpt>
      <trkpt lat="45.59082" lon="4.78167">
        <ele>157</ele>
        <time>2017-07-25T14:39:44Z</time>
      </trkpt>
      <trkpt lat="45.59071" lon="4.78146">
        <ele>157</ele>
        <time>2017-07-25T14:39:47Z</time>
      </trkpt>
      <trkpt lat="45.59055" lon="4.7812">
        <ele>157</ele>
        <time>2017-07-25T14:39:51Z</time>
      </trkpt>
      <trkpt lat="45.59048" lon="4.78107">
        <ele>157</ele>
        <time>2017-07-25T14:39:53Z</time>
      </trkpt>
      <trkpt lat="45.5904" lon="4.78093">
        <ele>157</ele>
        <time>2017-07-25T14:39:55Z</time>
      </trkpt>
      <trkpt lat="45.59035" lon="4.78086">
        <ele>157</ele>
        <time>2017-07-25T14:39:56Z</time>
      </trkpt>
      <trkpt lat="45.59027" lon="4.78074">
        <ele>156</ele>
        <time>2017-07-25T14:39:58Z</time>
      </trkpt>
      <trkpt lat="45.58997" lon="4.78026">
        <ele>157</ele>
        <time>2017-07-25T14:40:06Z</time>
      </trkpt>
      <trkpt lat="45.58976" lon="4.7799">
        <ele>157</ele>
        <time>2017-07-25T14:40:12Z</time>
      </trkpt>
      <trkpt lat="45.58973" lon="4.77984">
        <ele>157</ele>
        <time>2017-07-25T14:40:13Z</time>
      </trkpt>
      <trkpt lat="45.58955" lon="4.77955">
        <ele>158</ele>
        <time>2017-07-25T14:40:18Z</time>
      </trkpt>
      <trkpt lat="45.58952" lon="4.77951">
        <ele>158</ele>
        <time>2017-07-25T14:40:19Z</time>
      </trkpt>
      <trkpt lat="45.58938" lon="4.7793">
        <ele>159</ele>
        <time>2017-07-25T14:40:23Z</time>
      </trkpt>
      <trkpt lat="45.58932" lon="4.77921">
        <ele>159</ele>
        <time>2017-07-25T14:40:25Z</time>
      </trkpt>
      <trkpt lat="45.58929" lon="4.77917">
        <ele>159</ele>
        <time>2017-07-25T14:40:26Z</time>
      </trkpt>
      <trkpt lat="45.58925" lon="4.77913">
        <ele>159</ele>
        <time>2017-07-25T14:40:27Z</time>
      </trkpt>
      <trkpt lat="45.58921" lon="4.7791">
        <ele>159</ele>
        <time>2017-07-25T14:40:28Z</time>
      </trkpt>
      <trkpt lat="45.58909" lon="4.77901">
        <ele>159</ele>
        <time>2017-07-25T14:40:31Z</time>
      </trkpt>
      <trkpt lat="45.58904" lon="4.77898">
        <ele>159</ele>
        <time>2017-07-25T14:40:32Z</time>
      </trkpt>
      <trkpt lat="45.58898" lon="4.77896">
        <ele>158</ele>
        <time>2017-07-25T14:40:33Z</time>
      </trkpt>
      <trkpt lat="45.58889" lon="4.77891">
        <ele>158</ele>
        <time>2017-07-25T14:40:35Z</time>
      </trkpt>
      <trkpt lat="45.58867" lon="4.77879">
        <ele>158</ele>
        <time>2017-07-25T14:40:41Z</time>
      </trkpt>
      <trkpt lat="45.58851" lon="4.77875">
        <ele>158</ele>
        <time>2017-07-25T14:40:46Z</time>
      </trkpt>
      <trkpt lat="45.58831" lon="4.77871">
        <ele>157</ele>
        <time>2017-07-25T14:40:51Z</time>
      </trkpt>
      <trkpt lat="45.58827" lon="4.7787">
        <ele>157</ele>
        <time>2017-07-25T14:40:52Z</time>
      </trkpt>
      <trkpt lat="45.58812" lon="4.77869">
        <ele>157</ele>
        <time>2017-07-25T14:40:55Z</time>
      </trkpt>
      <trkpt lat="45.58807" lon="4.77869">
        <ele>157</ele>
        <time>2017-07-25T14:40:56Z</time>
      </trkpt>
      <trkpt lat="45.58791" lon="4.77866">
        <ele>157</ele>
        <time>2017-07-25T14:40:59Z</time>
      </trkpt>
      <trkpt lat="45.58781" lon="4.77865">
        <ele>157</ele>
        <time>2017-07-25T14:41:01Z</time>
      </trkpt>
      <trkpt lat="45.58776" lon="4.77865">
        <ele>157</ele>
        <time>2017-07-25T14:41:02Z</time>
      </trkpt>
      <trkpt lat="45.58752" lon="4.77861">
        <ele>157</ele>
        <time>2017-07-25T14:41:07Z</time>
      </trkpt>
      <trkpt lat="45.58737" lon="4.7786">
        <ele>155</ele>
        <time>2017-07-25T14:41:10Z</time>
      </trkpt>
      <trkpt lat="45.58721" lon="4.77859">
        <ele>155</ele>
        <time>2017-07-25T14:41:13Z</time>
      </trkpt>
      <trkpt lat="45.58702" lon="4.77858">
        <ele>155</ele>
        <time>2017-07-25T14:41:17Z</time>
      </trkpt>
      <trkpt lat="45.58664" lon="4.77856">
        <ele>153</ele>
        <time>2017-07-25T14:41:24Z</time>
      </trkpt>
      <trkpt lat="45.58626" lon="4.77857">
        <ele>153</ele>
        <time>2017-07-25T14:41:31Z</time>
      </trkpt>
      <trkpt lat="45.58607" lon="4.77858">
        <ele>153</ele>
        <time>2017-07-25T14:41:35Z</time>
      </trkpt>
      <trkpt lat="45.58602" lon="4.77859">
        <ele>153</ele>
        <time>2017-07-25T14:41:36Z</time>
      </trkpt>
      <trkpt lat="45.58591" lon="4.77859">
        <ele>153</ele>
        <time>2017-07-25T14:42:34Z</time>
      </trkpt>
      <trkpt lat="45.58559" lon="4.77868">
        <ele>154</ele>
        <time>2017-07-25T14:42:45Z</time>
      </trkpt>
      <trkpt lat="45.58551" lon="4.7787">
        <ele>154</ele>
        <time>2017-07-25T14:42:47Z</time>
      </trkpt>
      <trkpt lat="45.5854" lon="4.77873">
        <ele>154</ele>
        <time>2017-07-25T14:42:50Z</time>
      </trkpt>
      <trkpt lat="45.58523" lon="4.77879">
        <ele>154</ele>
        <time>2017-07-25T14:42:56Z</time>
      </trkpt>
      <trkpt lat="45.58503" lon="4.77886">
        <ele>154</ele>
        <time>2017-07-25T14:43:01Z</time>
      </trkpt>
      <trkpt lat="45.58499" lon="4.77888">
        <ele>154</ele>
        <time>2017-07-25T14:43:02Z</time>
      </trkpt>
      <trkpt lat="45.58477" lon="4.77897">
        <ele>154</ele>
        <time>2017-07-25T14:43:07Z</time>
      </trkpt>
      <trkpt lat="45.58451" lon="4.77909">
        <ele>154</ele>
        <time>2017-07-25T14:43:13Z</time>
      </trkpt>
      <trkpt lat="45.58446" lon="4.77911">
        <ele>154</ele>
        <time>2017-07-25T14:43:14Z</time>
      </trkpt>
      <trkpt lat="45.5843" lon="4.7792">
        <ele>154</ele>
        <time>2017-07-25T14:43:18Z</time>
      </trkpt>
      <trkpt lat="45.58421" lon="4.77925">
        <ele>154</ele>
        <time>2017-07-25T14:43:20Z</time>
      </trkpt>
      <trkpt lat="45.58413" lon="4.77931">
        <ele>154</ele>
        <time>2017-07-25T14:43:22Z</time>
      </trkpt>
      <trkpt lat="45.58396" lon="4.77942">
        <ele>155</ele>
        <time>2017-07-25T14:43:26Z</time>
      </trkpt>
      <trkpt lat="45.58381" lon="4.77953">
        <ele>155</ele>
        <time>2017-07-25T14:43:30Z</time>
      </trkpt>
      <trkpt lat="45.58252" lon="4.78059">
        <ele>155</ele>
        <time>2017-07-25T14:44:01Z</time>
      </trkpt>
      <trkpt lat="45.58236" lon="4.78072">
        <ele>154</ele>
        <time>2017-07-25T14:44:07Z</time>
      </trkpt>
      <trkpt lat="45.58223" lon="4.78079">
        <ele>153</ele>
        <time>2017-07-25T14:44:11Z</time>
      </trkpt>
      <trkpt lat="45.58214" lon="4.78089">
        <ele>154</ele>
        <time>2017-07-25T14:44:14Z</time>
      </trkpt>
      <trkpt lat="45.58214" lon="4.78092">
        <ele>154</ele>
        <time>2017-07-25T14:44:15Z</time>
      </trkpt>
      <trkpt lat="45.5821" lon="4.78107">
        <ele>154</ele>
        <time>2017-07-25T14:44:20Z</time>
      </trkpt>
      <trkpt lat="45.58209" lon="4.78109">
        <ele>154</ele>
        <time>2017-07-25T14:44:21Z</time>
      </trkpt>
      <trkpt lat="45.58209" lon="4.7811">
        <ele>154</ele>
        <time>2017-07-25T14:44:25Z</time>
      </trkpt>
      <trkpt lat="45.58209" lon="4.7811">
        <ele>154</ele>
        <time>2017-07-25T14:44:38Z</time>
      </trkpt>
      <trkpt lat="45.58209" lon="4.7811">
        <ele>154</ele>
        <time>2017-07-25T14:44:50Z</time>
      </trkpt>
      <trkpt lat="45.58209" lon="4.7811">
        <ele>154</ele>
        <time>2017-07-25T14:45:03Z</time>
      </trkpt>
      <trkpt lat="45.58209" lon="4.78112">
        <ele>154</ele>
        <time>2017-07-25T14:45:11Z</time>
      </trkpt>
      <trkpt lat="45.58211" lon="4.78114">
        <ele>154</ele>
        <time>2017-07-25T14:45:12Z</time>
      </trkpt>
      <trkpt lat="45.58218" lon="4.78117">
        <ele>154</ele>
        <time>2017-07-25T14:45:15Z</time>
      </trkpt>
      <trkpt lat="45.58221" lon="4.7812">
        <ele>154</ele>
        <time>2017-07-25T14:45:16Z</time>
      </trkpt>
      <trkpt lat="45.58228" lon="4.78129">
        <ele>154</ele>
        <time>2017-07-25T14:45:19Z</time>
      </trkpt>
      <trkpt lat="45.58233" lon="4.78136">
        <ele>154</ele>
        <time>2017-07-25T14:45:21Z</time>
      </trkpt>
      <trkpt lat="45.58249" lon="4.78148">
        <ele>155</ele>
        <time>2017-07-25T14:45:26Z</time>
      </trkpt>
      <trkpt lat="45.58262" lon="4.78159">
        <ele>156</ele>
        <time>2017-07-25T14:45:30Z</time>
      </trkpt>
      <trkpt lat="45.58264" lon="4.78161">
        <ele>156</ele>
        <time>2017-07-25T14:45:31Z</time>
      </trkpt>
      <trkpt lat="45.58266" lon="4.78164">
        <ele>156</ele>
        <time>2017-07-25T14:45:32Z</time>
      </trkpt>
      <trkpt lat="45.58268" lon="4.78167">
        <ele>156</ele>
        <time>2017-07-25T14:45:33Z</time>
      </trkpt>
      <trkpt lat="45.5827" lon="4.78169">
        <ele>157</ele>
        <time>2017-07-25T14:45:34Z</time>
      </trkpt>
      <trkpt lat="45.58282" lon="4.78166">
        <ele>157</ele>
        <time>2017-07-25T14:45:37Z</time>
      </trkpt>
      <trkpt lat="45.58161" lon="4.77996">
        <ele>153</ele>
        <time>2017-07-25T14:48:38Z</time>
      </trkpt>
      <trkpt lat="45.58076" lon="4.77874">
        <ele>166</ele>
        <time>2017-07-25T14:48:39Z</time>
      </trkpt>
      <trkpt lat="45.58058" lon="4.77894">
        <ele>167</ele>
      </trkpt>
      <trkpt lat="45.58017" lon="4.77982">
        <ele>162</ele>
      </trkpt>
      <trkpt lat="45.57964" lon="4.78137">
        <ele>164</ele>
        <time>2017-07-25T14:48:41Z</time>
      </trkpt>
      <trkpt lat="45.57851" lon="4.7848">
        <ele>159</ele>
        <time>2017-07-25T14:51:26Z</time>
      </trkpt>
      <trkpt lat="45.57825" lon="4.78567">
        <ele>160</ele>
      </trkpt>
      <trkpt lat="45.57804" lon="4.78635">
        <ele>158</ele>
      </trkpt>
      <trkpt lat="45.57768" lon="4.78713">
        <ele>156</ele>
      </trkpt>
      <trkpt lat="45.57753" lon="4.78746">
        <ele>156</ele>
      </trkpt>
      <trkpt lat="45.57723" lon="4.78791">
        <ele>157</ele>
        <time>2017-07-25T14:51:27Z</time>
      </trkpt>
      <trkpt lat="45.57692" lon="4.78834">
        <ele>156</ele>
        <time>2017-07-25T14:51:35Z</time>
      </trkpt>
      <trkpt lat="45.57661" lon="4.78882">
        <ele>159</ele>
        <time>2017-07-25T14:51:42Z</time>
      </trkpt>
      <trkpt lat="45.57622" lon="4.78939">
        <ele>158</ele>
        <time>2017-07-25T14:51:50Z</time>
      </trkpt>
      <trkpt lat="45.57582" lon="4.7899">
        <ele>159</ele>
        <time>2017-07-25T14:51:58Z</time>
      </trkpt>
      <trkpt lat="45.57552" lon="4.79026">
        <ele>160</ele>
        <time>2017-07-25T14:52:05Z</time>
      </trkpt>
      <trkpt lat="45.57522" lon="4.79064">
        <ele>160</ele>
        <time>2017-07-25T14:52:12Z</time>
      </trkpt>
      <trkpt lat="45.57489" lon="4.79104">
        <ele>161</ele>
        <time>2017-07-25T14:52:19Z</time>
      </trkpt>
      <trkpt lat="45.57465" lon="4.79134">
        <ele>160</ele>
        <time>2017-07-25T14:52:24Z</time>
      </trkpt>
      <trkpt lat="45.57432" lon="4.79174">
        <ele>159</ele>
        <time>2017-07-25T14:52:31Z</time>
      </trkpt>
      <trkpt lat="45.57398" lon="4.79214">
        <ele>161</ele>
        <time>2017-07-25T14:52:38Z</time>
      </trkpt>
      <trkpt lat="45.57365" lon="4.79254">
        <ele>159</ele>
        <time>2017-07-25T14:52:45Z</time>
      </trkpt>
      <trkpt lat="45.5736" lon="4.7926">
        <ele>159</ele>
        <time>2017-07-25T14:52:46Z</time>
      </trkpt>
      <trkpt lat="45.57356" lon="4.79265">
        <ele>159</ele>
        <time>2017-07-25T14:52:47Z</time>
      </trkpt>
      <trkpt lat="45.57351" lon="4.79271">
        <ele>159</ele>
        <time>2017-07-25T14:52:48Z</time>
      </trkpt>
      <trkpt lat="45.57347" lon="4.79276">
        <ele>159</ele>
        <time>2017-07-25T14:52:49Z</time>
      </trkpt>
      <trkpt lat="45.57338" lon="4.79287">
        <ele>159</ele>
        <time>2017-07-25T14:52:51Z</time>
      </trkpt>
      <trkpt lat="45.57298" lon="4.79335">
        <ele>160</ele>
        <time>2017-07-25T14:53:00Z</time>
      </trkpt>
      <trkpt lat="45.57274" lon="4.7936">
        <ele>161</ele>
        <time>2017-07-25T14:53:06Z</time>
      </trkpt>
      <trkpt lat="45.57261" lon="4.79376">
        <ele>160</ele>
        <time>2017-07-25T14:53:11Z</time>
      </trkpt>
      <trkpt lat="45.57248" lon="4.79393">
        <ele>163</ele>
        <time>2017-07-25T14:53:15Z</time>
      </trkpt>
      <trkpt lat="45.57244" lon="4.79397">
        <ele>162</ele>
        <time>2017-07-25T14:53:16Z</time>
      </trkpt>
      <trkpt lat="45.57241" lon="4.79401">
        <ele>162</ele>
        <time>2017-07-25T14:53:17Z</time>
      </trkpt>
      <trkpt lat="45.57237" lon="4.79406">
        <ele>162</ele>
        <time>2017-07-25T14:53:18Z</time>
      </trkpt>
      <trkpt lat="45.57226" lon="4.79419">
        <ele>161</ele>
        <time>2017-07-25T14:53:21Z</time>
      </trkpt>
      <trkpt lat="45.57218" lon="4.79423">
        <ele>161</ele>
        <time>2017-07-25T14:53:23Z</time>
      </trkpt>
      <trkpt lat="45.57214" lon="4.79422">
        <ele>162</ele>
        <time>2017-07-25T14:53:24Z</time>
      </trkpt>
      <trkpt lat="45.57211" lon="4.79417">
        <ele>162</ele>
        <time>2017-07-25T14:53:25Z</time>
      </trkpt>
      <trkpt lat="45.57209" lon="4.79412">
        <ele>164</ele>
        <time>2017-07-25T14:53:26Z</time>
      </trkpt>
      <trkpt lat="45.57207" lon="4.79407">
        <ele>164</ele>
        <time>2017-07-25T14:53:27Z</time>
      </trkpt>
      <trkpt lat="45.57205" lon="4.79403">
        <ele>164</ele>
        <time>2017-07-25T14:53:28Z</time>
      </trkpt>
      <trkpt lat="45.57199" lon="4.79388">
        <ele>165</ele>
        <time>2017-07-25T14:53:32Z</time>
      </trkpt>
      <trkpt lat="45.57191" lon="4.79366">
        <ele>165</ele>
      </trkpt>
      <trkpt lat="45.57178" lon="4.7935">
        <ele>166</ele>
        <time>2017-07-25T14:53:50Z</time>
      </trkpt>
      <trkpt lat="45.57165" lon="4.79342">
        <ele>168</ele>
        <time>2017-07-25T14:53:54Z</time>
      </trkpt>
      <trkpt lat="45.57147" lon="4.79346">
        <ele>168</ele>
        <time>2017-07-25T14:53:58Z</time>
      </trkpt>
      <trkpt lat="45.57142" lon="4.79349">
        <ele>168</ele>
        <time>2017-07-25T14:53:59Z</time>
      </trkpt>
      <trkpt lat="45.57137" lon="4.7935">
        <ele>168</ele>
        <time>2017-07-25T14:54:00Z</time>
      </trkpt>
      <trkpt lat="45.57122" lon="4.79356">
        <ele>168</ele>
        <time>2017-07-25T14:54:03Z</time>
      </trkpt>
      <trkpt lat="45.57109" lon="4.79367">
        <ele>168</ele>
        <time>2017-07-25T14:54:06Z</time>
      </trkpt>
      <trkpt lat="45.571" lon="4.79374">
        <ele>168</ele>
        <time>2017-07-25T14:54:08Z</time>
      </trkpt>
      <trkpt lat="45.57074" lon="4.79405">
        <ele>168</ele>
        <time>2017-07-25T14:54:14Z</time>
      </trkpt>
      <trkpt lat="45.57033" lon="4.79454">
        <ele>168</ele>
        <time>2017-07-25T14:54:23Z</time>
      </trkpt>
      <trkpt lat="45.5702" lon="4.79468">
        <ele>168</ele>
        <time>2017-07-25T14:54:26Z</time>
      </trkpt>
      <trkpt lat="45.57009" lon="4.79476">
        <ele>169</ele>
        <time>2017-07-25T14:54:28Z</time>
      </trkpt>
      <trkpt lat="45.56994" lon="4.79487">
        <ele>170</ele>
        <time>2017-07-25T14:54:31Z</time>
      </trkpt>
      <trkpt lat="45.56989" lon="4.79492">
        <ele>170</ele>
        <time>2017-07-25T14:54:32Z</time>
      </trkpt>
      <trkpt lat="45.56984" lon="4.79496">
        <ele>170</ele>
        <time>2017-07-25T14:54:33Z</time>
      </trkpt>
      <trkpt lat="45.56978" lon="4.795">
        <ele>169</ele>
        <time>2017-07-25T14:54:34Z</time>
      </trkpt>
      <trkpt lat="45.56973" lon="4.79504">
        <ele>169</ele>
        <time>2017-07-25T14:54:35Z</time>
      </trkpt>
      <trkpt lat="45.5695" lon="4.79522">
        <ele>169</ele>
        <time>2017-07-25T14:54:39Z</time>
      </trkpt>
      <trkpt lat="45.5694" lon="4.7953">
        <ele>169</ele>
        <time>2017-07-25T14:54:41Z</time>
      </trkpt>
      <trkpt lat="45.56904" lon="4.79553">
        <ele>169</ele>
        <time>2017-07-25T14:54:47Z</time>
      </trkpt>
      <trkpt lat="45.56886" lon="4.79564">
        <ele>169</ele>
        <time>2017-07-25T14:54:50Z</time>
      </trkpt>
      <trkpt lat="45.56867" lon="4.79572">
        <ele>169</ele>
        <time>2017-07-25T14:54:53Z</time>
      </trkpt>
      <trkpt lat="45.56828" lon="4.79599">
        <ele>169</ele>
        <time>2017-07-25T14:55:00Z</time>
      </trkpt>
      <trkpt lat="45.56806" lon="4.79616">
        <ele>169</ele>
        <time>2017-07-25T14:55:04Z</time>
      </trkpt>
      <trkpt lat="45.56801" lon="4.7962">
        <ele>169</ele>
        <time>2017-07-25T14:55:05Z</time>
      </trkpt>
      <trkpt lat="45.56795" lon="4.79625">
        <ele>169</ele>
        <time>2017-07-25T14:55:06Z</time>
      </trkpt>
      <trkpt lat="45.56789" lon="4.79629">
        <ele>169</ele>
        <time>2017-07-25T14:55:07Z</time>
      </trkpt>
      <trkpt lat="45.56783" lon="4.79633">
        <ele>169</ele>
        <time>2017-07-25T14:55:08Z</time>
      </trkpt>
      <trkpt lat="45.56751" lon="4.79651">
        <ele>170</ele>
        <time>2017-07-25T14:55:13Z</time>
      </trkpt>
      <trkpt lat="45.567" lon="4.79681">
        <ele>169</ele>
        <time>2017-07-25T14:55:21Z</time>
      </trkpt>
      <trkpt lat="45.56665" lon="4.79709">
        <ele>172</ele>
        <time>2017-07-25T14:55:27Z</time>
      </trkpt>
      <trkpt lat="45.56632" lon="4.79738">
        <ele>172</ele>
        <time>2017-07-25T14:55:33Z</time>
      </trkpt>
      <trkpt lat="45.56609" lon="4.79759">
        <ele>169</ele>
      </trkpt>
      <trkpt lat="45.5658" lon="4.79932">
        <ele>164</ele>
        <time>2017-07-25T14:56:22Z</time>
      </trkpt>
      <trkpt lat="45.56579" lon="4.79947">
        <ele>164</ele>
        <time>2017-07-25T14:56:24Z</time>
      </trkpt>
      <trkpt lat="45.56569" lon="4.79965">
        <ele>164</ele>
        <time>2017-07-25T14:56:27Z</time>
      </trkpt>
      <trkpt lat="45.56565" lon="4.79971">
        <ele>164</ele>
        <time>2017-07-25T14:56:28Z</time>
      </trkpt>
      <trkpt lat="45.5656" lon="4.79978">
        <ele>164</ele>
        <time>2017-07-25T14:56:29Z</time>
      </trkpt>
      <trkpt lat="45.56556" lon="4.79985">
        <ele>164</ele>
        <time>2017-07-25T14:56:30Z</time>
      </trkpt>
      <trkpt lat="45.56551" lon="4.79993">
        <ele>164</ele>
        <time>2017-07-25T14:56:31Z</time>
      </trkpt>
      <trkpt lat="45.56542" lon="4.80007">
        <ele>162</ele>
        <time>2017-07-25T14:56:33Z</time>
      </trkpt>
      <trkpt lat="45.56502" lon="4.80058">
        <ele>162</ele>
        <time>2017-07-25T14:56:40Z</time>
      </trkpt>
      <trkpt lat="45.56496" lon="4.80064">
        <ele>163</ele>
        <time>2017-07-25T14:56:41Z</time>
      </trkpt>
      <trkpt lat="45.5649" lon="4.8007">
        <ele>162</ele>
        <time>2017-07-25T14:56:42Z</time>
      </trkpt>
      <trkpt lat="45.56485" lon="4.80076">
        <ele>162</ele>
        <time>2017-07-25T14:56:43Z</time>
      </trkpt>
      <trkpt lat="45.56479" lon="4.80082">
        <ele>163</ele>
        <time>2017-07-25T14:56:44Z</time>
      </trkpt>
      <trkpt lat="45.56452" lon="4.80111">
        <ele>161</ele>
        <time>2017-07-25T14:56:49Z</time>
      </trkpt>
      <trkpt lat="45.56407" lon="4.80159">
        <ele>160</ele>
        <time>2017-07-25T14:56:57Z</time>
      </trkpt>
      <trkpt lat="45.56374" lon="4.80197">
        <ele>160</ele>
        <time>2017-07-25T14:57:04Z</time>
      </trkpt>
      <trkpt lat="45.56341" lon="4.80231">
        <ele>159</ele>
        <time>2017-07-25T14:57:11Z</time>
      </trkpt>
      <trkpt lat="45.56336" lon="4.80234">
        <ele>159</ele>
        <time>2017-07-25T14:57:12Z</time>
      </trkpt>
      <trkpt lat="45.56322" lon="4.80244">
        <ele>160</ele>
        <time>2017-07-25T14:57:16Z</time>
      </trkpt>
      <trkpt lat="45.56321" lon="4.80244">
        <ele>160</ele>
        <time>2017-07-25T14:57:17Z</time>
      </trkpt>
      <trkpt lat="45.56321" lon="4.80245">
        <ele>160</ele>
        <time>2017-07-25T14:57:18Z</time>
      </trkpt>
      <trkpt lat="45.5632" lon="4.80245">
        <ele>160</ele>
        <time>2017-07-25T14:57:19Z</time>
      </trkpt>
      <trkpt lat="45.5632" lon="4.80245">
        <ele>160</ele>
        <time>2017-07-25T14:57:20Z</time>
      </trkpt>
      <trkpt lat="45.56312" lon="4.80256">
        <ele>160</ele>
        <time>2017-07-25T14:57:29Z</time>
      </trkpt>
      <trkpt lat="45.56309" lon="4.80259">
        <ele>160</ele>
        <time>2017-07-25T14:57:30Z</time>
      </trkpt>
      <trkpt lat="45.56306" lon="4.80262">
        <ele>160</ele>
        <time>2017-07-25T14:57:31Z</time>
      </trkpt>
      <trkpt lat="45.56299" lon="4.80268">
        <ele>160</ele>
        <time>2017-07-25T14:57:33Z</time>
      </trkpt>
      <trkpt lat="45.56292" lon="4.80277">
        <ele>160</ele>
        <time>2017-07-25T14:57:35Z</time>
      </trkpt>
      <trkpt lat="45.56286" lon="4.80288">
        <ele>160</ele>
        <time>2017-07-25T14:57:37Z</time>
      </trkpt>
      <trkpt lat="45.56278" lon="4.8031">
        <ele>160</ele>
        <time>2017-07-25T14:57:40Z</time>
      </trkpt>
      <trkpt lat="45.56273" lon="4.80334">
        <ele>161</ele>
        <time>2017-07-25T14:57:43Z</time>
      </trkpt>
      <trkpt lat="45.56269" lon="4.80361">
        <ele>160</ele>
        <time>2017-07-25T14:57:46Z</time>
      </trkpt>
      <trkpt lat="45.56261" lon="4.80393">
        <ele>161</ele>
        <time>2017-07-25T14:57:50Z</time>
      </trkpt>
      <trkpt lat="45.56258" lon="4.804">
        <ele>161</ele>
        <time>2017-07-25T14:57:51Z</time>
      </trkpt>
      <trkpt lat="45.56249" lon="4.8042">
        <ele>161</ele>
        <time>2017-07-25T14:57:54Z</time>
      </trkpt>
      <trkpt lat="45.56241" lon="4.8043">
        <ele>161</ele>
        <time>2017-07-25T14:57:56Z</time>
      </trkpt>
      <trkpt lat="45.56219" lon="4.80436">
        <ele>161</ele>
        <time>2017-07-25T14:58:00Z</time>
      </trkpt>
      <trkpt lat="45.56207" lon="4.80432">
        <ele>161</ele>
        <time>2017-07-25T14:58:02Z</time>
      </trkpt>
      <trkpt lat="45.56201" lon="4.80431">
        <ele>161</ele>
        <time>2017-07-25T14:58:03Z</time>
      </trkpt>
      <trkpt lat="45.56195" lon="4.80432">
        <ele>161</ele>
        <time>2017-07-25T14:58:04Z</time>
      </trkpt>
      <trkpt lat="45.56176" lon="4.80442">
        <ele>161</ele>
        <time>2017-07-25T14:58:07Z</time>
      </trkpt>
      <trkpt lat="45.5617" lon="4.80447">
        <ele>161</ele>
        <time>2017-07-25T14:58:08Z</time>
      </trkpt>
      <trkpt lat="45.56135" lon="4.80475">
        <ele>161</ele>
        <time>2017-07-25T14:58:14Z</time>
      </trkpt>
      <trkpt lat="45.56104" lon="4.80501">
        <ele>160</ele>
        <time>2017-07-25T14:58:20Z</time>
      </trkpt>
      <trkpt lat="45.5607" lon="4.80525">
        <ele>163</ele>
        <time>2017-07-25T14:58:26Z</time>
      </trkpt>
      <trkpt lat="45.56047" lon="4.8054">
        <ele>164</ele>
        <time>2017-07-25T14:58:30Z</time>
      </trkpt>
      <trkpt lat="45.56042" lon="4.80543">
        <ele>164</ele>
        <time>2017-07-25T14:58:31Z</time>
      </trkpt>
      <trkpt lat="45.56032" lon="4.80549">
        <ele>165</ele>
        <time>2017-07-25T14:58:33Z</time>
      </trkpt>
      <trkpt lat="45.56023" lon="4.80551">
        <ele>165</ele>
        <time>2017-07-25T14:58:35Z</time>
      </trkpt>
      <trkpt lat="45.56018" lon="4.80552">
        <ele>165</ele>
        <time>2017-07-25T14:58:36Z</time>
      </trkpt>
      <trkpt lat="45.5601" lon="4.80552">
        <ele>165</ele>
        <time>2017-07-25T14:58:38Z</time>
      </trkpt>
      <trkpt lat="45.56005" lon="4.80553">
        <ele>165</ele>
        <time>2017-07-25T14:58:39Z</time>
      </trkpt>
      <trkpt lat="45.56001" lon="4.80553">
        <ele>165</ele>
        <time>2017-07-25T14:58:40Z</time>
      </trkpt>
      <trkpt lat="45.55997" lon="4.80553">
        <ele>169</ele>
        <time>2017-07-25T14:58:41Z</time>
      </trkpt>
      <trkpt lat="45.55994" lon="4.80553">
        <ele>169</ele>
        <time>2017-07-25T14:58:42Z</time>
      </trkpt>
      <trkpt lat="45.5599" lon="4.80553">
        <ele>169</ele>
        <time>2017-07-25T14:58:43Z</time>
      </trkpt>
      <trkpt lat="45.55987" lon="4.80553">
        <ele>169</ele>
        <time>2017-07-25T14:58:44Z</time>
      </trkpt>
      <trkpt lat="45.55977" lon="4.8056">
        <ele>170</ele>
        <time>2017-07-25T14:58:48Z</time>
      </trkpt>
      <trkpt lat="45.55977" lon="4.80568">
        <ele>169</ele>
        <time>2017-07-25T14:58:50Z</time>
      </trkpt>
      <trkpt lat="45.55988" lon="4.80585">
        <ele>166</ele>
        <time>2017-07-25T14:58:54Z</time>
      </trkpt>
      <trkpt lat="45.55991" lon="4.8059">
        <ele>166</ele>
        <time>2017-07-25T14:58:55Z</time>
      </trkpt>
      <trkpt lat="45.55995" lon="4.80602">
        <ele>166</ele>
        <time>2017-07-25T14:58:57Z</time>
      </trkpt>
      <trkpt lat="45.56003" lon="4.80629">
        <ele>162</ele>
        <time>2017-07-25T14:59:01Z</time>
      </trkpt>
      <trkpt lat="45.56004" lon="4.80636">
        <ele>162</ele>
        <time>2017-07-25T14:59:02Z</time>
      </trkpt>
      <trkpt lat="45.56009" lon="4.80663">
        <ele>161</ele>
        <time>2017-07-25T14:59:05Z</time>
      </trkpt>
      <trkpt lat="45.56003" lon="4.80673">
        <ele>160</ele>
        <time>2017-07-25T14:59:06Z</time>
      </trkpt>
      <trkpt lat="45.56003" lon="4.80677">
        <ele>160</ele>
        <time>2017-07-25T14:59:07Z</time>
      </trkpt>
      <trkpt lat="45.56011" lon="4.80701">
        <ele>159</ele>
        <time>2017-07-25T14:59:11Z</time>
      </trkpt>
      <trkpt lat="45.56054" lon="4.80852">
        <ele>157</ele>
        <time>2017-07-25T14:59:51Z</time>
      </trkpt>
      <trkpt lat="45.56064" lon="4.80876">
        <ele>157</ele>
        <time>2017-07-25T14:59:55Z</time>
      </trkpt>
      <trkpt lat="45.56067" lon="4.80882">
        <ele>157</ele>
        <time>2017-07-25T14:59:56Z</time>
      </trkpt>
      <trkpt lat="45.56076" lon="4.80897">
        <ele>157</ele>
        <time>2017-07-25T14:59:59Z</time>
      </trkpt>
      <trkpt lat="45.56086" lon="4.80911">
        <ele>157</ele>
        <time>2017-07-25T15:00:02Z</time>
      </trkpt>
      <trkpt lat="45.56092" lon="4.80921">
        <ele>157</ele>
        <time>2017-07-25T15:00:04Z</time>
      </trkpt>
      <trkpt lat="45.56104" lon="4.8094">
        <ele>157</ele>
        <time>2017-07-25T15:00:08Z</time>
      </trkpt>
      <trkpt lat="45.56107" lon="4.80945">
        <ele>157</ele>
        <time>2017-07-25T15:00:09Z</time>
      </trkpt>
      <trkpt lat="45.56108" lon="4.80957">
        <ele>156</ele>
        <time>2017-07-25T15:00:11Z</time>
      </trkpt>
      <trkpt lat="45.56106" lon="4.80987">
        <ele>156</ele>
        <time>2017-07-25T15:00:15Z</time>
      </trkpt>
      <trkpt lat="45.56106" lon="4.81003">
        <ele>155</ele>
        <time>2017-07-25T15:00:17Z</time>
      </trkpt>
      <trkpt lat="45.56105" lon="4.81031">
        <ele>155</ele>
        <time>2017-07-25T15:00:21Z</time>
      </trkpt>
      <trkpt lat="45.56106" lon="4.81054">
        <ele>155</ele>
      </trkpt>
      <trkpt lat="45.56118" lon="4.81106">
        <ele>154</ele>
        <time>2017-07-25T15:01:17Z</time>
      </trkpt>
      <trkpt lat="45.56128" lon="4.81143">
        <ele>154</ele>
        <time>2017-07-25T15:01:23Z</time>
      </trkpt>
      <trkpt lat="45.5613" lon="4.81148">
        <ele>154</ele>
        <time>2017-07-25T15:01:24Z</time>
      </trkpt>
      <trkpt lat="45.56133" lon="4.81153">
        <ele>154</ele>
        <time>2017-07-25T15:01:25Z</time>
      </trkpt>
      <trkpt lat="45.56137" lon="4.81168">
        <ele>154</ele>
        <time>2017-07-25T15:01:28Z</time>
      </trkpt>
      <trkpt lat="45.56141" lon="4.81193">
        <ele>155</ele>
        <time>2017-07-25T15:01:33Z</time>
      </trkpt>
      <trkpt lat="45.5614" lon="4.81205">
        <ele>155</ele>
        <time>2017-07-25T15:01:36Z</time>
      </trkpt>
      <trkpt lat="45.56137" lon="4.81208">
        <ele>155</ele>
        <time>2017-07-25T15:01:37Z</time>
      </trkpt>
      <trkpt lat="45.56113" lon="4.81228">
        <ele>155</ele>
        <time>2017-07-25T15:01:43Z</time>
      </trkpt>
      <trkpt lat="45.5609" lon="4.81246">
        <ele>156</ele>
        <time>2017-07-25T15:01:48Z</time>
      </trkpt>
      <trkpt lat="45.5608" lon="4.81254">
        <ele>156</ele>
        <time>2017-07-25T15:01:50Z</time>
      </trkpt>
      <trkpt lat="45.56044" lon="4.81279">
        <ele>156</ele>
        <time>2017-07-25T15:01:57Z</time>
      </trkpt>
      <trkpt lat="45.56005" lon="4.81306">
        <ele>156</ele>
        <time>2017-07-25T15:02:04Z</time>
      </trkpt>
      <trkpt lat="45.55951" lon="4.81344">
        <ele>155</ele>
        <time>2017-07-25T15:02:13Z</time>
      </trkpt>
      <trkpt lat="45.55907" lon="4.81374">
        <ele>156</ele>
        <time>2017-07-25T15:02:20Z</time>
      </trkpt>
      <trkpt lat="45.55868" lon="4.81401">
        <ele>157</ele>
        <time>2017-07-25T15:02:27Z</time>
      </trkpt>
      <trkpt lat="45.55834" lon="4.8142">
        <ele>158</ele>
        <time>2017-07-25T15:02:33Z</time>
      </trkpt>
      <trkpt lat="45.55794" lon="4.81446">
        <ele>157</ele>
        <time>2017-07-25T15:02:40Z</time>
      </trkpt>
      <trkpt lat="45.55748" lon="4.81477">
        <ele>155</ele>
        <time>2017-07-25T15:02:48Z</time>
      </trkpt>
      <trkpt lat="45.55712" lon="4.81501">
        <ele>154</ele>
        <time>2017-07-25T15:02:54Z</time>
      </trkpt>
      <trkpt lat="45.55672" lon="4.81529">
        <ele>154</ele>
        <time>2017-07-25T15:03:01Z</time>
      </trkpt>
      <trkpt lat="45.55642" lon="4.81551">
        <ele>154</ele>
        <time>2017-07-25T15:03:06Z</time>
      </trkpt>
      <trkpt lat="45.55601" lon="4.8158">
        <ele>155</ele>
        <time>2017-07-25T15:03:13Z</time>
      </trkpt>
      <trkpt lat="45.55562" lon="4.81614">
        <ele>156</ele>
        <time>2017-07-25T15:03:20Z</time>
      </trkpt>
      <trkpt lat="45.55521" lon="4.8166">
        <ele>155</ele>
        <time>2017-07-25T15:03:28Z</time>
      </trkpt>
      <trkpt lat="45.55488" lon="4.81704">
        <ele>158</ele>
        <time>2017-07-25T15:03:35Z</time>
      </trkpt>
      <trkpt lat="45.5548" lon="4.81716">
        <ele>158</ele>
        <time>2017-07-25T15:03:37Z</time>
      </trkpt>
      <trkpt lat="45.55467" lon="4.81732">
        <ele>158</ele>
        <time>2017-07-25T15:03:40Z</time>
      </trkpt>
      <trkpt lat="45.5546" lon="4.81745">
        <ele>158</ele>
        <time>2017-07-25T15:03:42Z</time>
      </trkpt>
      <trkpt lat="45.55449" lon="4.81766">
        <ele>156</ele>
        <time>2017-07-25T15:03:45Z</time>
      </trkpt>
      <trkpt lat="45.55418" lon="4.81826">
        <ele>154</ele>
        <time>2017-07-25T15:03:53Z</time>
      </trkpt>
      <trkpt lat="45.55407" lon="4.81848">
        <ele>155</ele>
        <time>2017-07-25T15:03:56Z</time>
      </trkpt>
      <trkpt lat="45.55398" lon="4.81869">
        <ele>156</ele>
        <time>2017-07-25T15:03:59Z</time>
      </trkpt>
      <trkpt lat="45.55369" lon="4.81923">
        <ele>155</ele>
        <time>2017-07-25T15:04:07Z</time>
      </trkpt>
      <trkpt lat="45.55359" lon="4.81939">
        <ele>155</ele>
        <time>2017-07-25T15:04:11Z</time>
      </trkpt>
      <trkpt lat="45.55358" lon="4.8194">
        <ele>155</ele>
        <time>2017-07-25T15:04:15Z</time>
      </trkpt>
      <trkpt lat="45.55358" lon="4.8194">
        <ele>155</ele>
        <time>2017-07-25T15:04:24Z</time>
      </trkpt>
      <trkpt lat="45.55355" lon="4.81945">
        <ele>156</ele>
        <time>2017-07-25T15:04:29Z</time>
      </trkpt>
      <trkpt lat="45.55344" lon="4.8196">
        <ele>156</ele>
        <time>2017-07-25T15:04:33Z</time>
      </trkpt>
      <trkpt lat="45.55341" lon="4.81964">
        <ele>156</ele>
        <time>2017-07-25T15:04:34Z</time>
      </trkpt>
      <trkpt lat="45.55334" lon="4.81974">
        <ele>155</ele>
        <time>2017-07-25T15:04:36Z</time>
      </trkpt>
      <trkpt lat="45.55331" lon="4.81979">
        <ele>158</ele>
        <time>2017-07-25T15:04:37Z</time>
      </trkpt>
      <trkpt lat="45.55314" lon="4.81996">
        <ele>158</ele>
        <time>2017-07-25T15:04:41Z</time>
      </trkpt>
      <trkpt lat="45.55305" lon="4.82003">
        <ele>156</ele>
        <time>2017-07-25T15:04:43Z</time>
      </trkpt>
      <trkpt lat="45.5528" lon="4.82029">
        <ele>156</ele>
        <time>2017-07-25T15:04:49Z</time>
      </trkpt>
      <trkpt lat="45.55249" lon="4.82059">
        <ele>161</ele>
        <time>2017-07-25T15:04:56Z</time>
      </trkpt>
      <trkpt lat="45.55224" lon="4.82084">
        <ele>158</ele>
        <time>2017-07-25T15:05:02Z</time>
      </trkpt>
      <trkpt lat="45.5522" lon="4.82088">
        <ele>158</ele>
        <time>2017-07-25T15:05:03Z</time>
      </trkpt>
      <trkpt lat="45.55195" lon="4.82125">
        <ele>158</ele>
        <time>2017-07-25T15:05:10Z</time>
      </trkpt>
      <trkpt lat="45.5519" lon="4.8214">
        <ele>157</ele>
        <time>2017-07-25T15:05:13Z</time>
      </trkpt>
      <trkpt lat="45.5519" lon="4.82144">
        <ele>157</ele>
        <time>2017-07-25T15:05:14Z</time>
      </trkpt>
      <trkpt lat="45.55189" lon="4.82159">
        <ele>156</ele>
        <time>2017-07-25T15:05:18Z</time>
      </trkpt>
      <trkpt lat="45.55187" lon="4.82163">
        <ele>156</ele>
        <time>2017-07-25T15:05:19Z</time>
      </trkpt>
      <trkpt lat="45.55176" lon="4.82183">
        <ele>154</ele>
        <time>2017-07-25T15:05:23Z</time>
      </trkpt>
      <trkpt lat="45.55157" lon="4.82223">
        <ele>156</ele>
        <time>2017-07-25T15:05:29Z</time>
      </trkpt>
      <trkpt lat="45.55134" lon="4.82262">
        <ele>154</ele>
        <time>2017-07-25T15:05:35Z</time>
      </trkpt>
      <trkpt lat="45.55111" lon="4.82297">
        <ele>154</ele>
        <time>2017-07-25T15:05:41Z</time>
      </trkpt>
      <trkpt lat="45.55081" lon="4.82339">
        <ele>154</ele>
        <time>2017-07-25T15:05:48Z</time>
      </trkpt>
      <trkpt lat="45.55046" lon="4.8238">
        <ele>155</ele>
        <time>2017-07-25T15:05:55Z</time>
      </trkpt>
      <trkpt lat="45.55006" lon="4.8242">
        <ele>155</ele>
        <time>2017-07-25T15:06:02Z</time>
      </trkpt>
      <trkpt lat="45.54966" lon="4.82456">
        <ele>155</ele>
        <time>2017-07-25T15:06:09Z</time>
      </trkpt>
      <trkpt lat="45.54934" lon="4.82483">
        <ele>154</ele>
        <time>2017-07-25T15:06:15Z</time>
      </trkpt>
      <trkpt lat="45.54901" lon="4.82513">
        <ele>154</ele>
        <time>2017-07-25T15:06:23Z</time>
      </trkpt>
      <trkpt lat="45.54886" lon="4.82525">
        <ele>154</ele>
        <time>2017-07-25T15:06:28Z</time>
      </trkpt>
      <trkpt lat="45.5487" lon="4.82539">
        <ele>154</ele>
        <time>2017-07-25T15:06:35Z</time>
      </trkpt>
      <trkpt lat="45.54857" lon="4.82552">
        <ele>154</ele>
        <time>2017-07-25T15:06:41Z</time>
      </trkpt>
      <trkpt lat="45.54835" lon="4.8257">
        <ele>154</ele>
        <time>2017-07-25T15:06:50Z</time>
      </trkpt>
      <trkpt lat="45.54821" lon="4.82581">
        <ele>155</ele>
        <time>2017-07-25T15:06:56Z</time>
      </trkpt>
      <trkpt lat="45.54807" lon="4.82594">
        <ele>155</ele>
        <time>2017-07-25T15:07:03Z</time>
      </trkpt>
      <trkpt lat="45.54708" lon="4.82692">
        <ele>155</ele>
        <time>2017-07-25T15:07:21Z</time>
      </trkpt>
      <trkpt lat="45.54703" lon="4.82701">
        <ele>155</ele>
        <time>2017-07-25T15:07:22Z</time>
      </trkpt>
      <trkpt lat="45.54692" lon="4.82721">
        <ele>155</ele>
        <time>2017-07-25T15:07:25Z</time>
      </trkpt>
      <trkpt lat="45.54682" lon="4.82756">
        <ele>155</ele>
        <time>2017-07-25T15:07:29Z</time>
      </trkpt>
      <trkpt lat="45.54681" lon="4.82767">
        <ele>155</ele>
        <time>2017-07-25T15:07:30Z</time>
      </trkpt>
      <trkpt lat="45.54677" lon="4.82818">
        <ele>155</ele>
        <time>2017-07-25T15:07:35Z</time>
      </trkpt>
      <trkpt lat="45.54673" lon="4.82891">
        <ele>157</ele>
        <time>2017-07-25T15:07:42Z</time>
      </trkpt>
      <trkpt lat="45.54668" lon="4.82921">
        <ele>158</ele>
        <time>2017-07-25T15:07:45Z</time>
      </trkpt>
      <trkpt lat="45.54664" lon="4.8293">
        <ele>158</ele>
        <time>2017-07-25T15:07:46Z</time>
      </trkpt>
      <trkpt lat="45.54647" lon="4.8295">
        <ele>158</ele>
        <time>2017-07-25T15:07:49Z</time>
      </trkpt>
      <trkpt lat="45.54607" lon="4.83005">
        <ele>163</ele>
        <time>2017-07-25T15:07:56Z</time>
      </trkpt>
      <trkpt lat="45.54602" lon="4.83013">
        <ele>163</ele>
        <time>2017-07-25T15:07:57Z</time>
      </trkpt>
      <trkpt lat="45.54561" lon="4.83071">
        <ele>159</ele>
        <time>2017-07-25T15:08:04Z</time>
      </trkpt>
      <trkpt lat="45.54556" lon="4.83079">
        <ele>159</ele>
        <time>2017-07-25T15:08:05Z</time>
      </trkpt>
      <trkpt lat="45.54483" lon="4.83193">
        <ele>155</ele>
        <time>2017-07-25T15:08:21Z</time>
      </trkpt>
      <trkpt lat="45.54455" lon="4.83236">
        <ele>155</ele>
        <time>2017-07-25T15:08:27Z</time>
      </trkpt>
      <trkpt lat="45.54417" lon="4.83297">
        <ele>153</ele>
        <time>2017-07-25T15:08:36Z</time>
      </trkpt>
      <trkpt lat="45.5438" lon="4.83362">
        <ele>152</ele>
        <time>2017-07-25T15:08:44Z</time>
      </trkpt>
      <trkpt lat="45.54354" lon="4.83412">
        <ele>152</ele>
        <time>2017-07-25T15:08:50Z</time>
      </trkpt>
      <trkpt lat="45.5435" lon="4.83421">
        <ele>151</ele>
        <time>2017-07-25T15:08:51Z</time>
      </trkpt>
      <trkpt lat="45.54345" lon="4.83429">
        <ele>152</ele>
        <time>2017-07-25T15:08:52Z</time>
      </trkpt>
      <trkpt lat="45.54341" lon="4.83437">
        <ele>152</ele>
        <time>2017-07-25T15:08:53Z</time>
      </trkpt>
      <trkpt lat="45.54336" lon="4.83446">
        <ele>152</ele>
        <time>2017-07-25T15:08:54Z</time>
      </trkpt>
      <trkpt lat="45.54308" lon="4.83505">
        <ele>154</ele>
        <time>2017-07-25T15:09:01Z</time>
      </trkpt>
      <trkpt lat="45.54278" lon="4.83574">
        <ele>153</ele>
        <time>2017-07-25T15:09:09Z</time>
      </trkpt>
      <trkpt lat="45.54251" lon="4.83644">
        <ele>149</ele>
        <time>2017-07-25T15:09:17Z</time>
      </trkpt>
      <trkpt lat="45.54225" lon="4.83714">
        <ele>150</ele>
        <time>2017-07-25T15:09:25Z</time>
      </trkpt>
      <trkpt lat="45.54223" lon="4.83723">
        <ele>150</ele>
        <time>2017-07-25T15:09:26Z</time>
      </trkpt>
      <trkpt lat="45.54203" lon="4.83781">
        <ele>151</ele>
        <time>2017-07-25T15:09:33Z</time>
      </trkpt>
      <trkpt lat="45.54179" lon="4.83855">
        <ele>153</ele>
        <time>2017-07-25T15:09:42Z</time>
      </trkpt>
      <trkpt lat="45.54173" lon="4.83877">
        <ele>153</ele>
        <time>2017-07-25T15:09:45Z</time>
      </trkpt>
      <trkpt lat="45.54168" lon="4.83893">
        <ele>153</ele>
        <time>2017-07-25T15:09:47Z</time>
      </trkpt>
      <trkpt lat="45.54152" lon="4.83959">
        <ele>153</ele>
        <time>2017-07-25T15:09:55Z</time>
      </trkpt>
      <trkpt lat="45.54148" lon="4.83974">
        <ele>152</ele>
        <time>2017-07-25T15:09:57Z</time>
      </trkpt>
      <trkpt lat="45.54144" lon="4.83997">
        <ele>151</ele>
        <time>2017-07-25T15:10:00Z</time>
      </trkpt>
      <trkpt lat="45.54139" lon="4.84025">
        <ele>150</ele>
        <time>2017-07-25T15:10:04Z</time>
      </trkpt>
      <trkpt lat="45.54137" lon="4.84034">
        <ele>151</ele>
        <time>2017-07-25T15:10:05Z</time>
      </trkpt>
      <trkpt lat="45.54129" lon="4.84068">
        <ele>151</ele>
        <time>2017-07-25T15:10:09Z</time>
      </trkpt>
      <trkpt lat="45.54126" lon="4.84077">
        <ele>151</ele>
        <time>2017-07-25T15:10:10Z</time>
      </trkpt>
      <trkpt lat="45.54114" lon="4.84128">
        <ele>152</ele>
        <time>2017-07-25T15:10:16Z</time>
      </trkpt>
      <trkpt lat="45.54107" lon="4.84163">
        <ele>153</ele>
        <time>2017-07-25T15:10:20Z</time>
      </trkpt>
      <trkpt lat="45.54104" lon="4.84172">
        <ele>153</ele>
        <time>2017-07-25T15:10:21Z</time>
      </trkpt>
      <trkpt lat="45.54086" lon="4.84239">
        <ele>154</ele>
        <time>2017-07-25T15:10:28Z</time>
      </trkpt>
      <trkpt lat="45.54069" lon="4.84314">
        <ele>157</ele>
        <time>2017-07-25T15:10:36Z</time>
      </trkpt>
      <trkpt lat="45.54063" lon="4.8434">
        <ele>156</ele>
        <time>2017-07-25T15:10:39Z</time>
      </trkpt>
      <trkpt lat="45.5406" lon="4.84356">
        <ele>156</ele>
        <time>2017-07-25T15:10:41Z</time>
      </trkpt>
      <trkpt lat="45.54057" lon="4.84372">
        <ele>155</ele>
        <time>2017-07-25T15:10:43Z</time>
      </trkpt>
      <trkpt lat="45.54051" lon="4.84405">
        <ele>154</ele>
        <time>2017-07-25T15:10:47Z</time>
      </trkpt>
      <trkpt lat="45.54049" lon="4.84414">
        <ele>154</ele>
        <time>2017-07-25T15:10:48Z</time>
      </trkpt>
      <trkpt lat="45.54048" lon="4.84423">
        <ele>152</ele>
        <time>2017-07-25T15:10:49Z</time>
      </trkpt>
      <trkpt lat="45.54047" lon="4.84432">
        <ele>152</ele>
        <time>2017-07-25T15:10:50Z</time>
      </trkpt>
      <trkpt lat="45.54046" lon="4.84441">
        <ele>152</ele>
        <time>2017-07-25T15:10:51Z</time>
      </trkpt>
      <trkpt lat="45.54045" lon="4.84451">
        <ele>152</ele>
        <time>2017-07-25T15:10:52Z</time>
      </trkpt>
      <trkpt lat="45.54042" lon="4.84469">
        <ele>152</ele>
        <time>2017-07-25T15:10:54Z</time>
      </trkpt>
      <trkpt lat="45.5403" lon="4.84546">
        <ele>151</ele>
        <time>2017-07-25T15:11:02Z</time>
      </trkpt>
      <trkpt lat="45.54023" lon="4.84604">
        <ele>151</ele>
        <time>2017-07-25T15:11:09Z</time>
      </trkpt>
      <trkpt lat="45.54014" lon="4.84681">
        <ele>153</ele>
        <time>2017-07-25T15:11:18Z</time>
      </trkpt>
      <trkpt lat="45.54011" lon="4.84716">
        <ele>153</ele>
        <time>2017-07-25T15:11:22Z</time>
      </trkpt>
      <trkpt lat="45.5401" lon="4.84725">
        <ele>154</ele>
        <time>2017-07-25T15:11:23Z</time>
      </trkpt>
      <trkpt lat="45.54004" lon="4.84778">
        <ele>153</ele>
        <time>2017-07-25T15:11:29Z</time>
      </trkpt>
      <trkpt lat="45.53998" lon="4.84832">
        <ele>153</ele>
        <time>2017-07-25T15:11:35Z</time>
      </trkpt>
      <trkpt lat="45.53991" lon="4.84902">
        <ele>150</ele>
        <time>2017-07-25T15:11:43Z</time>
      </trkpt>
      <trkpt lat="45.53986" lon="4.84961">
        <ele>150</ele>
        <time>2017-07-25T15:11:50Z</time>
      </trkpt>
      <trkpt lat="45.53964" lon="4.85138">
        <ele>151</ele>
        <time>2017-07-25T15:12:16Z</time>
      </trkpt>
      <trkpt lat="45.53959" lon="4.85198">
        <ele>151</ele>
        <time>2017-07-25T15:12:23Z</time>
      </trkpt>
      <trkpt lat="45.53952" lon="4.85273">
        <ele>149</ele>
        <time>2017-07-25T15:12:32Z</time>
      </trkpt>
      <trkpt lat="45.53947" lon="4.85322">
        <ele>149</ele>
        <time>2017-07-25T15:12:39Z</time>
      </trkpt>
      <trkpt lat="45.53926" lon="4.85454">
        <ele>151</ele>
        <time>2017-07-25T15:13:31Z</time>
      </trkpt>
      <trkpt lat="45.53918" lon="4.85483">
        <ele>151</ele>
        <time>2017-07-25T15:13:37Z</time>
      </trkpt>
      <trkpt lat="45.53906" lon="4.85483">
        <ele>152</ele>
        <time>2017-07-25T15:13:40Z</time>
      </trkpt>
      <trkpt lat="45.53888" lon="4.85478">
        <ele>153</ele>
        <time>2017-07-25T15:13:44Z</time>
      </trkpt>
      <trkpt lat="45.53883" lon="4.85477">
        <ele>153</ele>
        <time>2017-07-25T15:13:45Z</time>
      </trkpt>
      <trkpt lat="45.53871" lon="4.85474">
        <ele>153</ele>
        <time>2017-07-25T15:13:49Z</time>
      </trkpt>
      <trkpt lat="45.53852" lon="4.85469">
        <ele>153</ele>
        <time>2017-07-25T15:13:54Z</time>
      </trkpt>
      <trkpt lat="45.53836" lon="4.85466">
        <ele>153</ele>
        <time>2017-07-25T15:13:59Z</time>
      </trkpt>
      <trkpt lat="45.53831" lon="4.85469">
        <ele>156</ele>
        <time>2017-07-25T15:14:01Z</time>
      </trkpt>
      <trkpt lat="45.5383" lon="4.85474">
        <ele>156</ele>
        <time>2017-07-25T15:14:02Z</time>
      </trkpt>
      <trkpt lat="45.53827" lon="4.855">
        <ele>155</ele>
        <time>2017-07-25T15:14:06Z</time>
      </trkpt>
      <trkpt lat="45.53826" lon="4.85508">
        <ele>155</ele>
        <time>2017-07-25T15:14:07Z</time>
      </trkpt>
      <trkpt lat="45.53805" lon="4.85647">
        <ele>153</ele>
        <time>2017-07-25T15:16:53Z</time>
      </trkpt>
      <trkpt lat="45.53803" lon="4.85662">
        <ele>153</ele>
        <time>2017-07-25T15:16:55Z</time>
      </trkpt>
      <trkpt lat="45.53801" lon="4.85677">
        <ele>152</ele>
        <time>2017-07-25T15:16:57Z</time>
      </trkpt>
      <trkpt lat="45.53795" lon="4.85704">
        <ele>152</ele>
        <time>2017-07-25T15:17:01Z</time>
      </trkpt>
      <trkpt lat="45.53793" lon="4.85717">
        <ele>152</ele>
        <time>2017-07-25T15:17:03Z</time>
      </trkpt>
      <trkpt lat="45.53786" lon="4.85772">
        <ele>152</ele>
        <time>2017-07-25T15:17:10Z</time>
      </trkpt>
      <trkpt lat="45.53778" lon="4.85827">
        <ele>152</ele>
        <time>2017-07-25T15:17:17Z</time>
      </trkpt>
      <trkpt lat="45.53771" lon="4.85871">
        <ele>152</ele>
        <time>2017-07-25T15:17:23Z</time>
      </trkpt>
      <trkpt lat="45.53763" lon="4.85926">
        <ele>152</ele>
        <time>2017-07-25T15:17:30Z</time>
      </trkpt>
      <trkpt lat="45.53758" lon="4.85963">
        <ele>150</ele>
        <time>2017-07-25T15:17:35Z</time>
      </trkpt>
      <trkpt lat="45.53757" lon="4.85971">
        <ele>149</ele>
        <time>2017-07-25T15:17:36Z</time>
      </trkpt>
      <trkpt lat="45.5375" lon="4.86021">
        <ele>149</ele>
        <time>2017-07-25T15:17:42Z</time>
      </trkpt>
      <trkpt lat="45.5374" lon="4.86083">
        <ele>149</ele>
        <time>2017-07-25T15:17:49Z</time>
      </trkpt>
      <trkpt lat="45.53726" lon="4.86133">
        <ele>150</ele>
        <time>2017-07-25T15:17:55Z</time>
      </trkpt>
      <trkpt lat="45.53711" lon="4.86182">
        <ele>150</ele>
        <time>2017-07-25T15:18:01Z</time>
      </trkpt>
      <trkpt lat="45.53691" lon="4.86235">
        <ele>151</ele>
        <time>2017-07-25T15:18:08Z</time>
      </trkpt>
      <trkpt lat="45.53673" lon="4.8628">
        <ele>150</ele>
        <time>2017-07-25T15:18:14Z</time>
      </trkpt>
      <trkpt lat="45.53656" lon="4.86327">
        <ele>149</ele>
        <time>2017-07-25T15:18:20Z</time>
      </trkpt>
      <trkpt lat="45.53637" lon="4.86389">
        <ele>150</ele>
        <time>2017-07-25T15:18:27Z</time>
      </trkpt>
      <trkpt lat="45.53625" lon="4.86438">
        <ele>150</ele>
        <time>2017-07-25T15:18:33Z</time>
      </trkpt>
      <trkpt lat="45.53606" lon="4.86495">
        <ele>150</ele>
        <time>2017-07-25T15:18:40Z</time>
      </trkpt>
      <trkpt lat="45.53588" lon="4.86546">
        <ele>149</ele>
        <time>2017-07-25T15:18:46Z</time>
      </trkpt>
      <trkpt lat="45.5357" lon="4.86589">
        <ele>149</ele>
        <time>2017-07-25T15:18:52Z</time>
      </trkpt>
      <trkpt lat="45.53551" lon="4.86633">
        <ele>149</ele>
        <time>2017-07-25T15:18:58Z</time>
      </trkpt>
      <trkpt lat="45.53542" lon="4.86656">
        <ele>149</ele>
        <time>2017-07-25T15:19:01Z</time>
      </trkpt>
      <trkpt lat="45.53532" lon="4.86682">
        <ele>149</ele>
        <time>2017-07-25T15:19:04Z</time>
      </trkpt>
      <trkpt lat="45.53529" lon="4.86689">
        <ele>149</ele>
        <time>2017-07-25T15:19:05Z</time>
      </trkpt>
      <trkpt lat="45.53512" lon="4.86724">
        <ele>148</ele>
        <time>2017-07-25T15:19:09Z</time>
      </trkpt>
      <trkpt lat="45.53479" lon="4.86789">
        <ele>149</ele>
        <time>2017-07-25T15:19:17Z</time>
      </trkpt>
      <trkpt lat="45.5345" lon="4.86832">
        <ele>150</ele>
        <time>2017-07-25T15:19:23Z</time>
      </trkpt>
      <trkpt lat="45.53426" lon="4.86872">
        <ele>150</ele>
        <time>2017-07-25T15:19:29Z</time>
      </trkpt>
      <trkpt lat="45.534" lon="4.86905">
        <ele>150</ele>
        <time>2017-07-25T15:19:34Z</time>
      </trkpt>
      <trkpt lat="45.53377" lon="4.86939">
        <ele>150</ele>
        <time>2017-07-25T15:19:39Z</time>
      </trkpt>
      <trkpt lat="45.53341" lon="4.86989">
        <ele>151</ele>
        <time>2017-07-25T15:19:47Z</time>
      </trkpt>
      <trkpt lat="45.53306" lon="4.87028">
        <ele>151</ele>
        <time>2017-07-25T15:19:54Z</time>
      </trkpt>
      <trkpt lat="45.53264" lon="4.87066">
        <ele>150</ele>
        <time>2017-07-25T15:20:02Z</time>
      </trkpt>
      <trkpt lat="45.53237" lon="4.87089">
        <ele>149</ele>
        <time>2017-07-25T15:20:07Z</time>
      </trkpt>
      <trkpt lat="45.53226" lon="4.87097">
        <ele>149</ele>
        <time>2017-07-25T15:20:09Z</time>
      </trkpt>
      <trkpt lat="45.53194" lon="4.87124">
        <ele>149</ele>
        <time>2017-07-25T15:20:15Z</time>
      </trkpt>
      <trkpt lat="45.53184" lon="4.87132">
        <ele>149</ele>
        <time>2017-07-25T15:20:17Z</time>
      </trkpt>
      <trkpt lat="45.53166" lon="4.87146">
        <ele>150</ele>
        <time>2017-07-25T15:20:21Z</time>
      </trkpt>
      <trkpt lat="45.53138" lon="4.87162">
        <ele>151</ele>
        <time>2017-07-25T15:20:27Z</time>
      </trkpt>
      <trkpt lat="45.53127" lon="4.87165">
        <ele>151</ele>
        <time>2017-07-25T15:20:29Z</time>
      </trkpt>
      <trkpt lat="45.53105" lon="4.8717">
        <ele>151</ele>
        <time>2017-07-25T15:20:33Z</time>
      </trkpt>
      <trkpt lat="45.53074" lon="4.87172">
        <ele>152</ele>
        <time>2017-07-25T15:20:39Z</time>
      </trkpt>
      <trkpt lat="45.53065" lon="4.87172">
        <ele>152</ele>
        <time>2017-07-25T15:20:41Z</time>
      </trkpt>
      <trkpt lat="45.53051" lon="4.87171">
        <ele>152</ele>
        <time>2017-07-25T15:20:44Z</time>
      </trkpt>
      <trkpt lat="45.52907" lon="4.87141">
        <ele>153</ele>
        <time>2017-07-25T15:21:14Z</time>
      </trkpt>
      <trkpt lat="45.52885" lon="4.87135">
        <ele>153</ele>
        <time>2017-07-25T15:21:19Z</time>
      </trkpt>
      <trkpt lat="45.5288" lon="4.87134">
        <ele>153</ele>
        <time>2017-07-25T15:21:20Z</time>
      </trkpt>
      <trkpt lat="45.52849" lon="4.87121">
        <ele>152</ele>
        <time>2017-07-25T15:21:26Z</time>
      </trkpt>
      <trkpt lat="45.52827" lon="4.87108">
        <ele>151</ele>
        <time>2017-07-25T15:21:30Z</time>
      </trkpt>
      <trkpt lat="45.52778" lon="4.87074">
        <ele>152</ele>
        <time>2017-07-25T15:21:38Z</time>
      </trkpt>
      <trkpt lat="45.52745" lon="4.87054">
        <ele>151</ele>
        <time>2017-07-25T15:21:44Z</time>
      </trkpt>
      <trkpt lat="45.52709" lon="4.87029">
        <ele>152</ele>
        <time>2017-07-25T15:21:51Z</time>
      </trkpt>
      <trkpt lat="45.52675" lon="4.87009">
        <ele>154</ele>
        <time>2017-07-25T15:21:58Z</time>
      </trkpt>
      <trkpt lat="45.52655" lon="4.86994">
        <ele>154</ele>
        <time>2017-07-25T15:22:03Z</time>
      </trkpt>
      <trkpt lat="45.52648" lon="4.86989">
        <ele>154</ele>
        <time>2017-07-25T15:22:05Z</time>
      </trkpt>
      <trkpt lat="45.52638" lon="4.86977">
        <ele>154</ele>
        <time>2017-07-25T15:22:09Z</time>
      </trkpt>
      <trkpt lat="45.52548" lon="4.86907">
        <ele>154</ele>
      </trkpt>
    </trkseg>
  </trk>
</gpx>